Provisional Data: Quittapahilla Creek near Syner, PA


Please select a monitoring station.
Please select start date.
Please select start date.

Toggle Unit: C/F Toggle Unit: C/F
Sample Time Temperature (C) Temperature (F) Specific Conductivity (mS/cm) pH   Turbidity (NTU+) DO (mg/L)
12/11/2021 12:00:00 AM 9.28 48.704 0.673 7.91 2.17 10.4
12/11/2021 12:15:00 AM 9.29 48.722 0.673 7.91 1.33 10.38
12/11/2021 12:30:00 AM 9.29 48.722 0.673 7.9 1.18 10.33
12/11/2021 12:45:00 AM 9.3 48.74 0.674 7.9 1.76 10.26
12/11/2021 1:00:00 AM 9.31 48.758 0.675 7.89 1.93 10.23
12/11/2021 1:15:00 AM 9.33 48.794 0.675 7.89 2.14 10.21
12/11/2021 1:30:00 AM 9.34 48.812 0.676 7.88 1.82 10.15
12/11/2021 1:45:00 AM 9.36 48.848 0.677 7.88 1.08 10.11
12/11/2021 2:00:00 AM 9.37 48.866 0.678 7.87 1.8 10.09
12/11/2021 2:15:00 AM 9.39 48.902 0.678 7.87 0.81 10.05
12/11/2021 2:30:00 AM 9.4 48.92 0.679 7.86 0.87 10
12/11/2021 2:45:00 AM 9.42 48.956 0.68 7.86 1.37 9.99
12/11/2021 3:00:00 AM 9.43 48.974 0.68 7.86 0.83 9.93
12/11/2021 3:15:00 AM 9.45 49.01 0.681 7.86 0.94 9.92
12/11/2021 3:30:00 AM 9.46 49.028 0.681 7.85 1.48 9.9
12/11/2021 3:45:00 AM 9.47 49.046 0.681 7.85 0.96 9.89
12/11/2021 4:00:00 AM 9.48 49.064 0.681 7.85 1.1 9.87
12/11/2021 4:15:00 AM 9.49 49.082 0.682 7.85 1.1 9.84
12/11/2021 4:30:00 AM 9.5 49.1 0.682 7.84 0.84 9.84
12/11/2021 4:45:00 AM 9.51 49.118 0.682 7.84 1.46 9.8
12/11/2021 5:00:00 AM 9.52 49.136 0.682 7.84 1.12 9.79
12/11/2021 5:15:00 AM 9.53 49.154 0.682 7.84 1.29 9.78
12/11/2021 5:30:00 AM 9.54 49.172 0.682 7.83 4.32 9.77
12/11/2021 5:45:00 AM 9.55 49.19 0.683 7.83 12.03 9.75
12/11/2021 6:00:00 AM 9.56 49.208 0.683 7.84 10.14 9.74
12/11/2021 6:15:00 AM 9.56 49.208 0.683 7.84 2.84 9.73
12/11/2021 6:30:00 AM 9.57 49.226 0.683 7.85 3481 9.72
12/11/2021 6:45:00 AM 9.58 49.244 0.683 7.84 5.37 9.71
12/11/2021 7:00:00 AM 9.59 49.262 0.682 7.84 3.59 9.7
12/11/2021 7:15:00 AM 9.59 49.262 0.682 7.84 7.99 9.7
12/11/2021 7:30:00 AM 9.6 49.28 0.682 7.84 2.54 9.68
12/11/2021 7:45:00 AM 9.61 49.298 0.682 7.84 7.63 9.69
12/11/2021 8:00:00 AM 9.61 49.298 0.682 7.84 6.28 9.7
12/11/2021 8:15:00 AM 9.62 49.316 0.682 7.84 6.74 9.71
12/11/2021 8:30:00 AM 9.63 49.334 0.682 7.84 4.44 9.74
12/11/2021 8:45:00 AM 9.64 49.352 0.682 7.84 4.21 9.78
12/11/2021 9:00:00 AM 9.64 49.352 0.681 7.85 3.81 9.84
12/11/2021 9:15:00 AM 9.66 49.388 0.681 7.85 3.97 9.91
12/11/2021 9:30:00 AM 9.67 49.406 0.681 7.86 4.3 10.01
12/11/2021 9:45:00 AM 9.68 49.424 0.68 7.86 3.57 10.07
12/11/2021 10:00:00 AM 9.7 49.46 0.68 7.87 3.01 10.15
12/11/2021 10:15:00 AM 9.71 49.478 0.68 7.87 2.08 10.24
12/11/2021 10:30:00 AM 9.72 49.496 0.68 7.87 1.14 10.29
12/11/2021 10:45:00 AM 9.74 49.532 0.679 7.88 2.39 10.37
12/11/2021 11:00:00 AM 9.76 49.568 0.679 7.88 4.88 10.43
12/11/2021 11:15:00 AM 9.77 49.586 0.679 7.89 1.45 10.52
12/11/2021 11:30:00 AM 9.79 49.622 0.678 7.9 0.71 10.59
12/11/2021 11:45:00 AM 9.81 49.658 0.678 7.9 0.82 10.67
12/11/2021 12:00:00 PM 9.83 49.694 0.678 7.91 3.84 10.75
12/11/2021 12:15:00 PM 9.85 49.73 0.677 7.92 1.72 10.84
12/11/2021 12:30:00 PM 9.88 49.784 0.677 7.93 2.32 10.96
12/11/2021 12:45:00 PM 9.92 49.856 0.676 7.94 1.53 11.1
12/11/2021 1:00:00 PM 9.95 49.91 0.676 7.95 2.62 11.27
12/11/2021 1:15:00 PM 9.99 49.982 0.676 7.96 1.22 11.4
12/11/2021 1:30:00 PM 10.02 50.036 0.675 7.96 1.05 11.46
12/11/2021 1:45:00 PM 10.05 50.09 0.675 7.97 2.5 11.51
12/11/2021 2:00:00 PM 10.07 50.126 0.675 7.97 1.34 11.51
12/11/2021 2:15:00 PM 10.09 50.162 0.674 7.97 2.55 11.43
12/11/2021 2:30:00 PM 10.11 50.198 0.675 7.96 0.99 11.35
12/11/2021 2:45:00 PM 10.14 50.252 0.675 7.96 0.81 11.31
12/11/2021 3:00:00 PM 10.16 50.288 0.674 7.96 0.81 11.3
12/11/2021 3:15:00 PM 10.19 50.342 0.674 7.96 0.57 11.31
12/11/2021 3:30:00 PM 10.21 50.378 0.672 7.97 0.51 11.36
12/11/2021 3:45:00 PM 10.24 50.432 0.67 7.97 0.67 11.39
12/11/2021 4:00:00 PM 10.26 50.468 0.669 7.97 0.68 11.41
12/11/2021 4:15:00 PM 10.3 50.54 0.668 7.96 0.64 11.39
12/11/2021 4:30:00 PM 10.34 50.612 0.668 7.96 0.75 11.32
12/11/2021 4:45:00 PM 10.37 50.666 0.668 7.95 0.65 11.26
12/11/2021 5:00:00 PM 10.4 50.72 0.668 7.94 0.85 11.18
12/11/2021 5:15:00 PM 10.43 50.774 0.668 7.94 1.21 11.08
12/11/2021 5:30:00 PM 10.45 50.81 0.668 7.93 1.47 11
12/11/2021 5:45:00 PM 10.46 50.828 0.668 7.93 1.36 10.92
12/11/2021 6:00:00 PM 10.49 50.882 0.668 7.92 1.35 10.86
12/11/2021 6:15:00 PM 10.52 50.936 0.668 7.91 1.33 10.78
12/11/2021 6:30:00 PM 10.53 50.954 0.667 7.91 1.23 10.7
12/11/2021 6:45:00 PM 10.55 50.99 0.667 7.91 1.41 10.65
12/11/2021 7:00:00 PM 10.58 51.044 0.667 7.9 1.21 10.61
12/11/2021 7:15:00 PM 10.61 51.098 0.666 7.9 1.48 10.56
12/11/2021 7:30:00 PM 10.65 51.17 0.666 7.9 1.52 10.56
12/11/2021 7:45:00 PM 10.69 51.242 0.666 7.9 0.95 10.53
12/11/2021 8:00:00 PM 10.7 51.26 0.666 7.9 1.25 10.49
12/11/2021 8:15:00 PM 10.7 51.26 0.666 7.9 1.32 10.48
12/11/2021 8:30:00 PM 10.69 51.242 0.666 7.9 1.42 10.46
12/11/2021 8:45:00 PM 10.67 51.206 0.666 7.9 1.79 10.43
12/11/2021 9:00:00 PM 10.65 51.17 0.666 7.9 1.42 10.41
12/11/2021 9:15:00 PM 10.62 51.116 0.666 7.9 1.38 10.37
12/11/2021 9:30:00 PM 10.59 51.062 0.666 7.9 1.19 10.37
12/11/2021 9:45:00 PM 10.55 50.99 0.666 7.89 1.47 10.32
12/11/2021 10:00:00 PM 10.49 50.882 0.666 7.89 6.36 10.3
12/11/2021 10:15:00 PM 10.44 50.792 0.666 7.89 4.34 10.28
12/11/2021 10:30:00 PM 10.39 50.702 0.666 7.89 2.99 10.29
12/11/2021 10:45:00 PM 10.34 50.612 0.666 7.89 5.17 10.27
12/11/2021 11:00:00 PM 10.28 50.504 0.666 7.89 1.54 10.26
12/11/2021 11:15:00 PM 10.22 50.396 0.666 7.89 1.47 10.25
12/11/2021 11:30:00 PM 10.16 50.288 0.666 7.89 2.93 10.23
12/11/2021 11:45:00 PM 10.1 50.18 0.666 7.89 1.56 10.25
12/12/2021 12:00:00 AM 10.06 50.108 0.666 7.89 1.03 10.23
12/12/2021 12:15:00 AM 10.01 50.018 0.666 7.89 1.52 10.23
12/12/2021 12:30:00 AM 9.97 49.946 0.666 7.88 1.06 10.22
12/12/2021 12:45:00 AM 9.93 49.874 0.665 7.89 1.18 10.24
12/12/2021 1:00:00 AM 9.89 49.802 0.665 7.88 1.12 10.22
12/12/2021 1:15:00 AM 9.85 49.73 0.665 7.88 1.05 10.22
12/12/2021 1:30:00 AM 9.81 49.658 0.665 7.88 1.31 10.22
12/12/2021 1:45:00 AM 9.78 49.604 0.665 7.88 1.09 10.22
12/12/2021 2:00:00 AM 9.77 49.586 0.665 7.88 1.37 10.23
12/12/2021 2:15:00 AM 9.75 49.55 0.665 7.88 1.35 10.21
12/12/2021 2:30:00 AM 9.73 49.514 0.666 7.87 1.36 10.22
12/12/2021 2:45:00 AM 9.71 49.478 0.666 7.87 1.31 10.21
12/12/2021 3:00:00 AM 9.68 49.424 0.666 7.87 1.42 10.2
12/12/2021 3:15:00 AM 9.65 49.37 0.667 7.87 1.63 10.19
12/12/2021 3:30:00 AM 9.62 49.316 0.667 7.87 1.92 10.19
12/12/2021 4:00:00 AM 9.57 49.226 0.669 7.87 1.46 10.12
12/12/2021 4:15:00 AM 9.55 49.19 0.671 7.86 1 10.05
12/12/2021 4:30:00 AM 9.53 49.154 0.671 7.86 1.3 10.02
12/12/2021 4:45:00 AM 9.51 49.118 0.672 7.86 1.2 10
12/12/2021 5:00:00 AM 9.48 49.064 0.672 7.86 2.11 9.98
12/12/2021 5:15:00 AM 9.45 49.01 0.673 7.86 1.49 10
12/12/2021 5:30:00 AM 9.43 48.974 0.672 7.86 1.52 10.03
12/12/2021 5:45:00 AM 9.39 48.902 0.671 7.86 1.6 10.08
12/12/2021 6:00:00 AM 9.36 48.848 0.671 7.86 2.15 10.15
12/12/2021 6:15:00 AM 9.33 48.794 0.67 7.86 1.82 10.2
12/12/2021 6:30:00 AM 9.29 48.722 0.67 7.86 1.75 10.25
12/12/2021 6:45:00 AM 9.27 48.686 0.67 7.86 1.54 10.27
12/12/2021 7:00:00 AM 9.24 48.632 0.67 7.86 1.89 10.28
12/12/2021 7:15:00 AM 9.2 48.56 0.67 7.85 1.62 10.31
12/12/2021 7:30:00 AM 9.16 48.488 0.67 7.86 1.62 10.31
12/12/2021 7:45:00 AM 9.12 48.416 0.67 7.86 1.18 10.35
12/12/2021 8:00:00 AM 9.09 48.362 0.67 7.86 1.15 10.4
12/12/2021 8:15:00 AM 9.06 48.308 0.67 7.86 1.04 10.5
12/12/2021 8:30:00 AM 9.04 48.272 0.67 7.87 1.19 10.62
12/12/2021 8:45:00 AM 9.02 48.236 0.67 7.88 0.9 10.73
12/12/2021 9:00:00 AM 9 48.2 0.67 7.89 1.67 10.87
12/12/2021 9:15:00 AM 8.99 48.182 0.67 7.9 0.96 11.05
12/12/2021 9:30:00 AM 8.99 48.182 0.669 7.91 1.06 11.25
12/12/2021 9:45:00 AM 9 48.2 0.669 7.92 1 11.48
12/12/2021 10:00:00 AM 9.02 48.236 0.669 7.94 1.12 11.73
12/12/2021 10:15:00 AM 9.04 48.272 0.668 7.95 0.85 11.97
12/12/2021 10:30:00 AM 9.07 48.326 0.668 7.97 0.81 12.21
12/12/2021 10:45:00 AM 9.12 48.416 0.667 7.99 0.77 12.44
12/12/2021 11:00:00 AM 9.15 48.47 0.667 8.01 1.56 12.65
12/12/2021 11:15:00 AM 9.19 48.542 0.666 8.02 0.85 12.82
12/12/2021 11:30:00 AM 9.24 48.632 0.666 8.03 0.75 12.99
12/12/2021 11:45:00 AM 9.29 48.722 0.666 8.05 0.98 13.15
12/12/2021 12:00:00 PM 9.33 48.794 0.665 8.06 1.1 13.3
12/12/2021 12:15:00 PM 9.37 48.866 0.665 8.07 0.76 13.43
12/12/2021 12:30:00 PM 9.4 48.92 0.664 8.08 3.23 13.53
12/12/2021 12:45:00 PM 9.44 48.992 0.664 8.09 1.04 13.62
12/12/2021 1:00:00 PM 9.44 48.992 0.663 8.1 1.2 13.7
12/12/2021 1:15:00 PM 9.46 49.028 0.663 8.1 1.22 13.78
12/12/2021 1:30:00 PM 9.47 49.046 0.662 8.11 1.08 13.81
12/12/2021 1:45:00 PM 9.46 49.028 0.662 8.11 2.12 13.83
12/12/2021 2:00:00 PM 9.45 49.01 0.662 8.11 1.96 13.83
12/12/2021 2:15:00 PM 9.43 48.974 0.662 8.11 5.38 13.85
12/12/2021 2:30:00 PM 9.4 48.92 0.662 8.12 1.57 13.81
12/12/2021 2:45:00 PM 9.37 48.866 0.662 8.11 2.12 13.8
12/12/2021 3:00:00 PM 9.33 48.794 0.662 8.11 3.11 13.71
12/12/2021 3:15:00 PM 9.29 48.722 0.662 8.11 1.69 13.62
12/12/2021 3:30:00 PM 9.24 48.632 0.662 8.1 1.28 13.51
12/12/2021 3:45:00 PM 9.2 48.56 0.662 8.09 1.74 13.39
12/12/2021 4:00:00 PM 9.15 48.47 0.663 8.09 1.75 13.26
12/12/2021 4:15:00 PM 9.12 48.416 0.663 8.08 1.73 13.09
12/12/2021 4:30:00 PM 9.08 48.344 0.663 8.07 1.87 12.94
12/12/2021 4:45:00 PM 9.04 48.272 0.663 8.05 1.64 12.77
12/12/2021 5:00:00 PM 9 48.2 0.663 8.04 1.66 12.59
12/12/2021 5:15:00 PM 8.96 48.128 0.658 8.03 1.64 12.46
12/12/2021 5:30:00 PM 8.93 48.074 0.658 8.02 1.97 12.3
12/12/2021 5:45:00 PM 8.9 48.02 0.656 8.01 1.77 12.18
12/12/2021 6:00:00 PM 8.88 47.984 0.655 8 2.22 12.11
12/12/2021 6:15:00 PM 8.84 47.912 0.655 8 3.56 12.01
12/12/2021 6:30:00 PM 8.81 47.858 0.655 7.99 2.11 11.94
12/12/2021 6:45:00 PM 8.77 47.786 0.655 7.99 3.05 11.89
12/12/2021 7:00:00 PM 8.73 47.714 0.656 7.98 2.34 11.84
12/12/2021 7:15:00 PM 8.7 47.66 0.654 7.98 2.35 11.79
12/12/2021 7:30:00 PM 8.66 47.588 0.654 7.97 2.14 11.76
12/12/2021 7:45:00 PM 8.62 47.516 0.654 7.97 2.03 11.68
12/12/2021 8:00:00 PM 8.59 47.462 0.653 7.96 2.39 11.66
12/12/2021 8:15:00 PM 8.55 47.39 0.662 7.96 2.27 11.62
12/12/2021 8:30:00 PM 8.52 47.336 0.662 7.96 2.71 11.58
12/12/2021 8:45:00 PM 8.48 47.264 0.662 7.96 2.57 11.54
12/12/2021 9:00:00 PM 8.44 47.192 0.662 7.95 2.17 11.51
12/12/2021 9:15:00 PM 8.41 47.138 0.662 7.95 2.97 11.48
12/12/2021 9:30:00 PM 8.37 47.066 0.662 7.94 3.03 11.45
12/12/2021 9:45:00 PM 8.34 47.012 0.662 7.94 2.19 11.39
12/12/2021 10:00:00 PM 8.31 46.958 0.662 7.94 2.36 11.39
12/12/2021 10:15:00 PM 8.28 46.904 0.662 7.94 2.81 11.38
12/12/2021 10:30:00 PM 8.24 46.832 0.662 7.93 2.97 11.34
12/12/2021 10:45:00 PM 8.21 46.778 0.662 7.93 2.76 11.33
12/12/2021 11:00:00 PM 8.18 46.724 0.662 7.93 2.87 11.3
12/12/2021 11:15:00 PM 8.15 46.67 0.663 7.92 2.34 11.28
12/12/2021 11:30:00 PM 8.11 46.598 0.663 7.92 2.97 11.26
12/12/2021 11:45:00 PM 8.08 46.544 0.663 7.92 2.55 11.23
12/13/2021 12:00:00 AM 8.05 46.49 0.663 7.91 3.08 11.2
12/13/2021 12:15:00 AM 8.01 46.418 0.663 7.91 2.37 11.18
12/13/2021 12:30:00 AM 7.98 46.364 0.663 7.91 2.98 11.18
12/13/2021 12:45:00 AM 7.95 46.31 0.663 7.91 2.76 11.16
12/13/2021 1:00:00 AM 7.92 46.256 0.663 7.9 2.75 11.15
12/13/2021 1:15:00 AM 7.89 46.202 0.664 7.9 2.9 11.13
12/13/2021 1:30:00 AM 7.86 46.148 0.664 7.89 3.35 11.12
12/13/2021 1:45:00 AM 7.84 46.112 0.664 7.89 3.14 11.11
12/13/2021 2:00:00 AM 7.82 46.076 0.664 7.89 3.18 11.12
12/13/2021 2:15:00 AM 7.8 46.04 0.664 7.89 2.96 11.1
12/13/2021 2:30:00 AM 7.78 46.004 0.664 7.89 3.03 11.09
12/13/2021 2:45:00 AM 7.76 45.968 0.665 7.88 2.86 11.07
12/13/2021 3:00:00 AM 7.74 45.932 0.665 7.88 2.89 11.07
12/13/2021 3:15:00 AM 7.71 45.878 0.665 7.88 2.86 11.08
12/13/2021 3:30:00 AM 7.69 45.842 0.665 7.88 3.88 11.07
12/13/2021 3:45:00 AM 7.67 45.806 0.666 7.88 3.03 11.08
12/13/2021 4:00:00 AM 7.66 45.788 0.666 7.88 3.26 11.06
12/13/2021 4:15:00 AM 7.64 45.752 0.666 7.87 2.73 11.06
12/13/2021 4:30:00 AM 7.64 45.752 0.666 7.87 3 11.05
12/13/2021 4:45:00 AM 7.63 45.734 0.666 7.87 5.54 11.04
12/13/2021 5:00:00 AM 7.62 45.716 0.666 7.86 3.36 11.04
12/13/2021 5:15:00 AM 7.61 45.698 0.667 7.86 3 11.02
12/13/2021 5:30:00 AM 7.59 45.662 0.667 7.86 3.21 11.03
12/13/2021 5:45:00 AM 7.58 45.644 0.667 7.86 3.18 11.03
12/13/2021 6:00:00 AM 7.56 45.608 0.668 7.85 3.24 11.03
12/13/2021 6:15:00 AM 7.55 45.59 0.668 7.86 3.89 11.04
12/13/2021 6:30:00 AM 7.52 45.536 0.668 7.86 2.97 11.04
12/13/2021 6:45:00 AM 7.5 45.5 0.668 7.86 3.47 11.04
12/13/2021 7:00:00 AM 7.48 45.464 0.668 7.85 2.99 11.05
12/13/2021 7:15:00 AM 7.46 45.428 0.668 7.85 3.3 11.05
12/13/2021 7:30:00 AM 7.44 45.392 0.668 7.85 2.96 11.06
12/13/2021 7:45:00 AM 7.41 45.338 0.669 7.85 3.51 11.09
12/13/2021 8:00:00 AM 7.4 45.32 0.668 7.85 3.27 11.13
12/13/2021 8:15:00 AM 7.37 45.266 0.669 7.86 2.84 11.2
12/13/2021 8:30:00 AM 7.36 45.248 0.669 7.87 2.53 11.28
12/13/2021 8:45:00 AM 7.36 45.248 0.669 7.87 2.74 11.38
12/13/2021 9:00:00 AM 7.35 45.23 0.669 7.87 3.21 11.53
12/13/2021 9:15:00 AM 7.37 45.266 0.668 7.88 2.6 11.68
12/13/2021 9:30:00 AM 7.4 45.32 0.668 7.9 5.43 11.86
12/13/2021 9:45:00 AM 7.44 45.392 0.668 7.91 2.71 12.07
12/13/2021 10:00:00 AM 7.5 45.5 0.667 7.92 2.37 12.3
12/13/2021 10:15:00 AM 7.56 45.608 0.667 7.94 2.5 12.51
12/13/2021 10:30:00 AM 7.63 45.734 0.667 7.95 2.37 12.72
12/13/2021 10:45:00 AM 7.7 45.86 0.666 7.97 2.32 12.91
12/13/2021 11:00:00 AM 7.78 46.004 0.666 7.99 2.19 13.11
12/13/2021 11:15:00 AM 7.86 46.148 0.665 7.99 2.99 13.25
12/13/2021 11:30:00 AM 7.94 46.292 0.665 8.01 6.63 13.39
12/13/2021 11:45:00 AM 8.04 46.472 0.665 8.02 8.31 13.56
12/13/2021 12:00:00 PM 8.12 46.616 0.664 8.03 10.86 13.69
12/13/2021 12:15:00 PM 8.2 46.76 0.664 8.04 9.65 13.78
12/13/2021 12:30:00 PM 8.27 46.886 0.663 8.05 9.51 13.89
12/13/2021 12:45:00 PM 8.34 47.012 0.663 8.06 16.23 13.95
12/13/2021 1:00:00 PM 8.4 47.12 0.663 8.06 22.32 14.01
12/13/2021 1:15:00 PM 8.44 47.192 0.662 8.07 49.36 14.05
12/13/2021 1:30:00 PM 8.48 47.264 0.662 8.08 2.44 14.09
12/13/2021 1:45:00 PM 8.51 47.318 0.662 8.08 1.66 14.12
12/13/2021 2:00:00 PM 8.52 47.336 0.662 8.09 12.17 14.11
12/13/2021 2:15:00 PM 8.54 47.372 0.662 8.09 1.94 14.12
12/13/2021 2:30:00 PM 8.55 47.39 0.662 8.09 2.23 14.08
12/13/2021 2:45:00 PM 8.54 47.372 0.662 8.09 2.29 14.01
12/13/2021 3:00:00 PM 8.52 47.336 0.662 8.09 1.85 13.95
12/13/2021 3:15:00 PM 8.5 47.3 0.663 8.08 1.86 13.84
12/13/2021 3:30:00 PM 8.49 47.282 0.663 8.07 1.96 13.68
12/13/2021 3:45:00 PM 8.47 47.246 0.663 8.07 1.92 13.58
12/13/2021 4:00:00 PM 8.45 47.21 0.664 8.06 2.67 13.46
12/13/2021 4:15:00 PM 8.43 47.174 0.664 8.05 1.95 13.3
12/13/2021 4:30:00 PM 8.42 47.156 0.664 8.04 1.84 13.12
12/13/2021 4:45:00 PM 8.4 47.12 0.664 8.03 2.33 12.99
12/13/2021 5:00:00 PM 8.38 47.084 0.665 8.02 2.17 12.85
12/13/2021 5:15:00 PM 8.35 47.03 0.665 8.01 1.74 12.68
12/13/2021 5:30:00 PM 8.33 46.994 0.665 8 1.88 12.52
12/13/2021 5:45:00 PM 8.31 46.958 0.665 7.99 1.91 12.42
12/13/2021 6:00:00 PM 8.27 46.886 0.666 7.98 1.96 12.3
12/13/2021 6:15:00 PM 8.24 46.832 0.668 7.98 1.83 12.22
12/13/2021 6:30:00 PM 8.2 46.76 0.669 7.97 1.94 12.12
12/13/2021 6:45:00 PM 8.16 46.688 0.67 7.97 2.33 12.06
12/13/2021 7:00:00 PM 8.12 46.616 0.67 7.96 1.88 11.92
12/13/2021 7:15:00 PM 8.09 46.562 0.67 7.96 1.81 11.79
12/13/2021 7:30:00 PM 8.06 46.508 0.67 7.96 1.84 11.69
12/13/2021 7:45:00 PM 8.03 46.454 0.67 7.95 2.18 11.63
12/13/2021 8:00:00 PM 8.01 46.418 0.67 7.95 2 11.54
12/13/2021 8:15:00 PM 7.98 46.364 0.67 7.95 2.13 11.47
12/13/2021 8:30:00 PM 7.95 46.31 0.67 7.95 1.95 11.44
12/13/2021 8:45:00 PM 7.92 46.256 0.67 7.94 1.98 11.37
12/13/2021 9:00:00 PM 7.89 46.202 0.67 7.94 1.98 11.31
12/13/2021 9:15:00 PM 7.86 46.148 0.67 7.93 2.03 11.26
12/13/2021 9:30:00 PM 7.83 46.094 0.67 7.93 2.03 11.23
12/13/2021 9:45:00 PM 7.81 46.058 0.67 7.92 1.86 11.22
12/13/2021 10:00:00 PM 7.78 46.004 0.67 7.92 1.85 11.16
12/13/2021 10:15:00 PM 7.75 45.95 0.67 7.92 2.01 11.12
12/13/2021 10:30:00 PM 7.73 45.914 0.67 7.91 2.1 11.1
12/13/2021 10:45:00 PM 7.71 45.878 0.67 7.91 2.04 11.07
12/13/2021 11:00:00 PM 7.69 45.842 0.67 7.91 2.03 11.04
12/13/2021 11:15:00 PM 7.67 45.806 0.67 7.91 1.95 10.98
12/13/2021 11:30:00 PM 7.65 45.77 0.67 7.91 1.97 10.98
12/13/2021 11:45:00 PM 7.63 45.734 0.67 7.9 1.96 10.95
12/14/2021 12:00:00 AM 7.6 45.68 0.671 7.9 1.97 10.93
12/14/2021 12:15:00 AM 7.58 45.644 0.671 7.89 2.07 10.91
12/14/2021 12:30:00 AM 7.55 45.59 0.671 7.89 2 10.86
12/14/2021 12:45:00 AM 7.53 45.554 0.671 7.89 1.94 10.85
12/14/2021 1:00:00 AM 7.5 45.5 0.671 7.88 2.17 10.83
12/14/2021 1:15:00 AM 7.47 45.446 0.672 7.88 2.05 10.79
12/14/2021 1:30:00 AM 7.44 45.392 0.673 7.88 1.94 10.76
12/14/2021 1:45:00 AM 7.41 45.338 0.674 7.87 2.26 10.73
12/14/2021 2:00:00 AM 7.39 45.302 0.676 7.86 2.44 10.68
12/14/2021 2:15:00 AM 7.37 45.266 0.677 7.86 2.21 10.65
12/14/2021 2:30:00 AM 7.36 45.248 0.677 7.85 2.14 10.65
12/14/2021 2:45:00 AM 7.35 45.23 0.678 7.85 2.51 10.62
12/14/2021 3:00:00 AM 7.35 45.23 0.677 7.84 2.68 10.61
12/14/2021 3:15:00 AM 7.36 45.248 0.676 7.84 2.46 10.61
12/14/2021 3:30:00 AM 7.36 45.248 0.675 7.84 2.56 10.59
12/14/2021 3:45:00 AM 7.37 45.266 0.674 7.84 3.26 10.59
12/14/2021 4:00:00 AM 7.37 45.266 0.674 7.84 2.61 10.6
12/14/2021 4:15:00 AM 7.36 45.248 0.674 7.84 2.77 10.61
12/14/2021 4:30:00 AM 7.35 45.23 0.673 7.84 6.97 10.6
12/14/2021 4:45:00 AM 7.34 45.212 0.673 7.84 2.76 10.6
12/14/2021 5:00:00 AM 7.33 45.194 0.673 7.84 2.66 10.58
12/14/2021 5:15:00 AM 7.31 45.158 0.673 7.84 2.86 10.59
12/14/2021 5:30:00 AM 7.3 45.14 0.673 7.83 3.17 10.59
12/14/2021 5:45:00 AM 7.28 45.104 0.673 7.83 2.83 10.59
12/14/2021 6:00:00 AM 7.26 45.068 0.673 7.83 2.93 10.6
12/14/2021 6:15:00 AM 7.24 45.032 0.673 7.83 2.77 10.61
12/14/2021 6:30:00 AM 7.22 44.996 0.673 7.83 3.02 10.61
12/14/2021 6:45:00 AM 7.19 44.942 0.673 7.83 2.89 10.62
12/14/2021 7:00:00 AM 7.17 44.906 0.673 7.83 3.78 10.62
12/14/2021 7:15:00 AM 7.15 44.87 0.673 7.82 2.53 10.65
12/14/2021 7:30:00 AM 7.12 44.816 0.673 7.83 2.93 10.64
12/14/2021 7:45:00 AM 7.1 44.78 0.673 7.83 2.73 10.65
12/14/2021 8:00:00 AM 7.08 44.744 0.672 7.83 2.81 10.71
12/14/2021 8:15:00 AM 7.06 44.708 0.672 7.83 2.43 10.8
12/14/2021 8:30:00 AM 7.05 44.69 0.672 7.83 2.45 10.87
12/14/2021 8:45:00 AM 7.04 44.672 0.672 7.84 2.34 11.01
12/14/2021 9:00:00 AM 7.04 44.672 0.671 7.85 2.57 11.13
12/14/2021 9:15:00 AM 7.06 44.708 0.671 7.86 2.25 11.3
12/14/2021 9:30:00 AM 7.08 44.744 0.671 7.87 2.14 11.48
12/14/2021 9:45:00 AM 7.13 44.834 0.67 7.88 2.25 11.7
12/14/2021 10:00:00 AM 7.2 44.96 0.67 7.89 3.76 11.93
12/14/2021 10:15:00 AM 7.28 45.104 0.669 7.91 2.5 12.18
12/14/2021 10:30:00 AM 7.39 45.302 0.669 7.92 2.18 12.4
12/14/2021 10:45:00 AM 7.49 45.482 0.668 7.94 2.3 12.6
12/14/2021 11:00:00 AM 7.59 45.662 0.668 7.96 2.04 12.83
12/14/2021 11:15:00 AM 7.69 45.842 0.667 7.97 2.06 13.02
12/14/2021 11:30:00 AM 7.8 46.04 0.667 7.98 2.06 13.19
12/14/2021 11:45:00 AM 7.91 46.238 0.666 8 2.02 13.34
12/14/2021 12:00:00 PM 8.02 46.436 0.666 8 2.07 13.5
12/14/2021 12:15:00 PM 8.11 46.598 0.666 8.02 2.14 13.6
12/14/2021 12:30:00 PM 8.21 46.778 0.665 8.03 2.68 13.72
12/14/2021 12:45:00 PM 8.29 46.922 0.665 8.04 2.5 13.82
12/14/2021 1:00:00 PM 8.36 47.048 0.665 8.04 2.1 13.89
12/14/2021 1:15:00 PM 8.42 47.156 0.665 8.05 2.05 13.97
12/14/2021 1:30:00 PM 8.47 47.246 0.664 8.06 1.96 14.02
12/14/2021 1:45:00 PM 8.51 47.318 0.664 8.06 2.07 14.05
12/14/2021 2:00:00 PM 8.54 47.372 0.664 8.07 2.23 14.08
12/14/2021 2:15:00 PM 8.56 47.408 0.664 8.07 2.39 14.05
12/14/2021 2:30:00 PM 8.56 47.408 0.664 8.07 2.1 14.04
12/14/2021 2:45:00 PM 8.57 47.426 0.664 8.07 2.11 13.97
12/14/2021 3:00:00 PM 8.57 47.426 0.664 8.06 9.66 13.89
12/14/2021 3:15:00 PM 8.55 47.39 0.664 8.06 2.29 13.81
12/14/2021 3:30:00 PM 8.54 47.372 0.665 8.06 2.35 13.69
12/14/2021 3:45:00 PM 8.51 47.318 0.665 8.05 2.12 13.57
12/14/2021 4:00:00 PM 8.49 47.282 0.665 8.04 2.15 13.43
12/14/2021 4:15:00 PM 8.46 47.228 0.665 8.03 2.64 13.26
12/14/2021 4:30:00 PM 8.43 47.174 0.665 8.03 2.28 13.1
12/14/2021 4:45:00 PM 8.41 47.138 0.665 8.02 2.31 12.93
12/14/2021 5:00:00 PM 8.39 47.102 0.666 8 2.23 12.75
12/14/2021 5:15:00 PM 8.37 47.066 0.666 7.99 2.51 12.58
12/14/2021 5:30:00 PM 8.36 47.048 0.666 7.98 2.36 12.45
12/14/2021 5:45:00 PM 8.35 47.03 0.666 7.97 2.67 12.3
12/14/2021 6:00:00 PM 8.35 47.03 0.665 7.96 2.86 12.19
12/14/2021 6:15:00 PM 8.34 47.012 0.663 7.96 2.45 12.11
12/14/2021 6:30:00 PM 8.34 47.012 0.662 7.96 2.68 12.08
12/14/2021 6:45:00 PM 8.33 46.994 0.661 7.95 2.84 12.13
12/14/2021 7:00:00 PM 8.32 46.976 0.661 7.95 2.5 12.15
12/14/2021 7:15:00 PM 8.3 46.94 0.661 7.95 2.55 12.16
12/14/2021 7:30:00 PM 8.28 46.904 0.661 7.95 2.77 12.1
12/14/2021 7:45:00 PM 8.26 46.868 0.661 7.94 3.23 12.07
12/14/2021 8:00:00 PM 8.23 46.814 0.661 7.94 3.27 12.01
12/14/2021 8:15:00 PM 8.21 46.778 0.661 7.93 2.94 11.95
12/14/2021 8:30:00 PM 8.18 46.724 0.661 7.93 2.77 11.89
12/14/2021 8:45:00 PM 8.16 46.688 0.661 7.93 2.92 11.86
12/14/2021 9:00:00 PM 8.13 46.634 0.662 7.92 2.81 11.81
12/14/2021 9:15:00 PM 8.11 46.598 0.662 7.92 3.03 11.78
12/14/2021 9:30:00 PM 8.08 46.544 0.662 7.92 3.2 11.7
12/14/2021 9:45:00 PM 8.06 46.508 0.662 7.91 3.11 11.67
12/14/2021 10:00:00 PM 8.04 46.472 0.662 7.92 3.43 11.63
12/14/2021 10:15:00 PM 8.02 46.436 0.662 7.91 3.02 11.61
12/14/2021 10:30:00 PM 8 46.4 0.662 7.91 3.28 11.58
12/14/2021 10:45:00 PM 7.98 46.364 0.662 7.91 3.56 11.55
12/14/2021 11:00:00 PM 7.96 46.328 0.662 7.9 3.35 11.53
12/14/2021 11:15:00 PM 7.94 46.292 0.662 7.9 4.07 11.5
12/14/2021 11:30:00 PM 7.92 46.256 0.662 7.9 3.15 11.47
12/14/2021 11:45:00 PM 7.9 46.22 0.662 7.89 3.28 11.44
12/15/2021 12:00:00 AM 7.88 46.184 0.662 7.89 3.27 11.41
12/15/2021 12:15:00 AM 7.86 46.148 0.662 7.88 3.31 11.38
12/15/2021 12:30:00 AM 7.84 46.112 0.662 7.88 3.42 11.35
12/15/2021 12:45:00 AM 7.82 46.076 0.662 7.88 3.4 11.32
12/15/2021 1:00:00 AM 7.8 46.04 0.662 7.88 4.11 11.3
12/15/2021 1:15:00 AM 7.78 46.004 0.662 7.87 3.49 11.27
12/15/2021 1:30:00 AM 7.76 45.968 0.662 7.87 3.56 11.25
12/15/2021 1:45:00 AM 7.74 45.932 0.663 7.87 3.92 11.23
12/15/2021 2:00:00 AM 7.72 45.896 0.663 7.87 3.25 11.23
12/15/2021 2:15:00 AM 7.7 45.86 0.663 7.86 3.48 11.21
12/15/2021 2:30:00 AM 7.67 45.806 0.663 7.86 3.84 11.21
12/15/2021 2:45:00 AM 7.65 45.77 0.663 7.86 3.89 11.18
12/15/2021 3:00:00 AM 7.63 45.734 0.664 7.86 3.61 11.18
12/15/2021 3:15:00 AM 7.62 45.716 0.664 7.85 4.39 11.17
12/15/2021 3:30:00 AM 7.6 45.68 0.664 7.85 4.14 11.17
12/15/2021 3:45:00 AM 7.58 45.644 0.664 7.84 3.9 11.14
12/15/2021 4:00:00 AM 7.56 45.608 0.664 7.85 3.8 11.14
12/15/2021 4:15:00 AM 7.53 45.554 0.663 7.84 3.65 11.13
12/15/2021 4:30:00 AM 7.51 45.518 0.664 7.84 3.79 11.14
12/15/2021 4:45:00 AM 7.49 45.482 0.664 7.84 3.51 11.14
12/15/2021 5:00:00 AM 7.46 45.428 0.664 7.84 11.61 11.12
12/15/2021 5:15:00 AM 7.44 45.392 0.664 7.84 7.52 11.14
12/15/2021 5:30:00 AM 7.42 45.356 0.664 7.83 3.74 11.16
12/15/2021 5:45:00 AM 7.41 45.338 0.664 7.83 3.81 11.15
12/15/2021 6:00:00 AM 7.39 45.302 0.664 7.83 3.67 11.15
12/15/2021 6:15:00 AM 7.37 45.266 0.664 7.83 3.72 11.14
12/15/2021 6:30:00 AM 7.36 45.248 0.664 7.83 3.7 11.17
12/15/2021 6:45:00 AM 7.35 45.23 0.665 7.83 4.09 11.15
12/15/2021 7:00:00 AM 7.34 45.212 0.665 7.83 4.26 11.17
12/15/2021 7:15:00 AM 7.34 45.212 0.665 7.83 3.66 11.17
12/15/2021 7:30:00 AM 7.35 45.23 0.665 7.83 3.74 11.19
12/15/2021 7:45:00 AM 7.35 45.23 0.665 7.83 4.11 11.21
12/15/2021 8:00:00 AM 7.36 45.248 0.665 7.83 4.03 11.27
12/15/2021 8:15:00 AM 7.37 45.266 0.665 7.84 3.95 11.36
12/15/2021 8:30:00 AM 7.39 45.302 0.665 7.84 4.06 11.49
12/15/2021 8:45:00 AM 7.41 45.338 0.665 7.85 3.9 11.66
12/15/2021 9:00:00 AM 7.44 45.392 0.665 7.86 3.39 11.84
12/15/2021 9:15:00 AM 7.48 45.464 0.664 7.88 3.41 12.03
12/15/2021 9:30:00 AM 7.52 45.536 0.664 7.89 3.57 12.22
12/15/2021 9:45:00 AM 7.56 45.608 0.664 7.9 3.48 12.41
12/15/2021 10:00:00 AM 7.61 45.698 0.664 7.91 3.46 12.65
12/15/2021 10:15:00 AM 7.65 45.77 0.665 7.93 3.46 12.83
12/15/2021 10:30:00 AM 7.7 45.86 0.666 7.94 3.31 13.03
12/15/2021 10:45:00 AM 7.75 45.95 0.666 7.95 3.35 13.21
12/15/2021 11:00:00 AM 7.81 46.058 0.666 7.98 3.42 13.39
12/15/2021 11:15:00 AM 7.87 46.166 0.666 7.99 3.25 13.57
12/15/2021 11:30:00 AM 7.94 46.292 0.666 8 3.23 13.72
12/15/2021 11:45:00 AM 8 46.4 0.665 8.01 3.68 13.89
12/15/2021 12:00:00 PM 8.06 46.508 0.665 8.03 3.57 14.04
12/15/2021 12:15:00 PM 8.13 46.634 0.665 8.04 3.48 14.17
12/15/2021 12:30:00 PM 8.22 46.796 0.665 8.06 3.42 14.32
12/15/2021 12:45:00 PM 8.3 46.94 0.665 8.07 3.49 14.49
12/15/2021 1:00:00 PM 8.39 47.102 0.664 8.08 3.68 14.65
12/15/2021 1:15:00 PM 8.46 47.228 0.664 8.09 3.97 14.77
12/15/2021 1:30:00 PM 8.53 47.354 0.664 8.1 3.19 14.83
12/15/2021 1:45:00 PM 8.59 47.462 0.665 8.11 3.36 14.83
12/15/2021 2:00:00 PM 8.64 47.552 0.665 8.11 3.53 14.83
12/15/2021 2:15:00 PM 8.68 47.624 0.665 8.11 3.22 14.79
12/15/2021 2:30:00 PM 8.72 47.696 0.665 8.11 3.28 14.72
12/15/2021 2:45:00 PM 8.75 47.75 0.666 8.11 3.31 14.66
12/15/2021 3:00:00 PM 8.8 47.84 0.666 8.1 3.31 14.6
12/15/2021 3:15:00 PM 8.85 47.93 0.666 8.1 3.07 14.52
12/15/2021 3:30:00 PM 8.89 48.002 0.665 8.09 3.4 14.38
12/15/2021 3:45:00 PM 8.93 48.074 0.665 8.09 3.91 14.22
12/15/2021 4:00:00 PM 8.96 48.128 0.665 8.08 3.46 14.1
12/15/2021 4:15:00 PM 8.98 48.164 0.666 8.07 3.52 13.89
12/15/2021 4:30:00 PM 9 48.2 0.666 8.06 3.34 13.66
12/15/2021 4:45:00 PM 9.01 48.218 0.666 8.05 3.74 13.47
12/15/2021 5:00:00 PM 9.03 48.254 0.667 8.04 4.57 13.24
12/15/2021 5:15:00 PM 9.04 48.272 0.667 8.03 3.59 13.06
12/15/2021 5:30:00 PM 9.06 48.308 0.667 8.01 3.52 12.89
12/15/2021 5:45:00 PM 9.08 48.344 0.667 8.01 3.35 12.73
12/15/2021 6:00:00 PM 9.09 48.362 0.668 8 3.73 12.58
12/15/2021 6:15:00 PM 9.11 48.398 0.668 7.99 4.06 12.46
12/15/2021 6:30:00 PM 9.13 48.434 0.668 7.98 3.77 12.34
12/15/2021 6:45:00 PM 9.15 48.47 0.668 7.98 4.26 12.24
12/15/2021 7:00:00 PM 9.17 48.506 0.668 7.97 3.79 12.15
12/15/2021 7:15:00 PM 9.19 48.542 0.667 7.97 3.92 12.06
12/15/2021 7:30:00 PM 9.21 48.578 0.667 7.96 4.23 11.99
12/15/2021 7:45:00 PM 9.22 48.596 0.667 7.96 4.39 11.94
12/15/2021 8:00:00 PM 9.24 48.632 0.667 7.96 4.1 11.85
12/15/2021 8:15:00 PM 9.26 48.668 0.667 7.95 3.99 11.8
12/15/2021 8:30:00 PM 9.27 48.686 0.667 7.95 3.86 11.73
12/15/2021 8:45:00 PM 9.29 48.722 0.667 7.95 4.1 11.66
12/15/2021 9:00:00 PM 9.31 48.758 0.667 7.94 3.87 11.61
12/15/2021 9:15:00 PM 9.32 48.776 0.667 7.94 4.89 11.53
12/15/2021 9:30:00 PM 9.34 48.812 0.667 7.93 4.32 11.48
12/15/2021 9:45:00 PM 9.35 48.83 0.667 7.93 4.26 11.42
12/15/2021 10:00:00 PM 9.36 48.848 0.667 7.93 4.15 11.38
12/15/2021 10:15:00 PM 9.38 48.884 0.667 7.92 4.18 11.3
12/15/2021 10:30:00 PM 9.39 48.902 0.667 7.92 4.08 11.25
12/15/2021 10:45:00 PM 9.4 48.92 0.667 7.92 4.01 11.2
12/15/2021 11:00:00 PM 9.41 48.938 0.667 7.91 4.51 11.17
12/15/2021 11:15:00 PM 9.42 48.956 0.667 7.91 4.5 11.11
12/15/2021 11:30:00 PM 9.43 48.974 0.667 7.9 4.05 11.05
12/15/2021 11:45:00 PM 9.44 48.992 0.667 7.9 4.46 10.99
12/16/2021 12:00:00 AM 9.44 48.992 0.667 7.89 4.85 10.97
12/16/2021 12:15:00 AM 9.45 49.01 0.668 7.89 6.07 10.88
12/16/2021 12:30:00 AM 9.45 49.01 0.668 7.89 4.55 10.88
12/16/2021 12:45:00 AM 9.45 49.01 0.668 7.88 4.54 10.8
12/16/2021 1:00:00 AM 9.45 49.01 0.668 7.87 4.54 10.79
12/16/2021 1:15:00 AM 9.45 49.01 0.668 7.87 5.27 10.73
12/16/2021 1:30:00 AM 9.45 49.01 0.67 7.87 4.61 10.66
12/16/2021 1:45:00 AM 9.46 49.028 0.671 7.86 3.93 10.58
12/16/2021 2:00:00 AM 9.47 49.046 0.672 7.86 3.99 10.52
12/16/2021 2:15:00 AM 9.49 49.082 0.673 7.85 3.74 10.46
12/16/2021 2:30:00 AM 9.5 49.1 0.673 7.85 4.65 10.4
12/16/2021 2:45:00 AM 9.52 49.136 0.673 7.85 3.38 10.37
12/16/2021 3:00:00 AM 9.53 49.154 0.673 7.84 4.05 10.36
12/16/2021 3:15:00 AM 9.54 49.172 0.672 7.84 5.14 10.37
12/16/2021 3:30:00 AM 9.55 49.19 0.671 7.84 4.6 10.41
12/16/2021 3:45:00 AM 9.55 49.19 0.67 7.84 5.2 10.42
12/16/2021 4:00:00 AM 9.55 49.19 0.67 7.84 3.93 10.42
12/16/2021 4:15:00 AM 9.55 49.19 0.669 7.83 4.4 10.43
12/16/2021 4:30:00 AM 9.55 49.19 0.669 7.83 4.04 10.42
12/16/2021 4:45:00 AM 9.56 49.208 0.669 7.84 6.17 10.41
12/16/2021 5:00:00 AM 9.56 49.208 0.669 7.83 4.56 10.4
12/16/2021 5:15:00 AM 9.57 49.226 0.669 7.83 4.46 10.39
12/16/2021 5:30:00 AM 9.57 49.226 0.669 7.83 4.54 10.37
12/16/2021 5:45:00 AM 9.56 49.208 0.669 7.83 4.37 10.37
12/16/2021 6:00:00 AM 9.55 49.19 0.669 7.83 3.89 10.36
12/16/2021 6:15:00 AM 9.54 49.172 0.669 7.82 3.99 10.35
12/16/2021 6:30:00 AM 9.53 49.154 0.668 7.83 4.33 10.33
12/16/2021 6:45:00 AM 9.52 49.136 0.668 7.83 4.18 10.34
12/16/2021 7:00:00 AM 9.5 49.1 0.668 7.83 3.61 10.34
12/16/2021 7:15:00 AM 9.48 49.064 0.668 7.83 4 10.34
12/16/2021 7:30:00 AM 9.46 49.028 0.66 7.83 3.98 10.33
12/16/2021 7:45:00 AM 9.44 48.992 0.659 7.83 3.61 10.37
12/16/2021 8:00:00 AM 9.42 48.956 0.658 7.83 4.49 10.42
12/16/2021 8:15:00 AM 9.43 48.974 0.658 7.83 3.76 10.52
12/16/2021 8:30:00 AM 9.44 48.992 0.658 7.84 3.87 10.63
12/16/2021 8:45:00 AM 9.46 49.028 0.658 7.85 3.35 10.78
12/16/2021 9:00:00 AM 9.48 49.064 0.658 7.86 3.48 10.96
12/16/2021 9:15:00 AM 9.51 49.118 0.657 7.87 4.04 11.17
12/16/2021 9:30:00 AM 9.55 49.19 0.657 7.89 3.42 11.38
12/16/2021 9:45:00 AM 9.59 49.262 0.656 7.9 3.57 11.61
12/16/2021 10:00:00 AM 9.64 49.352 0.656 7.92 3.64 11.85
12/16/2021 10:15:00 AM 9.69 49.442 0.655 7.93 3.61 12.06
12/16/2021 10:30:00 AM 9.75 49.55 0.654 7.95 3.19 12.27
12/16/2021 10:45:00 AM 9.82 49.676 0.654 7.97 3.28 12.5
12/16/2021 11:00:00 AM 9.88 49.784 0.654 7.99 3.26 12.68
12/16/2021 11:15:00 AM 9.96 49.928 0.653 8 3.35 12.87
12/16/2021 11:30:00 AM 10.03 50.054 0.653 8.01 3.17 13.02
12/16/2021 11:45:00 AM 10.11 50.198 0.652 8.03 3.36 13.21
12/16/2021 12:00:00 PM 10.19 50.342 0.652 8.04 2.98 13.33
12/16/2021 12:15:00 PM 10.26 50.468 0.652 8.05 3.22 13.4
12/16/2021 12:30:00 PM 10.34 50.612 0.652 8.06 3.26 13.56
12/16/2021 12:45:00 PM 10.41 50.738 0.651 8.07 3.66 13.63
12/16/2021 1:00:00 PM 10.47 50.846 0.651 8.07 3.3 13.7
12/16/2021 1:15:00 PM 10.52 50.936 0.651 8.08 3.16 13.79
12/16/2021 1:30:00 PM 10.56 51.008 0.651 8.09 3.22 13.8
12/16/2021 1:45:00 PM 10.6 51.08 0.652 8.09 3.48 13.82
12/16/2021 2:00:00 PM 10.62 51.116 0.652 8.09 3.24 13.83
12/16/2021 2:15:00 PM 10.62 51.116 0.652 8.09 3.26 13.8
12/16/2021 2:30:00 PM 10.63 51.134 0.652 8.09 3.25 13.76
12/16/2021 2:45:00 PM 10.62 51.116 0.652 8.09 3.51 13.72
12/16/2021 3:00:00 PM 10.61 51.098 0.653 8.09 3.23 13.63
12/16/2021 3:15:00 PM 10.59 51.062 0.653 8.08 3.72 13.53
12/16/2021 3:30:00 PM 10.58 51.044 0.653 8.08 3.62 13.41
12/16/2021 3:45:00 PM 10.56 51.008 0.653 8.07 3.41 13.3
12/16/2021 4:00:00 PM 10.55 50.99 0.653 8.06 3.36 13.13
12/16/2021 4:15:00 PM 10.54 50.972 0.653 8.05 3.61 13.01
12/16/2021 4:30:00 PM 10.53 50.954 0.654 8.05 3.57 12.83
12/16/2021 4:45:00 PM 10.51 50.918 0.654 8.04 3.8 12.69
12/16/2021 5:00:00 PM 10.48 50.864 0.654 8.02 3.75 12.49
12/16/2021 5:15:00 PM 10.47 50.846 0.655 8.01 3.89 12.28
12/16/2021 5:30:00 PM 10.47 50.846 0.656 8 3.82 12.07
12/16/2021 5:45:00 PM 10.47 50.846 0.657 7.99 4.53 11.92
12/16/2021 6:00:00 PM 10.48 50.864 0.659 7.98 4.29 11.75
12/16/2021 6:15:00 PM 10.48 50.864 0.66 7.98 3.24 11.6
12/16/2021 6:30:00 PM 10.48 50.864 0.66 7.97 2.94 11.43
12/16/2021 6:45:00 PM 10.48 50.864 0.659 7.97 4.03 11.3
12/16/2021 7:00:00 PM 10.47 50.846 0.66 7.97 4.01 11.14
12/16/2021 7:15:00 PM 10.47 50.846 0.66 7.96 3.96 11.04
12/16/2021 7:30:00 PM 10.46 50.828 0.66 7.95 4.57 10.95
12/16/2021 7:45:00 PM 10.45 50.81 0.66 7.95 4.18 10.86
12/16/2021 8:00:00 PM 10.45 50.81 0.66 7.94 4.14 10.78
12/16/2021 8:15:00 PM 10.45 50.81 0.659 7.94 4.39 10.71
12/16/2021 8:30:00 PM 10.45 50.81 0.659 7.94 4.13 10.64
12/16/2021 8:45:00 PM 10.44 50.792 0.66 7.93 3.96 10.59
12/16/2021 9:00:00 PM 10.43 50.774 0.66 7.93 3.47 10.52
12/16/2021 9:15:00 PM 10.43 50.774 0.66 7.92 3.75 10.45
12/16/2021 9:30:00 PM 10.42 50.756 0.66 7.92 4.28 10.4
12/16/2021 9:45:00 PM 10.42 50.756 0.66 7.91 4.19 10.35
12/16/2021 10:00:00 PM 10.42 50.756 0.66 7.91 3.6 10.29
12/16/2021 10:15:00 PM 10.42 50.756 0.661 7.9 4.2 10.23
12/16/2021 10:30:00 PM 10.42 50.756 0.661 7.9 3.81 10.2
12/16/2021 10:45:00 PM 10.42 50.756 0.661 7.9 4.33 10.14
12/16/2021 11:00:00 PM 10.42 50.756 0.661 7.89 4.01 10.11
12/16/2021 11:15:00 PM 10.41 50.738 0.661 7.89 4.3 10.06
12/16/2021 11:30:00 PM 10.4 50.72 0.661 7.89 4.32 10.02
12/16/2021 11:45:00 PM 10.4 50.72 0.661 7.88 3.92 9.98
12/17/2021 12:00:00 AM 10.4 50.72 0.661 7.88 3 9.95
12/17/2021 12:15:00 AM 10.39 50.702 0.661 7.87 3.31 9.9
12/17/2021 12:30:00 AM 10.39 50.702 0.661 7.87 3.51 9.86
12/17/2021 12:45:00 AM 10.38 50.684 0.661 7.86 3.28 9.81
12/17/2021 1:00:00 AM 10.38 50.684 0.661 7.86 3.38 9.8
12/17/2021 1:15:00 AM 10.37 50.666 0.662 7.86 3.02 9.75
12/17/2021 1:30:00 AM 10.36 50.648 0.662 7.85 3.87 9.72
12/17/2021 1:45:00 AM 10.35 50.63 0.662 7.85 4.12 9.7
12/17/2021 2:00:00 AM 10.34 50.612 0.662 7.84 3.8 9.68
12/17/2021 2:15:00 AM 10.33 50.594 0.665 7.84 4.98 9.65
12/17/2021 2:30:00 AM 10.32 50.576 0.67 7.84 2.47 9.62
12/17/2021 2:45:00 AM 10.31 50.558 0.67 7.83 1.03 9.6
12/17/2021 3:00:00 AM 10.3 50.54 0.67 7.83 0.65 9.6
12/17/2021 3:15:00 AM 10.29 50.522 0.67 7.83 0.42 9.57
12/17/2021 3:30:00 AM 10.27 50.486 0.67 7.82 0.49 9.57
12/17/2021 3:45:00 AM 10.26 50.468 0.67 7.82 0.55 9.55
12/17/2021 4:00:00 AM 10.25 50.45 0.669 7.82 0.78 9.54
12/17/2021 4:15:00 AM 10.24 50.432 0.666 7.82 0.97 9.52
12/17/2021 4:30:00 AM 10.23 50.414 0.664 7.82 0.74 9.52
12/17/2021 4:45:00 AM 10.21 50.378 0.67 7.81 0.75 9.52
12/17/2021 5:00:00 AM 10.2 50.36 0.67 7.81 1.03 9.51
12/17/2021 5:15:00 AM 10.19 50.342 0.666 7.81 1.3 9.51
12/17/2021 5:30:00 AM 10.17 50.306 0.663 7.81 1.2 9.5
12/17/2021 5:45:00 AM 10.16 50.288 0.665 7.81 1.17 9.5
12/17/2021 6:00:00 AM 10.14 50.252 0.666 7.81 0.84 9.5
12/17/2021 6:15:00 AM 10.12 50.216 0.667 7.81 0.97 9.51
12/17/2021 6:30:00 AM 10.1 50.18 0.67 7.81 0.86 9.5
12/17/2021 6:45:00 AM 10.07 50.126 0.67 7.81 0.77 9.52
12/17/2021 7:00:00 AM 10.04 50.072 0.67 7.81 0.56 9.53
12/17/2021 7:15:00 AM 10.01 50.018 0.67 7.8 1.13 9.53
12/17/2021 7:30:00 AM 9.98 49.964 0.67 7.8 1.01 9.54
12/17/2021 7:45:00 AM 9.95 49.91 0.67 7.8 1.46 9.56
12/17/2021 8:00:00 AM 9.92 49.856 0.67 7.8 0.69 9.62
12/17/2021 8:15:00 AM 9.9 49.82 0.67 7.81 1.52 9.71
12/17/2021 8:30:00 AM 9.88 49.784 0.67 7.81 0.46 9.82
12/17/2021 8:45:00 AM 9.87 49.766 0.67 7.82 0.32 10
12/17/2021 9:00:00 AM 9.87 49.766 0.67 7.84 0.28 10.19
12/17/2021 9:15:00 AM 9.87 49.766 0.669 7.86 0.27 10.41
12/17/2021 9:30:00 AM 9.87 49.766 0.669 7.87 0.24 10.65
12/17/2021 9:45:00 AM 9.89 49.802 0.669 7.89 0.38 10.9
12/17/2021 10:00:00 AM 9.91 49.838 0.668 7.91 0.18 11.2
12/17/2021 10:15:00 AM 9.93 49.874 0.668 7.93 0.26 11.47
12/17/2021 10:30:00 AM 9.94 49.892 0.667 7.95 0.27 11.75
12/17/2021 10:45:00 AM 9.97 49.946 0.667 7.96 0.28 12.01
12/17/2021 11:00:00 AM 10 50 0.666 7.99 0.17 12.27
12/17/2021 11:15:00 AM 10.02 50.036 0.665 8 0.09 12.53
12/17/2021 11:30:00 AM 10.05 50.09 0.664 8.02 0.06 12.77
12/17/2021 11:45:00 AM 10.08 50.144 0.664 8.04 0.51 12.99
12/17/2021 12:00:00 PM 10.11 50.198 0.663 8.06 0.2 13.22
12/17/2021 12:15:00 PM 10.16 50.288 0.662 8.07 -0.01 13.39
12/17/2021 12:30:00 PM 10.18 50.324 0.662 8.08 -0.08 13.57
12/17/2021 12:45:00 PM 10.22 50.396 0.661 8.1 0 13.69
12/17/2021 1:00:00 PM 10.25 50.45 0.661 8.11 0 13.83
12/17/2021 1:15:00 PM 10.28 50.504 0.66 8.12 0 14
12/17/2021 1:30:00 PM 10.31 50.558 0.66 8.14 -0.04 14.13
12/17/2021 1:45:00 PM 10.34 50.612 0.659 8.15 0.02 14.24
12/17/2021 2:00:00 PM 10.36 50.648 0.659 8.15 0 14.29
12/17/2021 2:15:00 PM 10.37 50.666 0.659 8.16 -0.02 14.31
12/17/2021 2:30:00 PM 10.38 50.684 0.659 8.16 -0.09 14.36
12/17/2021 2:45:00 PM 10.41 50.738 0.659 8.17 0.05 14.35
12/17/2021 3:00:00 PM 10.41 50.738 0.66 8.17 0.19 14.31
12/17/2021 3:15:00 PM 10.41 50.738 0.66 8.17 -0.05 14.27
12/17/2021 3:30:00 PM 10.39 50.702 0.661 8.16 -0.05 14.1
12/17/2021 3:45:00 PM 10.36 50.648 0.661 8.15 -0.01 13.9
12/17/2021 4:00:00 PM 10.33 50.594 0.661 8.14 0.05 13.74
12/17/2021 4:15:00 PM 10.29 50.522 0.661 8.13 0.17 13.51
12/17/2021 4:30:00 PM 10.25 50.45 0.662 8.11 0 13.22
12/17/2021 4:45:00 PM 10.22 50.396 0.662 8.09 0.73 12.94
12/17/2021 5:00:00 PM 10.18 50.324 0.663 8.07 0.21 12.7
12/17/2021 5:15:00 PM 10.16 50.288 0.663 8.05 0.13 12.47
12/17/2021 5:30:00 PM 10.14 50.252 0.664 8.04 0.11 12.24
12/17/2021 5:45:00 PM 10.12 50.216 0.664 8.02 0.61 12.09
12/17/2021 6:00:00 PM 10.09 50.162 0.664 8.02 0.54 11.93
12/17/2021 6:15:00 PM 10.05 50.09 0.663 8.01 0.53 11.78
12/17/2021 6:30:00 PM 10.01 50.018 0.662 8 0.3 11.73
12/17/2021 6:45:00 PM 9.97 49.946 0.661 7.99 0.59 11.67
12/17/2021 7:00:00 PM 9.93 49.874 0.66 7.98 0.48 11.68
12/17/2021 7:15:00 PM 9.89 49.802 0.66 7.97 0.53 11.67
12/17/2021 7:30:00 PM 9.86 49.748 0.66 7.97 0.46 11.66
12/17/2021 7:45:00 PM 9.83 49.694 0.66 7.96 0.6 11.6
12/17/2021 8:00:00 PM 9.8 49.64 0.66 7.96 0.84 11.52
12/17/2021 8:15:00 PM 9.77 49.586 0.66 7.96 0.79 11.47
12/17/2021 8:30:00 PM 9.74 49.532 0.661 7.95 0.87 11.43
12/17/2021 8:45:00 PM 9.72 49.496 0.661 7.95 0.62 11.38
12/17/2021 9:00:00 PM 9.7 49.46 0.661 7.94 1.62 11.32
12/17/2021 9:15:00 PM 9.67 49.406 0.661 7.94 0.66 11.26
12/17/2021 9:30:00 PM 9.65 49.37 0.661 7.94 0.9 11.2
12/17/2021 9:45:00 PM 9.63 49.334 0.661 7.93 0.81 11.18
12/17/2021 10:00:00 PM 9.61 49.298 0.661 7.93 0.86 11.14
12/17/2021 10:15:00 PM 9.6 49.28 0.661 7.93 0.94 11.1
12/17/2021 10:30:00 PM 9.58 49.244 0.661 7.93 1.02 11.05
12/17/2021 10:45:00 PM 9.57 49.226 0.661 7.92 1.23 11
12/17/2021 11:00:00 PM 9.56 49.208 0.661 7.92 1.38 10.97
12/17/2021 11:15:00 PM 9.56 49.208 0.661 7.91 1.25 10.93
12/17/2021 11:30:00 PM 9.56 49.208 0.661 7.91 1.17 10.89
12/17/2021 11:45:00 PM 9.56 49.208 0.661 7.9 1.13 10.85
12/18/2021 12:00:00 AM 9.56 49.208 0.661 7.9 1.06 10.83
12/18/2021 12:15:00 AM 9.56 49.208 0.661 7.89 2.14 10.75
12/18/2021 12:30:00 AM 9.55 49.19 0.661 7.89 1.07 10.74
12/18/2021 12:45:00 AM 9.54 49.172 0.661 7.89 1.08 10.7
12/18/2021 1:00:00 AM 9.54 49.172 0.661 7.89 1.05 10.67
12/18/2021 1:15:00 AM 9.53 49.154 0.661 7.88 1.33 10.63
12/18/2021 1:30:00 AM 9.53 49.154 0.661 7.88 2.17 10.61
12/18/2021 1:45:00 AM 9.53 49.154 0.66 7.87 1.57 10.58
12/18/2021 2:00:00 AM 9.53 49.154 0.661 7.87 2.06 10.55
12/18/2021 2:15:00 AM 9.54 49.172 0.661 7.86 1.43 10.53
12/18/2021 2:30:00 AM 9.54 49.172 0.661 7.85 1.37 10.52
12/18/2021 2:45:00 AM 9.54 49.172 0.661 7.85 1.76 10.5
12/18/2021 3:00:00 AM 9.54 49.172 0.661 7.84 1.19 10.49
12/18/2021 3:15:00 AM 9.54 49.172 0.661 7.84 1.04 10.46
12/18/2021 3:30:00 AM 9.54 49.172 0.661 7.84 1.36 10.44
12/18/2021 3:45:00 AM 9.54 49.172 0.661 7.84 1.62 10.43
12/18/2021 4:00:00 AM 9.54 49.172 0.661 7.83 1.26 10.42
12/18/2021 4:15:00 AM 9.54 49.172 0.66 7.83 1.23 10.42
12/18/2021 4:30:00 AM 9.53 49.154 0.66 7.83 1.26 10.4
12/18/2021 4:45:00 AM 9.53 49.154 0.66 7.83 1.45 10.4
12/18/2021 5:00:00 AM 9.52 49.136 0.659 7.83 1.23 10.4
12/18/2021 5:15:00 AM 9.5 49.1 0.659 7.83 1.47 10.38
12/18/2021 5:30:00 AM 9.49 49.082 0.658 7.83 1.46 10.36
12/18/2021 5:45:00 AM 9.47 49.046 0.658 7.83 1.22 10.37
12/18/2021 6:00:00 AM 9.46 49.028 0.658 7.83 1.23 10.35
12/18/2021 6:15:00 AM 9.45 49.01 0.659 7.83 1.58 10.28
12/18/2021 6:30:00 AM 9.44 48.992 0.659 7.82 1.28 10.21
12/18/2021 6:45:00 AM 9.42 48.956 0.659 7.82 1.18 10.19
12/18/2021 7:00:00 AM 9.4 48.92 0.659 7.82 1.8 10.14
12/18/2021 7:15:00 AM 9.39 48.902 0.659 7.82 2.24 10.14
12/18/2021 7:30:00 AM 9.37 48.866 0.658 7.82 1.31 10.12
12/18/2021 7:45:00 AM 9.36 48.848 0.658 7.81 1.41 10.09
12/18/2021 8:00:00 AM 9.34 48.812 0.659 7.81 1.75 10.07
12/18/2021 8:15:00 AM 9.34 48.812 0.659 7.81 1.46 10.03
12/18/2021 8:30:00 AM 9.34 48.812 0.661 7.81 1.4 10.01
12/18/2021 8:45:00 AM 9.32 48.776 0.661 7.81 1.01 10
12/18/2021 9:00:00 AM 9.32 48.776 0.661 7.81 1.28 10.02
12/18/2021 9:15:00 AM 9.31 48.758 0.661 7.81 1.09 10.05
12/18/2021 9:30:00 AM 9.3 48.74 0.661 7.81 0.95 10.08
12/18/2021 9:45:00 AM 9.3 48.74 0.661 7.82 0.9 10.15
12/18/2021 10:00:00 AM 9.31 48.758 0.66 7.82 1.31 10.22
12/18/2021 10:15:00 AM 9.31 48.758 0.66 7.83 0.94 10.3
12/18/2021 10:30:00 AM 9.32 48.776 0.66 7.83 0.8 10.4
12/18/2021 10:45:00 AM 9.33 48.794 0.66 7.84 0.87 10.53
12/18/2021 11:00:00 AM 9.35 48.83 0.659 7.85 0.68 10.63
12/18/2021 11:15:00 AM 9.36 48.848 0.659 7.86 0.8 10.75
12/18/2021 11:30:00 AM 9.38 48.884 0.659 7.87 0.79 10.89
12/18/2021 11:45:00 AM 9.4 48.92 0.659 7.87 0.9 11
12/18/2021 12:00:00 PM 9.42 48.956 0.658 7.89 0.83 11.18
12/18/2021 12:15:00 PM 9.43 48.974 0.656 7.9 0.84 11.34
12/18/2021 12:30:00 PM 9.44 48.992 0.655 7.92 1.46 11.48
12/18/2021 12:45:00 PM 9.45 49.01 0.654 7.93 0.99 11.67
12/18/2021 1:00:00 PM 9.47 49.046 0.652 7.95 1.27 11.85
12/18/2021 1:15:00 PM 9.49 49.082 0.651 7.96 1.49 11.98
12/18/2021 1:30:00 PM 9.49 49.082 0.645 7.97 2 12.07
12/18/2021 1:45:00 PM 9.51 49.118 0.648 7.98 2.02 12.16
12/18/2021 2:00:00 PM 9.52 49.136 0.648 7.98 1.81 12.15
12/18/2021 2:15:00 PM 9.53 49.154 0.648 7.98 1.69 12.1
12/18/2021 2:30:00 PM 9.55 49.19 0.646 7.99 1.7 12.2
12/18/2021 2:45:00 PM 9.57 49.226 0.645 7.99 1.67 12.23
12/18/2021 3:00:00 PM 9.58 49.244 0.644 7.99 1.65 12.26
12/18/2021 3:15:00 PM 9.6 49.28 0.644 7.99 2.02 12.34
12/18/2021 3:30:00 PM 9.61 49.298 0.645 7.98 1.62 12.38
12/18/2021 3:45:00 PM 9.62 49.316 0.645 7.98 1.74 12.3
12/18/2021 4:00:00 PM 9.63 49.334 0.647 7.97 1.33 12.26
12/18/2021 4:15:00 PM 9.63 49.334 0.648 7.96 1.47 12.12
12/18/2021 4:30:00 PM 9.64 49.352 0.65 7.96 1.26 11.95
12/18/2021 4:45:00 PM 9.64 49.352 0.651 7.95 1.13 11.84
12/18/2021 5:00:00 PM 9.63 49.334 0.652 7.94 1.29 11.72
12/18/2021 5:15:00 PM 9.63 49.334 0.653 7.93 1.78 11.6
12/18/2021 5:30:00 PM 9.63 49.334 0.654 7.92 1.2 11.54
12/18/2021 5:45:00 PM 9.62 49.316 0.654 7.92 1.56 11.42
12/18/2021 6:00:00 PM 9.62 49.316 0.655 7.91 1.39 11.36
12/18/2021 6:15:00 PM 9.62 49.316 0.655 7.91 1.44 11.27
12/18/2021 6:30:00 PM 9.62 49.316 0.655 7.91 1.15 11.22
12/18/2021 6:45:00 PM 9.61 49.298 0.655 7.9 1.96 11.14
12/18/2021 7:00:00 PM 9.61 49.298 0.656 7.9 1.3 11.09
12/18/2021 7:15:00 PM 9.6 49.28 0.656 7.9 1.36 11.07
12/18/2021 7:30:00 PM 9.59 49.262 0.656 7.9 1.99 11.01
12/18/2021 7:45:00 PM 9.57 49.226 0.656 7.9 2.3 10.98
12/18/2021 8:00:00 PM 9.56 49.208 0.656 7.89 1.41 10.96
12/18/2021 8:15:00 PM 9.54 49.172 0.656 7.89 1.48 10.95
12/18/2021 8:30:00 PM 9.52 49.136 0.656 7.89 1.73 10.9
12/18/2021 8:45:00 PM 9.51 49.118 0.656 7.89 1.36 10.88
12/18/2021 9:00:00 PM 9.5 49.1 0.656 7.89 1.93 10.85
12/18/2021 9:15:00 PM 9.49 49.082 0.656 7.89 1.71 10.84
12/18/2021 9:30:00 PM 9.49 49.082 0.656 7.88 1.36 10.79
12/18/2021 9:45:00 PM 9.48 49.064 0.656 7.88 2.41 10.76
12/18/2021 10:00:00 PM 9.48 49.064 0.656 7.88 1.59 10.72
12/18/2021 10:15:00 PM 9.48 49.064 0.657 7.88 2 10.71
12/18/2021 10:30:00 PM 9.48 49.064 0.657 7.88 1.51 10.7
12/18/2021 10:45:00 PM 9.48 49.064 0.657 7.87 1.45 10.67
12/18/2021 11:00:00 PM 9.48 49.064 0.657 7.87 1.54 10.64
12/18/2021 11:15:00 PM 9.48 49.064 0.658 7.87 1.49 10.61
12/18/2021 11:30:00 PM 9.48 49.064 0.657 7.87 1.8 10.59
12/18/2021 11:45:00 PM 9.49 49.082 0.658 7.86 2.19 10.56
12/19/2021 12:00:00 AM 9.49 49.082 0.658 7.86 1.49 10.54
12/19/2021 12:15:00 AM 9.49 49.082 0.658 7.86 1.76 10.52
12/19/2021 12:30:00 AM 9.5 49.1 0.658 7.86 3 10.51
12/19/2021 12:45:00 AM 9.5 49.1 0.658 7.86 1.63 10.48
12/19/2021 1:00:00 AM 9.5 49.1 0.658 7.86 1.81 10.47
12/19/2021 1:15:00 AM 9.51 49.118 0.659 7.86 1.77 10.43
12/19/2021 1:30:00 AM 9.51 49.118 0.658 7.86 1.71 10.44
12/19/2021 1:45:00 AM 9.52 49.136 0.659 7.85 1.46 10.43
12/19/2021 2:00:00 AM 9.52 49.136 0.659 7.85 1.95 10.42
12/19/2021 2:15:00 AM 9.53 49.154 0.658 7.85 2.55 10.41
12/19/2021 2:30:00 AM 9.53 49.154 0.658 7.85 2.08 10.39
12/19/2021 2:45:00 AM 9.52 49.136 0.657 7.84 1.47 10.38
12/19/2021 3:00:00 AM 9.52 49.136 0.656 7.85 2.03 10.38
12/19/2021 3:15:00 AM 9.51 49.118 0.655 7.84 2 10.36
12/19/2021 3:30:00 AM 9.51 49.118 0.653 7.84 1.69 10.36
12/19/2021 4:00:00 AM 9.49 49.082 0.651 7.83 1.92 10.32
12/19/2021 4:15:00 AM 9.48 49.064 0.649 7.83 1.47 10.3
12/19/2021 4:30:00 AM 9.47 49.046 0.647 7.83 1.84 10.29
12/19/2021 4:45:00 AM 9.45 49.01 0.646 7.83 1.42 10.29
12/19/2021 5:00:00 AM 9.42 48.956 0.645 7.83 2.28 10.28
12/19/2021 5:15:00 AM 9.39 48.902 0.644 7.82 1.85 10.3
12/19/2021 5:30:00 AM 9.36 48.848 0.643 7.82 1.84 10.28
12/19/2021 5:45:00 AM 9.33 48.794 0.643 7.82 11.98 10.27
12/19/2021 6:00:00 AM 9.31 48.758 0.642 7.82 3.87 10.29
12/19/2021 6:15:00 AM 9.28 48.704 0.642 7.82 3.59 10.28
12/19/2021 6:30:00 AM 9.24 48.632 0.642 7.82 3.21 10.3
12/19/2021 6:45:00 AM 9.2 48.56 0.643 7.82 3.09 10.31
12/19/2021 7:00:00 AM 9.16 48.488 0.644 7.81 2.65 10.31
12/19/2021 7:15:00 AM 9.13 48.434 0.644 7.82 1.94 10.31
12/19/2021 7:30:00 AM 9.1 48.38 0.645 7.82 2.29 10.34
12/19/2021 7:45:00 AM 9.08 48.344 0.646 7.82 2.25 10.34
12/19/2021 8:00:00 AM 9.06 48.308 0.648 7.82 2.45 10.34
12/19/2021 8:15:00 AM 9.06 48.308 0.649 7.82 1.95 10.41
12/19/2021 8:30:00 AM 9.06 48.308 0.65 7.83 1.67 10.49
12/19/2021 8:45:00 AM 9.07 48.326 0.651 7.84 1.84 10.62
12/19/2021 9:00:00 AM 9.07 48.326 0.652 7.85 1.96 10.76
12/19/2021 9:15:00 AM 9.09 48.362 0.653 7.86 1.28 10.95
12/19/2021 9:30:00 AM 9.1 48.38 0.654 7.87 1.34 11.14
12/19/2021 9:45:00 AM 9.1 48.38 0.654 7.89 1.33 11.29
12/19/2021 10:00:00 AM 9.09 48.362 0.655 7.9 1.33 11.44
12/19/2021 10:15:00 AM 9.1 48.38 0.655 7.91 1.28 11.67
12/19/2021 10:30:00 AM 9.12 48.416 0.655 7.93 1.32 11.92
12/19/2021 10:45:00 AM 9.13 48.434 0.656 7.95 1.17 12.17
12/19/2021 11:00:00 AM 9.13 48.434 0.656 7.97 1.48 12.4
12/19/2021 11:15:00 AM 9.13 48.434 0.656 7.99 1.37 12.62
12/19/2021 11:30:00 AM 9.14 48.452 0.656 8 1.36 12.81
12/19/2021 11:45:00 AM 9.2 48.56 0.656 8.03 1.36 13
12/19/2021 12:00:00 PM 9.27 48.686 0.656 8.04 1.33 13.22
12/19/2021 12:15:00 PM 9.34 48.812 0.656 8.06 1.51 13.47
12/19/2021 12:30:00 PM 9.39 48.902 0.655 8.07 1.22 13.63
12/19/2021 12:45:00 PM 9.39 48.902 0.656 8.09 1.26 13.7
12/19/2021 1:00:00 PM 9.38 48.884 0.656 8.09 1.2 13.74
12/19/2021 1:15:00 PM 9.39 48.902 0.656 8.1 1.07 13.82
12/19/2021 1:30:00 PM 9.38 48.884 0.656 8.11 1.14 13.88
12/19/2021 1:45:00 PM 9.36 48.848 0.656 8.11 1.22 13.91
12/19/2021 2:00:00 PM 9.33 48.794 0.656 8.11 1.04 13.87
12/19/2021 2:15:00 PM 9.32 48.776 0.656 8.11 1.07 13.91
12/19/2021 2:30:00 PM 9.28 48.704 0.657 8.11 1.08 13.9
12/19/2021 2:45:00 PM 9.23 48.614 0.657 8.11 1.04 13.8
12/19/2021 3:00:00 PM 9.18 48.524 0.657 8.11 1.2 13.74
12/19/2021 3:15:00 PM 9.14 48.452 0.658 8.11 1 13.67
12/19/2021 3:30:00 PM 9.09 48.362 0.658 8.1 1.15 13.59
12/19/2021 3:45:00 PM 9.04 48.272 0.658 8.09 1.07 13.44
12/19/2021 4:00:00 PM 8.98 48.164 0.659 8.09 1.18 13.29
12/19/2021 4:15:00 PM 8.93 48.074 0.659 8.07 1.19 13.17
12/19/2021 4:30:00 PM 8.88 47.984 0.66 8.06 1.07 13
12/19/2021 4:45:00 PM 8.84 47.912 0.66 8.05 1.58 12.84
12/19/2021 5:00:00 PM 8.79 47.822 0.661 8.04 1.18 12.64
12/19/2021 5:15:00 PM 8.75 47.75 0.661 8.03 1.16 12.46
12/19/2021 5:30:00 PM 8.71 47.678 0.662 8.01 1.68 12.31
12/19/2021 5:45:00 PM 8.68 47.624 0.662 8.01 1.59 12.19
12/19/2021 6:00:00 PM 8.64 47.552 0.663 8 1.4 12.07
12/19/2021 6:15:00 PM 8.61 47.498 0.663 7.99 1.45 11.99
12/19/2021 6:30:00 PM 8.57 47.426 0.663 7.99 1.85 11.92
12/19/2021 6:45:00 PM 8.54 47.372 0.663 7.98 2.02 11.87
12/19/2021 7:00:00 PM 8.5 47.3 0.663 7.97 1.74 11.83
12/19/2021 7:15:00 PM 8.46 47.228 0.663 7.97 1.32 11.8
12/19/2021 7:30:00 PM 8.42 47.156 0.663 7.97 1.47 11.77
12/19/2021 7:45:00 PM 8.39 47.102 0.663 7.96 2.83 11.7
12/19/2021 8:00:00 PM 8.36 47.048 0.663 7.96 1.84 11.67
12/19/2021 8:15:00 PM 8.32 46.976 0.663 7.96 1.92 11.63
12/19/2021 8:30:00 PM 8.29 46.922 0.663 7.95 1.95 11.6
12/19/2021 8:45:00 PM 8.26 46.868 0.663 7.95 2.21 11.55
12/19/2021 9:00:00 PM 8.22 46.796 0.663 7.95 1.6 11.55
12/19/2021 9:15:00 PM 8.18 46.724 0.663 7.95 1.63 11.5
12/19/2021 9:30:00 PM 8.15 46.67 0.663 7.95 1.81 11.48
12/19/2021 9:45:00 PM 8.12 46.616 0.663 7.95 1.85 11.45
12/19/2021 10:00:00 PM 8.08 46.544 0.663 7.94 3.96 11.42
12/19/2021 10:15:00 PM 8.05 46.49 0.663 7.94 2.93 11.4
12/19/2021 10:30:00 PM 8.02 46.436 0.663 7.94 1.59 11.38
12/19/2021 10:45:00 PM 7.98 46.364 0.663 7.94 2.16 11.35
12/19/2021 11:00:00 PM 7.94 46.292 0.663 7.94 1.99 11.35
12/19/2021 11:15:00 PM 7.9 46.22 0.663 7.93 1.88 11.34
12/19/2021 11:30:00 PM 7.87 46.166 0.663 7.93 1.84 11.32
12/19/2021 11:45:00 PM 7.83 46.094 0.664 7.92 1.83 11.3
12/20/2021 12:00:00 AM 7.78 46.004 0.664 7.93 2.21 11.28
12/20/2021 12:15:00 AM 7.73 45.914 0.664 7.92 3.74 11.28
12/20/2021 12:30:00 AM 7.7 45.86 0.664 7.92 1.73 11.24
12/20/2021 12:45:00 AM 7.66 45.788 0.665 7.92 2.07 11.23
12/20/2021 1:00:00 AM 7.62 45.716 0.665 7.91 2.94 11.21
12/20/2021 1:15:00 AM 7.58 45.644 0.665 7.91 2.15 11.22
12/20/2021 1:30:00 AM 7.54 45.572 0.665 7.91 2.01 11.2
12/20/2021 1:45:00 AM 7.5 45.5 0.665 7.9 2.03 11.18
12/20/2021 2:00:00 AM 7.46 45.428 0.665 7.9 2.23 11.17
12/20/2021 2:15:00 AM 7.43 45.374 0.666 7.9 2.67 11.16
12/20/2021 2:30:00 AM 7.39 45.302 0.666 7.89 3.28 11.16
12/20/2021 2:45:00 AM 7.36 45.248 0.666 7.89 2.06 11.16
12/20/2021 3:00:00 AM 7.33 45.194 0.666 7.89 1.95 11.15
12/20/2021 3:15:00 AM 7.29 45.122 0.666 7.89 2.54 11.14
12/20/2021 3:30:00 AM 7.26 45.068 0.666 7.89 1.98 11.16
12/20/2021 3:45:00 AM 7.23 45.014 0.666 7.89 1.98 11.15
12/20/2021 4:00:00 AM 7.19 44.942 0.666 7.89 3.19 11.15
12/20/2021 4:15:00 AM 7.16 44.888 0.667 7.89 2.35 11.13
12/20/2021 4:30:00 AM 7.13 44.834 0.667 7.88 3.19 11.14
12/20/2021 4:45:00 AM 7.1 44.78 0.667 7.88 2.31 11.13
12/20/2021 5:00:00 AM 7.07 44.726 0.668 7.88 2.18 11.15
12/20/2021 5:15:00 AM 7.04 44.672 0.668 7.88 1.92 11.15
12/20/2021 5:30:00 AM 7.01 44.618 0.668 7.88 3.22 11.14
12/20/2021 5:45:00 AM 6.97 44.546 0.669 7.88 2.16 11.14
12/20/2021 6:00:00 AM 6.94 44.492 0.669 7.87 2.09 11.16
12/20/2021 6:15:00 AM 6.91 44.438 0.669 7.87 1.92 11.16
12/20/2021 6:30:00 AM 6.88 44.384 0.67 7.87 1.69 11.15
12/20/2021 6:45:00 AM 6.85 44.33 0.67 7.87 1.99 11.14
12/20/2021 7:00:00 AM 6.82 44.276 0.67 7.87 2.42 11.15
12/20/2021 7:15:00 AM 6.78 44.204 0.671 7.87 1.75 11.16
12/20/2021 7:30:00 AM 6.76 44.168 0.671 7.86 1.96 11.17
12/20/2021 7:45:00 AM 6.73 44.114 0.671 7.87 2.07 11.19
12/20/2021 8:00:00 AM 6.71 44.078 0.671 7.87 1.84 11.24
12/20/2021 8:15:00 AM 6.69 44.042 0.671 7.87 2.73 11.31
12/20/2021 8:30:00 AM 6.67 44.006 0.671 7.88 2.12 11.36
12/20/2021 8:45:00 AM 6.67 44.006 0.671 7.88 1.61 11.49
12/20/2021 9:00:00 AM 6.67 44.006 0.671 7.89 1.69 11.62
12/20/2021 9:15:00 AM 6.68 44.024 0.671 7.9 1.66 11.78
12/20/2021 9:30:00 AM 6.72 44.096 0.671 7.91 2.02 11.96
12/20/2021 9:45:00 AM 6.76 44.168 0.67 7.92 1.81 12.2
12/20/2021 10:00:00 AM 6.82 44.276 0.67 7.93 1.8 12.44
12/20/2021 10:15:00 AM 6.88 44.384 0.67 7.95 1.74 12.67
12/20/2021 10:30:00 AM 6.95 44.51 0.67 7.96 1.67 12.91
12/20/2021 10:45:00 AM 7.02 44.636 0.67 7.98 1.88 13.11
12/20/2021 11:00:00 AM 7.1 44.78 0.669 7.99 1.77 13.3
12/20/2021 11:15:00 AM 7.17 44.906 0.669 8.01 1.84 13.46
12/20/2021 11:30:00 AM 7.26 45.068 0.669 8.02 2.29 13.62
12/20/2021 11:45:00 AM 7.34 45.212 0.668 8.04 2.21 13.77
12/20/2021 12:00:00 PM 7.42 45.356 0.668 8.04 2.3 13.9
12/20/2021 12:15:00 PM 7.49 45.482 0.668 8.06 2.4 13.99
12/20/2021 12:30:00 PM 7.56 45.608 0.668 8.07 2.67 14.11
12/20/2021 12:45:00 PM 7.61 45.698 0.668 8.08 2.99 14.18
12/20/2021 1:00:00 PM 7.65 45.77 0.667 8.08 1.54 14.25
12/20/2021 1:15:00 PM 7.7 45.86 0.667 8.09 5.72 14.31
12/20/2021 1:30:00 PM 7.72 45.896 0.667 8.09 7.22 14.34
12/20/2021 1:45:00 PM 7.73 45.914 0.667 8.1 1.72 14.33
12/20/2021 2:00:00 PM 7.73 45.914 0.666 8.1 1.53 14.32
12/20/2021 2:15:00 PM 7.72 45.896 0.667 8.1 1.17 14.31
12/20/2021 2:30:00 PM 7.71 45.878 0.666 8.1 1.16 14.32
12/20/2021 2:45:00 PM 7.69 45.842 0.667 8.1 2.22 14.24
12/20/2021 3:00:00 PM 7.66 45.788 0.667 8.1 1.45 14.17
12/20/2021 3:15:00 PM 7.64 45.752 0.667 8.09 1.55 14.05
12/20/2021 3:30:00 PM 7.6 45.68 0.667 8.08 1.47 13.97
12/20/2021 3:45:00 PM 7.56 45.608 0.668 8.07 1.61 13.82
12/20/2021 4:00:00 PM 7.53 45.554 0.668 8.06 1.74 13.69
12/20/2021 4:15:00 PM 7.5 45.5 0.668 8.05 7.7 13.52
12/20/2021 4:30:00 PM 7.47 45.446 0.669 8.04 7.23 13.38
12/20/2021 4:45:00 PM 7.44 45.392 0.669 8.03 7.54 13.23
12/20/2021 5:00:00 PM 7.41 45.338 0.669 8.02 7.64 13.03
12/20/2021 5:15:00 PM 7.38 45.284 0.669 8.01 7.66 12.89
12/20/2021 5:30:00 PM 7.34 45.212 0.67 8 8.06 12.76
12/20/2021 5:45:00 PM 7.29 45.122 0.671 7.99 7.3 12.63
12/20/2021 6:00:00 PM 7.22 44.996 0.672 7.98 6.81 12.5
12/20/2021 6:15:00 PM 7.16 44.888 0.673 7.98 6.17 12.4
12/20/2021 6:30:00 PM 7.11 44.798 0.673 7.97 5.34 12.3
12/20/2021 6:45:00 PM 7.06 44.708 0.674 7.96 4.78 12.18
12/20/2021 7:00:00 PM 7.02 44.636 0.674 7.96 5.07 12.09
12/20/2021 7:15:00 PM 6.99 44.582 0.674 7.95 3.36 11.99
12/20/2021 7:30:00 PM 6.96 44.528 0.674 7.95 1.92 11.9
12/20/2021 7:45:00 PM 6.93 44.474 0.673 7.95 1.82 11.83
12/20/2021 8:00:00 PM 6.9 44.42 0.673 7.94 2.07 11.79
12/20/2021 8:15:00 PM 6.87 44.366 0.673 7.95 2.85 11.72
12/20/2021 8:30:00 PM 6.84 44.312 0.673 7.94 2.8 11.69
12/20/2021 8:45:00 PM 6.8 44.24 0.673 7.94 2.03 11.65
12/20/2021 9:00:00 PM 6.77 44.186 0.673 7.93 1.89 11.61
12/20/2021 9:15:00 PM 6.74 44.132 0.673 7.93 2.12 11.56
12/20/2021 9:30:00 PM 6.71 44.078 0.672 7.93 1.88 11.52
12/20/2021 9:45:00 PM 6.68 44.024 0.672 7.93 1.9 11.49
12/20/2021 10:00:00 PM 6.65 43.97 0.672 7.92 1.95 11.45
12/20/2021 10:15:00 PM 6.63 43.934 0.672 7.92 2.2 11.42
12/20/2021 10:30:00 PM 6.6 43.88 0.672 7.92 1.76 11.41
12/20/2021 10:45:00 PM 6.57 43.826 0.672 7.91 2.19 11.37
12/20/2021 11:00:00 PM 6.55 43.79 0.672 7.91 1.99 11.36
12/20/2021 11:15:00 PM 6.52 43.736 0.672 7.91 2.15 11.32
12/20/2021 11:30:00 PM 6.5 43.7 0.672 7.9 2.47 11.3
12/20/2021 11:45:00 PM 6.47 43.646 0.672 7.9 1.87 11.29
12/21/2021 12:00:00 AM 6.44 43.592 0.672 7.9 1.88 11.23
12/21/2021 12:15:00 AM 6.42 43.556 0.672 7.9 1.59 11.23
12/21/2021 12:30:00 AM 6.39 43.502 0.672 7.89 2.29 11.2
12/21/2021 12:45:00 AM 6.36 43.448 0.672 7.89 1.86 11.18
12/21/2021 1:00:00 AM 6.33 43.394 0.673 7.89 2.04 11.15
12/21/2021 1:15:00 AM 6.31 43.358 0.673 7.89 2.67 11.11
12/21/2021 1:30:00 AM 6.29 43.322 0.673 7.88 2.64 11.09
12/21/2021 1:45:00 AM 6.27 43.286 0.673 7.88 2.37 11.07
12/21/2021 2:00:00 AM 6.25 43.25 0.673 7.88 2.36 11.05
12/21/2021 2:15:00 AM 6.24 43.232 0.673 7.88 2.01 11.04
12/21/2021 2:30:00 AM 6.23 43.214 0.674 7.87 2.53 11
12/21/2021 2:45:00 AM 6.22 43.196 0.674 7.87 2.96 11
12/21/2021 3:00:00 AM 6.21 43.178 0.674 7.86 2.36 10.97
12/21/2021 3:15:00 AM 6.2 43.16 0.675 7.86 3.25 10.97
12/21/2021 3:30:00 AM 6.2 43.16 0.675 7.86 2.3 10.93
12/21/2021 3:45:00 AM 6.19 43.142 0.675 7.86 2.47 10.9
12/21/2021 4:00:00 AM 6.18 43.124 0.675 7.85 3.1 10.91
12/21/2021 4:15:00 AM 6.18 43.124 0.676 7.85 2.76 10.88
12/21/2021 4:30:00 AM 6.17 43.106 0.676 7.85 3.13 10.88
12/21/2021 4:45:00 AM 6.16 43.088 0.676 7.85 2.61 10.87
12/21/2021 5:00:00 AM 6.14 43.052 0.676 7.85 3.02 10.89
12/21/2021 5:15:00 AM 6.12 43.016 0.676 7.85 2.99 10.88
12/21/2021 5:30:00 AM 6.1 42.98 0.676 7.85 3.11 10.88
12/21/2021 5:45:00 AM 6.09 42.962 0.676 7.84 2.13 10.87
12/21/2021 6:00:00 AM 6.06 42.908 0.676 7.84 1.99 10.86
12/21/2021 6:15:00 AM 6.04 42.872 0.676 7.84 1.88 10.89
12/21/2021 6:30:00 AM 6.03 42.854 0.676 7.84 1.69 10.89
12/21/2021 6:45:00 AM 6 42.8 0.677 7.84 2.21 10.88
12/21/2021 7:00:00 AM 5.98 42.764 0.677 7.83 2.81 10.88
12/21/2021 7:15:00 AM 5.96 42.728 0.677 7.83 2.5 10.89
12/21/2021 7:30:00 AM 5.94 42.692 0.677 7.83 2.26 10.89
12/21/2021 7:45:00 AM 5.92 42.656 0.677 7.83 2.26 10.9
12/21/2021 8:00:00 AM 5.9 42.62 0.678 7.83 2.99 10.94
12/21/2021 8:15:00 AM 5.9 42.62 0.678 7.83 2.19 11.02
12/21/2021 8:30:00 AM 5.9 42.62 0.678 7.83 2.39 11.13
12/21/2021 8:45:00 AM 5.91 42.638 0.678 7.84 1.94 11.27
12/21/2021 9:00:00 AM 5.93 42.674 0.678 7.85 2.01 11.45
12/21/2021 9:15:00 AM 5.95 42.71 0.678 7.86 1.99 11.67
12/21/2021 9:30:00 AM 5.98 42.764 0.678 7.87 2.49 11.89
12/21/2021 9:45:00 AM 6.01 42.818 0.678 7.89 2.31 12.12
12/21/2021 10:00:00 AM 6.05 42.89 0.677 7.9 1.96 12.36
12/21/2021 10:15:00 AM 6.1 42.98 0.677 7.92 2.06 12.58
12/21/2021 10:30:00 AM 6.17 43.106 0.676 7.94 1.98 12.82
12/21/2021 10:45:00 AM 6.24 43.232 0.676 7.96 2.45 13.04
12/21/2021 11:00:00 AM 6.3 43.34 0.675 7.98 2.12 13.3
12/21/2021 11:15:00 AM 6.37 43.466 0.675 7.99 1.93 13.51
12/21/2021 11:30:00 AM 6.45 43.61 0.674 8.01 1.9 13.73
12/21/2021 11:45:00 AM 6.54 43.772 0.674 8.03 2.25 13.94
12/21/2021 12:00:00 PM 6.61 43.898 0.673 8.04 3.03 14.1
12/21/2021 12:15:00 PM 6.69 44.042 0.673 8.05 2.35 14.25
12/21/2021 12:30:00 PM 6.79 44.222 0.672 8.06 1.92 14.43
12/21/2021 12:45:00 PM 6.89 44.402 0.672 8.08 1.93 14.58
12/21/2021 1:00:00 PM 6.97 44.546 0.671 8.09 2.04 14.72
12/21/2021 1:15:00 PM 7.03 44.654 0.671 8.11 1.96 14.8
12/21/2021 1:30:00 PM 7.1 44.78 0.671 8.11 1.97 14.92
12/21/2021 1:45:00 PM 7.16 44.888 0.671 8.12 2.03 14.96
12/21/2021 2:00:00 PM 7.2 44.96 0.671 8.12 1.75 14.99
12/21/2021 2:15:00 PM 7.24 45.032 0.671 8.13 1.9 15.02
12/21/2021 2:30:00 PM 7.26 45.068 0.671 8.13 2.86 15.01
12/21/2021 2:45:00 PM 7.28 45.104 0.671 8.13 1.97 14.95
12/21/2021 3:00:00 PM 7.3 45.14 0.671 8.13 1.88 14.88
12/21/2021 3:15:00 PM 7.32 45.176 0.671 8.13 2.09 14.86
12/21/2021 3:30:00 PM 7.33 45.194 0.671 8.13 1.27 14.76
12/21/2021 3:45:00 PM 7.33 45.194 0.672 8.13 1.95 14.64
12/21/2021 4:00:00 PM 7.32 45.176 0.672 8.12 2.27 14.45
12/21/2021 4:15:00 PM 7.31 45.158 0.672 8.1 2.31 14.24
12/21/2021 4:30:00 PM 7.3 45.14 0.673 8.08 2.73 14
12/21/2021 4:45:00 PM 7.29 45.122 0.673 8.07 2.97 13.74
12/21/2021 5:00:00 PM 7.29 45.122 0.674 8.05 3.47 13.46
12/21/2021 5:15:00 PM 7.28 45.104 0.674 8.03 2.44 13.19
12/21/2021 5:30:00 PM 7.28 45.104 0.674 8.02 2.35 12.97
12/21/2021 5:45:00 PM 7.3 45.14 0.673 8.01 4.24 12.75
12/21/2021 6:00:00 PM 7.34 45.212 0.672 8 4.6 12.56
12/21/2021 6:15:00 PM 7.36 45.248 0.671 7.99 6.01 12.46
12/21/2021 6:30:00 PM 7.38 45.284 0.67 7.98 5.38 12.43
12/21/2021 6:45:00 PM 7.39 45.302 0.67 7.97 7.59 12.4
12/21/2021 7:00:00 PM 7.4 45.32 0.67 7.97 6.4 12.35
12/21/2021 7:15:00 PM 7.41 45.338 0.669 7.96 6.18 12.28
12/21/2021 7:30:00 PM 7.43 45.374 0.669 7.95 5.23 12.22
12/21/2021 7:45:00 PM 7.45 45.41 0.669 7.95 5.63 12.15
12/21/2021 8:00:00 PM 7.46 45.428 0.669 7.95 5.24 12.08
12/21/2021 8:15:00 PM 7.48 45.464 0.669 7.94 5.42 12.01
12/21/2021 8:30:00 PM 7.49 45.482 0.669 7.94 4.39 11.95
12/21/2021 8:45:00 PM 7.5 45.5 0.669 7.94 4.3 11.89
12/21/2021 9:00:00 PM 7.51 45.518 0.669 7.94 4.5 11.84
12/21/2021 9:15:00 PM 7.52 45.536 0.668 7.93 4.37 11.78
12/21/2021 9:30:00 PM 7.53 45.554 0.668 7.93 4.46 11.71
12/21/2021 9:45:00 PM 7.54 45.572 0.668 7.93 4.34 11.65
12/21/2021 10:00:00 PM 7.55 45.59 0.668 7.92 4.65 11.62
12/21/2021 10:15:00 PM 7.56 45.608 0.668 7.92 4.63 11.57
12/21/2021 10:30:00 PM 7.57 45.626 0.668 7.92 4.76 11.53
12/21/2021 10:45:00 PM 7.58 45.644 0.668 7.91 4.89 11.48
12/21/2021 11:00:00 PM 7.58 45.644 0.668 7.91 4.67 11.4
12/21/2021 11:15:00 PM 7.57 45.626 0.668 7.91 4.78 11.36
12/21/2021 11:30:00 PM 7.56 45.608 0.669 7.9 5.01 11.27
12/21/2021 11:45:00 PM 7.54 45.572 0.67 7.9 5.12 11.19
12/22/2021 12:00:00 AM 7.54 45.572 0.67 7.89 4.65 11.13
12/22/2021 12:15:00 AM 7.53 45.554 0.671 7.89 4.67 11.03
12/22/2021 12:30:00 AM 7.54 45.572 0.671 7.88 4.89 10.98
12/22/2021 12:45:00 AM 7.55 45.59 0.671 7.88 4.74 10.95
12/22/2021 1:00:00 AM 7.57 45.626 0.671 7.88 4.59 10.91
12/22/2021 1:15:00 AM 7.61 45.698 0.67 7.87 9 10.89
12/22/2021 1:30:00 AM 7.64 45.752 0.669 7.87 4.3 10.89
12/22/2021 1:45:00 AM 7.67 45.806 0.669 7.87 4.56 10.88
12/22/2021 2:00:00 AM 7.69 45.842 0.669 7.86 5.3 10.88
12/22/2021 2:15:00 AM 7.71 45.878 0.669 7.86 5.71 10.83
12/22/2021 2:30:00 AM 7.73 45.914 0.669 7.86 4.97 10.8
12/22/2021 2:45:00 AM 7.74 45.932 0.669 7.85 5.06 10.78
12/22/2021 3:00:00 AM 7.75 45.95 0.669 7.85 4.68 10.74
12/22/2021 3:15:00 AM 7.76 45.968 0.669 7.86 5.66 10.71
12/22/2021 3:30:00 AM 7.76 45.968 0.669 7.86 4.82 10.69
12/22/2021 3:45:00 AM 7.76 45.968 0.669 7.86 4.78 10.67
12/22/2021 4:00:00 AM 7.76 45.968 0.669 7.85 3.39 10.65
12/22/2021 4:15:00 AM 7.76 45.968 0.669 7.85 3.08 10.65
12/22/2021 4:30:00 AM 7.77 45.986 0.669 7.85 2.91 10.62
12/22/2021 4:45:00 AM 7.78 46.004 0.669 7.85 4.06 10.61
12/22/2021 5:00:00 AM 7.78 46.004 0.669 7.85 2.87 10.6
12/22/2021 5:15:00 AM 7.77 45.986 0.669 7.85 2.64 10.6
12/22/2021 5:30:00 AM 7.75 45.95 0.669 7.85 2.56 10.6
12/22/2021 5:45:00 AM 7.72 45.896 0.668 7.85 2.58 10.58
12/22/2021 6:00:00 AM 7.7 45.86 0.668 7.85 3.44 10.59
12/22/2021 6:15:00 AM 7.68 45.824 0.668 7.84 3.93 10.59
12/22/2021 6:30:00 AM 7.66 45.788 0.668 7.84 4.68 10.6
12/22/2021 6:45:00 AM 7.64 45.752 0.668 7.84 5.39 10.6
12/22/2021 7:00:00 AM 7.61 45.698 0.667 7.84 4.96 10.59
12/22/2021 7:15:00 AM 7.58 45.644 0.667 7.84 4.64 10.62
12/22/2021 7:30:00 AM 7.56 45.608 0.667 7.85 4.78 10.59
12/22/2021 7:45:00 AM 7.55 45.59 0.667 7.85 4.4 10.61
12/22/2021 8:00:00 AM 7.54 45.572 0.667 7.85 4.14 10.63
12/22/2021 8:15:00 AM 7.53 45.554 0.667 7.85 4.54 10.68
12/22/2021 8:30:00 AM 7.51 45.518 0.668 7.85 3.78 10.71
12/22/2021 8:45:00 AM 7.51 45.518 0.669 7.86 3.87 10.8
12/22/2021 9:00:00 AM 7.5 45.5 0.67 7.86 4.39 10.86
12/22/2021 9:15:00 AM 7.5 45.5 0.67 7.86 4.09 10.96
12/22/2021 9:30:00 AM 7.51 45.518 0.671 7.88 4.26 11.12
12/22/2021 9:45:00 AM 7.55 45.59 0.671 7.88 4.23 11.3
12/22/2021 10:00:00 AM 7.6 45.68 0.671 7.9 4.11 11.47
12/22/2021 10:15:00 AM 7.65 45.77 0.671 7.92 4.73 11.68
12/22/2021 10:30:00 AM 7.71 45.878 0.67 7.93 4.55 11.91
12/22/2021 10:45:00 AM 7.75 45.95 0.67 7.95 3.11 12.07
12/22/2021 11:00:00 AM 7.78 46.004 0.67 7.96 4.02 12.25
12/22/2021 11:15:00 AM 7.81 46.058 0.67 7.98 4.24 12.41
12/22/2021 11:30:00 AM 7.86 46.148 0.67 8 4.32 12.63
12/22/2021 11:45:00 AM 7.91 46.238 0.669 8.01 3.74 12.81
12/22/2021 12:00:00 PM 7.97 46.346 0.669 8.03 4.22 13.05
12/22/2021 12:15:00 PM 8.05 46.49 0.669 8.04 4.5 13.25
12/22/2021 12:30:00 PM 8.15 46.67 0.668 8.07 2.11 13.53
12/22/2021 12:45:00 PM 8.24 46.832 0.668 8.09 2.01 13.75
12/22/2021 1:00:00 PM 8.34 47.012 0.667 8.1 2.04 13.98
12/22/2021 1:15:00 PM 8.41 47.138 0.667 8.12 2.18 14.13
12/22/2021 1:30:00 PM 8.47 47.246 0.666 8.14 1.73 14.26
12/22/2021 1:45:00 PM 8.49 47.282 0.666 8.15 1.72 14.33
12/22/2021 2:00:00 PM 8.48 47.264 0.666 8.16 1.68 14.37
12/22/2021 2:15:00 PM 8.44 47.192 0.666 8.16 1.61 14.35
12/22/2021 2:30:00 PM 8.37 47.066 0.667 8.16 1.84 14.22
12/22/2021 2:45:00 PM 8.29 46.922 0.667 8.16 1.76 14.09
12/22/2021 3:00:00 PM 8.25 46.85 0.668 8.15 1.67 14.01
12/22/2021 3:15:00 PM 8.2 46.76 0.668 8.14 1.64 13.95
12/22/2021 3:30:00 PM 8.15 46.67 0.669 8.14 1.95 13.84
12/22/2021 3:45:00 PM 8.09 46.562 0.67 8.13 1.54 13.74
12/22/2021 4:00:00 PM 8.05 46.49 0.67 8.13 1.72 13.65
12/22/2021 4:15:00 PM 8.01 46.418 0.671 8.12 1.81 13.5
12/22/2021 4:30:00 PM 7.97 46.346 0.672 8.1 1.64 13.34
12/22/2021 4:45:00 PM 7.92 46.256 0.672 8.09 1.65 13.14
12/22/2021 5:00:00 PM 7.88 46.184 0.673 8.08 1.78 12.92
12/22/2021 5:15:00 PM 7.85 46.13 0.673 8.07 1.8 12.69
12/22/2021 5:30:00 PM 7.81 46.058 0.674 8.05 1.76 12.51
12/22/2021 5:45:00 PM 7.79 46.022 0.674 8.04 1.97 12.34
12/22/2021 6:00:00 PM 7.77 45.986 0.673 8.03 1.91 12.18
12/22/2021 6:15:00 PM 7.75 45.95 0.672 8.02 1.93 12.05
12/22/2021 6:30:00 PM 7.73 45.914 0.671 8.01 1.82 11.99
12/22/2021 6:45:00 PM 7.71 45.878 0.67 8.01 2.78 11.98
12/22/2021 7:00:00 PM 7.67 45.806 0.669 8.01 1.92 12.01
12/22/2021 7:15:00 PM 7.64 45.752 0.669 8 1.92 12
12/22/2021 7:30:00 PM 7.6 45.68 0.669 8 1.69 11.98
12/22/2021 7:45:00 PM 7.57 45.626 0.669 8 1.9 11.98
12/22/2021 8:00:00 PM 7.54 45.572 0.669 7.99 1.88 11.92
12/22/2021 8:15:00 PM 7.52 45.536 0.669 7.99 2.19 11.89
12/22/2021 8:30:00 PM 7.49 45.482 0.669 7.99 2.15 11.85
12/22/2021 8:45:00 PM 7.46 45.428 0.669 7.98 2.16 11.82
12/22/2021 9:00:00 PM 7.42 45.356 0.669 7.98 2.12 11.76
12/22/2021 9:15:00 PM 7.37 45.266 0.669 7.98 2.11 11.75
12/22/2021 9:30:00 PM 7.32 45.176 0.669 7.97 2.31 11.7
12/22/2021 9:45:00 PM 7.28 45.104 0.669 7.97 2.4 11.68
12/22/2021 10:00:00 PM 7.23 45.014 0.669 7.96 2.19 11.64
12/22/2021 10:15:00 PM 7.2 44.96 0.669 7.96 2.37 11.61
12/22/2021 10:30:00 PM 7.18 44.924 0.669 7.96 1.95 11.58
12/22/2021 10:45:00 PM 7.16 44.888 0.669 7.95 2.32 11.56
12/22/2021 11:00:00 PM 7.14 44.852 0.669 7.95 1.92 11.54
12/22/2021 11:15:00 PM 7.11 44.798 0.669 7.95 2.12 11.49
12/22/2021 11:30:00 PM 7.07 44.726 0.669 7.94 2.15 11.49
12/22/2021 11:45:00 PM 7.04 44.672 0.669 7.94 2.35 11.46
12/23/2021 12:00:00 AM 7.01 44.618 0.669 7.94 2.88 11.42
12/23/2021 12:15:00 AM 6.99 44.582 0.669 7.93 2.5 11.41
12/23/2021 12:30:00 AM 6.97 44.546 0.669 7.93 2.66 11.38
12/23/2021 12:45:00 AM 6.95 44.51 0.669 7.93 2.27 11.35
12/23/2021 1:00:00 AM 6.92 44.456 0.669 7.92 2.16 11.35
12/23/2021 1:15:00 AM 6.9 44.42 0.668 7.92 2.48 11.32
12/23/2021 1:30:00 AM 6.88 44.384 0.669 7.92 2.17 11.31
12/23/2021 1:45:00 AM 6.86 44.348 0.669 7.91 2.49 11.29
12/23/2021 2:00:00 AM 6.84 44.312 0.669 7.91 2.48 11.27
12/23/2021 2:15:00 AM 6.81 44.258 0.669 7.91 2.19 11.26
12/23/2021 2:30:00 AM 6.8 44.24 0.669 7.9 2.31 11.24
12/23/2021 2:45:00 AM 6.78 44.204 0.67 7.9 2.33 11.25
12/23/2021 3:00:00 AM 6.77 44.186 0.67 7.89 2.49 11.24
12/23/2021 3:15:00 AM 6.76 44.168 0.67 7.89 2.31 11.23
12/23/2021 3:30:00 AM 6.76 44.168 0.67 7.89 2.42 11.23
12/23/2021 3:45:00 AM 6.75 44.15 0.67 7.88 6.48 11.23
12/23/2021 4:00:00 AM 6.74 44.132 0.67 7.88 4.2 11.22
12/23/2021 4:15:00 AM 6.73 44.114 0.67 7.88 3.27 11.21
12/23/2021 4:30:00 AM 6.7 44.06 0.67 7.88 3.14 11.22
12/23/2021 4:45:00 AM 6.68 44.024 0.67 7.88 2.47 11.22
12/23/2021 5:00:00 AM 6.66 43.988 0.67 7.88 2.28 11.22
12/23/2021 5:15:00 AM 6.63 43.934 0.67 7.87 2.15 11.22
12/23/2021 5:30:00 AM 6.61 43.898 0.67 7.87 3.04 11.21
12/23/2021 5:45:00 AM 6.59 43.862 0.67 7.87 2.33 11.23
12/23/2021 6:00:00 AM 6.57 43.826 0.67 7.87 2.22 11.22
12/23/2021 6:15:00 AM 6.54 43.772 0.67 7.88 2.36 11.24
12/23/2021 6:30:00 AM 6.52 43.736 0.671 7.87 1.85 11.24
12/23/2021 6:45:00 AM 6.5 43.7 0.671 7.87 2.08 11.24
12/23/2021 7:00:00 AM 6.47 43.646 0.671 7.87 2.18 11.25
12/23/2021 7:15:00 AM 6.44 43.592 0.671 7.87 1.89 11.26
12/23/2021 7:30:00 AM 6.41 43.538 0.671 7.87 2.05 11.28
12/23/2021 7:45:00 AM 6.38 43.484 0.671 7.87 1.93 11.3
12/23/2021 8:00:00 AM 6.35 43.43 0.671 7.87 2.21 11.35
12/23/2021 8:15:00 AM 6.3 43.34 0.672 7.87 2.16 11.4
12/23/2021 8:30:00 AM 6.26 43.268 0.673 7.88 3.08 11.43
12/23/2021 8:45:00 AM 6.2 43.16 0.674 7.88 2.07 11.51
12/23/2021 9:00:00 AM 6.15 43.07 0.675 7.88 2.28 11.61
12/23/2021 9:15:00 AM 6.13 43.034 0.676 7.89 2.85 11.76
12/23/2021 9:30:00 AM 6.14 43.052 0.676 7.9 2.69 11.89
12/23/2021 9:45:00 AM 6.14 43.052 0.676 7.92 2.4 12.12
12/23/2021 10:00:00 AM 6.15 43.07 0.676 7.94 2.32 12.31
12/23/2021 10:15:00 AM 6.17 43.106 0.675 7.95 2.38 12.51
12/23/2021 10:30:00 AM 6.21 43.178 0.675 7.97 2.5 12.77
12/23/2021 10:45:00 AM 6.24 43.232 0.674 7.98 34.22 13
12/23/2021 11:00:00 AM 6.3 43.34 0.674 8 2.23 13.21
12/23/2021 11:15:00 AM 6.37 43.466 0.673 8.02 2.3 13.51
12/23/2021 11:30:00 AM 6.46 43.628 0.672 8.03 2.33 13.82
12/23/2021 11:45:00 AM 6.55 43.79 0.671 8.06 2.07 14.1
12/23/2021 12:00:00 PM 6.62 43.916 0.671 8.08 2.31 14.35
12/23/2021 12:15:00 PM 6.68 44.024 0.67 8.09 2.19 14.55
12/23/2021 12:30:00 PM 6.73 44.114 0.67 8.11 2.13 14.7
12/23/2021 12:45:00 PM 6.76 44.168 0.669 8.13 2.23 14.86
12/23/2021 1:00:00 PM 6.78 44.204 0.669 8.14 1.99 14.96
12/23/2021 1:15:00 PM 6.78 44.204 0.669 8.15 1.71 15.01
12/23/2021 1:30:00 PM 6.8 44.24 0.669 8.15 1.95 15.05
12/23/2021 1:45:00 PM 6.82 44.276 0.668 8.16 1.93 15.09
12/23/2021 2:00:00 PM 6.82 44.276 0.668 8.16 5.08 15.08
12/23/2021 2:15:00 PM 6.81 44.258 0.668 8.17 2.11 15.09
12/23/2021 2:30:00 PM 6.84 44.312 0.668 8.17 4.21 15.08
12/23/2021 2:45:00 PM 6.87 44.366 0.668 8.17 4.29 15.13
12/23/2021 3:00:00 PM 6.89 44.402 0.668 8.17 3.96 15.14
12/23/2021 3:15:00 PM 6.89 44.402 0.668 8.17 4.53 15.07
12/23/2021 3:30:00 PM 6.89 44.402 0.668 8.17 5.07 15
12/23/2021 3:45:00 PM 6.89 44.402 0.668 8.16 4.3 14.84
12/23/2021 4:00:00 PM 6.88 44.384 0.669 8.15 4.16 14.71
12/23/2021 4:15:00 PM 6.86 44.348 0.67 8.14 3.39 14.51
12/23/2021 4:30:00 PM 6.87 44.366 0.669 8.14 3.9 14.28
12/23/2021 4:45:00 PM 6.87 44.366 0.669 8.13 4.19 14.02
12/23/2021 5:00:00 PM 6.83 44.294 0.674 8.12 4.23 13.77
12/23/2021 5:15:00 PM 6.78 44.204 0.681 8.11 3.46 13.54
12/23/2021 5:30:00 PM 6.73 44.114 0.688 8.09 3.65 13.3
12/23/2021 5:45:00 PM 6.71 44.078 0.691 8.08 3.93 13.13
12/23/2021 6:00:00 PM 6.72 44.096 0.689 8.07 4.45 13.03
12/23/2021 6:15:00 PM 6.76 44.168 0.684 8.06 4.58 12.95
12/23/2021 6:30:00 PM 6.8 44.24 0.678 8.04 4.09 12.92
12/23/2021 6:45:00 PM 6.83 44.294 0.674 8.04 4.13 12.85
12/23/2021 7:00:00 PM 6.85 44.33 0.672 8.03 3.99 12.8
12/23/2021 7:15:00 PM 6.86 44.348 0.67 8.02 4.07 12.73
12/23/2021 7:30:00 PM 6.88 44.384 0.669 8.02 4.4 12.66
12/23/2021 7:45:00 PM 6.88 44.384 0.669 8.01 4.73 12.59
12/23/2021 8:00:00 PM 6.9 44.42 0.668 8.01 4.19 12.56
12/23/2021 8:15:00 PM 6.9 44.42 0.668 8 4.6 12.48
12/23/2021 8:30:00 PM 6.9 44.42 0.668 8 5.2 12.45
12/23/2021 8:45:00 PM 6.9 44.42 0.668 8 4.51 12.38
12/23/2021 9:00:00 PM 6.89 44.402 0.668 8 4.23 12.33
12/23/2021 9:15:00 PM 6.88 44.384 0.668 7.99 4.41 12.26
12/23/2021 9:30:00 PM 6.87 44.366 0.668 7.99 4.71 12.2
12/23/2021 9:45:00 PM 6.85 44.33 0.668 7.99 4.11 12.13
12/23/2021 10:00:00 PM 6.83 44.294 0.669 7.98 4.29 12.08
12/23/2021 10:15:00 PM 6.8 44.24 0.67 7.96 4.08 12
12/23/2021 10:30:00 PM 6.79 44.222 0.67 7.95 4.98 11.95
12/23/2021 10:45:00 PM 6.79 44.222 0.671 7.95 4.57 11.88
12/23/2021 11:00:00 PM 6.79 44.222 0.671 7.95 4.11 11.85
12/23/2021 11:15:00 PM 6.8 44.24 0.671 7.95 4.7 11.8
12/23/2021 11:30:00 PM 6.82 44.276 0.67 7.95 5.21 11.76
12/23/2021 11:45:00 PM 6.86 44.348 0.669 7.95 4.75 11.75
12/24/2021 12:00:00 AM 6.89 44.402 0.669 7.95 5.05 11.72
12/24/2021 12:15:00 AM 6.92 44.456 0.668 7.94 4.73 11.7
12/24/2021 12:30:00 AM 6.94 44.492 0.668 7.94 4.59 11.69
12/24/2021 12:45:00 AM 6.95 44.51 0.668 7.94 4.69 11.65
12/24/2021 1:00:00 AM 6.96 44.528 0.668 7.93 4.76 11.62
12/24/2021 1:15:00 AM 6.97 44.546 0.667 7.93 5.58 11.59
12/24/2021 1:30:00 AM 6.98 44.564 0.667 7.92 5.42 11.55
12/24/2021 1:45:00 AM 6.99 44.582 0.668 7.92 4.99 11.52
12/24/2021 2:00:00 AM 7 44.6 0.668 7.92 4.69 11.5
12/24/2021 2:15:00 AM 7 44.6 0.668 7.92 4.53 11.46
12/24/2021 2:30:00 AM 7.01 44.618 0.668 7.91 4.49 11.43
12/24/2021 2:45:00 AM 7.02 44.636 0.668 7.91 4.65 11.43
12/24/2021 3:00:00 AM 7.02 44.636 0.668 7.91 5.02 11.39
12/24/2021 3:15:00 AM 7.03 44.654 0.668 7.9 4.96 11.35
12/24/2021 3:30:00 AM 7.03 44.654 0.668 7.9 5.31 11.35
12/24/2021 3:45:00 AM 7.04 44.672 0.669 7.89 4.85 11.31
12/24/2021 4:00:00 AM 7.05 44.69 0.669 7.89 5.7 11.29
12/24/2021 4:15:00 AM 7.05 44.69 0.669 7.89 5.29 11.29
12/24/2021 4:30:00 AM 7.06 44.708 0.669 7.89 4.91 11.28
12/24/2021 4:45:00 AM 7.06 44.708 0.669 7.88 4.95 11.27
12/24/2021 5:00:00 AM 7.07 44.726 0.669 7.88 4.91 11.25
12/24/2021 5:15:00 AM 7.07 44.726 0.669 7.88 5.74 11.22
12/24/2021 5:30:00 AM 7.08 44.744 0.669 7.88 4.91 11.21
12/24/2021 5:45:00 AM 7.08 44.744 0.669 7.87 5.04 11.2
12/24/2021 6:00:00 AM 7.09 44.762 0.669 7.87 4.4 11.19
12/24/2021 6:15:00 AM 7.08 44.744 0.669 7.87 4.89 11.16
12/24/2021 6:30:00 AM 7.06 44.708 0.669 7.87 4.85 11.17
12/24/2021 6:45:00 AM 7.04 44.672 0.669 7.87 5.18 11.16
12/24/2021 7:00:00 AM 7.02 44.636 0.669 7.87 5.15 11.13
12/24/2021 7:15:00 AM 6.99 44.582 0.669 7.87 4.94 11.13
12/24/2021 7:30:00 AM 6.97 44.546 0.669 7.87 4.99 11.14
12/24/2021 7:45:00 AM 6.95 44.51 0.669 7.86 6.09 11.16
12/24/2021 8:00:00 AM 6.93 44.474 0.669 7.87 5.28 11.21
12/24/2021 8:15:00 AM 6.92 44.456 0.669 7.87 5.15 11.29
12/24/2021 8:30:00 AM 6.9 44.42 0.669 7.88 5.72 11.4
12/24/2021 8:45:00 AM 6.9 44.42 0.669 7.88 5.6 11.54
12/24/2021 9:00:00 AM 6.9 44.42 0.669 7.89 5.13 11.67
12/24/2021 9:15:00 AM 6.92 44.456 0.668 7.9 5.75 11.88
12/24/2021 9:30:00 AM 6.94 44.492 0.668 7.91 4.86 12.1
12/24/2021 9:45:00 AM 6.98 44.564 0.668 7.93 4.85 12.36
12/24/2021 10:00:00 AM 7.02 44.636 0.667 7.95 4.97 12.59
12/24/2021 10:15:00 AM 7.08 44.744 0.667 7.97 4.77 12.88
12/24/2021 10:30:00 AM 7.14 44.852 0.666 7.98 4.68 13.16
12/24/2021 10:45:00 AM 7.21 44.978 0.666 8.01 4.96 13.39
12/24/2021 11:00:00 AM 7.29 45.122 0.665 8.02 4.83 13.62
12/24/2021 11:15:00 AM 7.37 45.266 0.664 8.04 5.64 13.84
12/24/2021 11:30:00 AM 7.46 45.428 0.664 8.06 5.72 14.04
12/24/2021 11:45:00 AM 7.55 45.59 0.663 8.07 5.91 14.21
12/24/2021 12:00:00 PM 7.64 45.752 0.662 8.09 6.31 14.38
12/24/2021 12:15:00 PM 7.71 45.878 0.662 8.11 6.83 14.52
12/24/2021 12:30:00 PM 7.8 46.04 0.661 8.12 7.4 14.63
12/24/2021 12:45:00 PM 7.87 46.166 0.661 8.13 7.82 14.72
12/24/2021 1:00:00 PM 7.93 46.274 0.661 8.14 8.69 14.85
12/24/2021 1:15:00 PM 7.98 46.364 0.661 8.15 9.59 14.9
12/24/2021 1:30:00 PM 8.02 46.436 0.661 8.15 7.65 14.98
12/24/2021 1:45:00 PM 8.05 46.49 0.66 8.16 8.48 15.03
12/24/2021 2:00:00 PM 8.08 46.544 0.66 8.16 5.35 15.04
12/24/2021 2:15:00 PM 8.1 46.58 0.66 8.17 6.42 15.08
12/24/2021 2:30:00 PM 8.1 46.58 0.661 8.17 8.79 15.06
12/24/2021 2:45:00 PM 8.1 46.58 0.661 8.17 14.4 15
12/24/2021 3:00:00 PM 8.1 46.58 0.661 8.17 17.41 14.9
12/24/2021 3:15:00 PM 8.1 46.58 0.661 8.17 15.74 14.83
12/24/2021 3:30:00 PM 8.1 46.58 0.661 8.16 18.54 14.69
12/24/2021 3:45:00 PM 8.09 46.562 0.661 8.15 20.78 14.57
12/24/2021 4:00:00 PM 8.08 46.544 0.662 8.14 20.93 14.38
12/24/2021 4:15:00 PM 8.07 46.526 0.662 8.13 23.61 14.16
12/24/2021 4:30:00 PM 8.06 46.508 0.663 8.12 24.89 13.96
12/24/2021 4:45:00 PM 8.05 46.49 0.663 8.1 26.49 13.7
12/24/2021 5:00:00 PM 8.06 46.508 0.663 8.09 28.54 13.47
12/24/2021 5:15:00 PM 8.06 46.508 0.664 8.07 28.43 13.26
12/24/2021 5:30:00 PM 8.06 46.508 0.664 8.06 5.07 13.07
12/24/2021 5:45:00 PM 8.07 46.526 0.664 8.05 5.31 12.9
12/24/2021 6:00:00 PM 8.07 46.526 0.664 8.03 5.03 12.73
12/24/2021 6:15:00 PM 8.07 46.526 0.664 8.02 5.23 12.61
12/24/2021 6:30:00 PM 8.07 46.526 0.664 8.01 5.28 12.48
12/24/2021 6:45:00 PM 8.08 46.544 0.664 8.01 5.15 12.38
12/24/2021 7:00:00 PM 8.08 46.544 0.664 8 5.47 12.26
12/24/2021 7:15:00 PM 8.08 46.544 0.665 7.99 5.88 12.2
12/24/2021 7:30:00 PM 8.07 46.526 0.664 7.99 5.43 12.14
12/24/2021 7:45:00 PM 8.07 46.526 0.664 7.98 5.34 12.06
12/24/2021 8:00:00 PM 8.06 46.508 0.664 7.98 5.25 12
12/24/2021 8:15:00 PM 8.05 46.49 0.664 7.97 5.72 11.95
12/24/2021 8:30:00 PM 8.03 46.454 0.664 7.97 12.7 11.91
12/24/2021 8:45:00 PM 8.03 46.454 0.664 7.97 6.88 11.85
12/24/2021 9:00:00 PM 8.02 46.436 0.664 7.97 5.51 11.79
12/24/2021 9:15:00 PM 8.02 46.436 0.664 7.96 5.47 11.72
12/24/2021 9:30:00 PM 8.02 46.436 0.664 7.96 5.17 11.7
12/24/2021 9:45:00 PM 8.02 46.436 0.664 7.96 5.39 11.64
12/24/2021 10:00:00 PM 8.02 46.436 0.664 7.96 5.56 11.6
12/24/2021 10:15:00 PM 8.03 46.454 0.664 7.95 5.25 11.55
12/24/2021 10:30:00 PM 8.04 46.472 0.664 7.94 5.21 11.51
12/24/2021 10:45:00 PM 8.05 46.49 0.664 7.94 5.64 11.47
12/24/2021 11:00:00 PM 8.06 46.508 0.664 7.94 5.92 11.43
12/24/2021 11:15:00 PM 8.07 46.526 0.665 7.93 5.88 11.4
12/24/2021 11:30:00 PM 8.08 46.544 0.665 7.93 5.76 11.34
12/24/2021 11:45:00 PM 8.1 46.58 0.665 7.93 6.07 11.3
12/25/2021 12:00:00 AM 8.11 46.598 0.665 7.92 5.79 11.26
12/25/2021 12:15:00 AM 8.12 46.616 0.665 7.92 5.94 11.21
12/25/2021 12:30:00 AM 8.13 46.634 0.665 7.92 6.35 11.17
12/25/2021 12:45:00 AM 8.13 46.634 0.665 7.91 5.81 11.11
12/25/2021 1:00:00 AM 8.13 46.634 0.665 7.91 6.06 11.08
12/25/2021 1:15:00 AM 8.14 46.652 0.666 7.91 5.38 11.02
12/25/2021 1:30:00 AM 8.15 46.67 0.666 7.9 5.5 10.98
12/25/2021 1:45:00 AM 8.15 46.67 0.666 7.9 5.68 10.97
12/25/2021 2:00:00 AM 8.16 46.688 0.666 7.9 5.58 10.94
12/25/2021 2:15:00 AM 8.17 46.706 0.666 7.89 5.71 10.92
12/25/2021 2:30:00 AM 8.18 46.724 0.666 7.89 5.55 10.89
12/25/2021 2:45:00 AM 8.19 46.742 0.666 7.88 5.57 10.86
12/25/2021 3:00:00 AM 8.2 46.76 0.667 7.88 5.26 10.85
12/25/2021 3:15:00 AM 8.2 46.76 0.667 7.88 6.4 10.8
12/25/2021 3:30:00 AM 8.21 46.778 0.667 7.88 5.74 10.78
12/25/2021 3:45:00 AM 8.22 46.796 0.667 7.88 5.88 10.75
12/25/2021 4:00:00 AM 8.23 46.814 0.668 7.88 5.71 10.74
12/25/2021 4:15:00 AM 8.24 46.832 0.668 7.88 5.83 10.72
12/25/2021 4:30:00 AM 8.25 46.85 0.668 7.88 5.64 10.71
12/25/2021 4:45:00 AM 8.26 46.868 0.669 7.87 5.99 10.66
12/25/2021 5:00:00 AM 8.26 46.868 0.669 7.87 6.2 10.65
12/25/2021 5:15:00 AM 8.27 46.886 0.669 7.86 6.16 10.64
12/25/2021 5:30:00 AM 8.28 46.904 0.67 7.86 6.52 10.63
12/25/2021 5:45:00 AM 8.29 46.922 0.67 7.86 5.83 10.6
12/25/2021 6:00:00 AM 8.3 46.94 0.67 7.86 5.47 10.58
12/25/2021 6:15:00 AM 8.3 46.94 0.67 7.86 5.74 10.56
12/25/2021 6:30:00 AM 8.3 46.94 0.67 7.86 5.74 10.57
12/25/2021 6:45:00 AM 8.31 46.958 0.67 7.86 6.36 10.55
12/25/2021 7:00:00 AM 8.31 46.958 0.67 7.86 6 10.55
12/25/2021 7:15:00 AM 8.31 46.958 0.67 7.85 8.42 10.54
12/25/2021 7:30:00 AM 8.32 46.976 0.671 7.85 6.24 10.53
12/25/2021 7:45:00 AM 8.33 46.994 0.671 7.85 5.99 10.52
12/25/2021 8:00:00 AM 8.34 47.012 0.671 7.85 6.27 10.53
12/25/2021 8:15:00 AM 8.34 47.012 0.671 7.85 6.08 10.55
12/25/2021 8:30:00 AM 8.35 47.03 0.671 7.85 5.99 10.55
12/25/2021 8:45:00 AM 8.35 47.03 0.67 7.85 7.78 10.58
12/25/2021 9:00:00 AM 8.37 47.066 0.67 7.86 7.15 10.65
12/25/2021 9:15:00 AM 8.38 47.084 0.67 7.86 6.64 10.74
12/25/2021 9:30:00 AM 8.4 47.12 0.67 7.87 5.79 10.89
12/25/2021 9:45:00 AM 8.43 47.174 0.67 7.88 5.43 11.08
12/25/2021 10:00:00 AM 8.47 47.246 0.67 7.9 5.53 11.33
12/25/2021 10:15:00 AM 8.5 47.3 0.669 7.91 5.61 11.55
12/25/2021 10:30:00 AM 8.52 47.336 0.669 7.93 1555 11.7
12/25/2021 10:45:00 AM 8.55 47.39 0.669 7.93 19.07 11.85
12/25/2021 11:00:00 AM 8.59 47.462 0.669 7.95 8.27 12.08
12/25/2021 11:15:00 AM 8.63 47.534 0.669 7.96 5.88 12.29
12/25/2021 11:30:00 AM 8.67 47.606 0.668 7.98 3479 12.45
12/25/2021 11:45:00 AM 8.7 47.66 0.668 7.99 8.63 12.6
12/25/2021 12:00:00 PM 8.73 47.714 0.668 8 11.17 12.73
12/25/2021 12:15:00 PM 8.77 47.786 0.667 8.03 3437 12.94
12/25/2021 12:30:00 PM 8.82 47.876 0.666 8.04 3.22 13.11
12/25/2021 12:45:00 PM 8.88 47.984 0.666 8.06 1.88 13.37
12/25/2021 1:00:00 PM 8.94 48.092 0.666 8.07 1.63 13.57
12/25/2021 1:15:00 PM 8.98 48.164 0.666 8.08 1.48 13.67
12/25/2021 1:30:00 PM 9.04 48.272 0.667 8.1 1.13 13.76
12/25/2021 1:45:00 PM 9.11 48.398 0.667 8.1 1.15 13.85
12/25/2021 2:00:00 PM 9.16 48.488 0.667 8.11 1.02 13.9
12/25/2021 2:15:00 PM 9.21 48.578 0.667 8.12 1.18 13.88
12/25/2021 2:30:00 PM 9.26 48.668 0.666 8.12 1.31 13.93
12/25/2021 2:45:00 PM 9.3 48.74 0.666 8.13 1.3 13.96
12/25/2021 3:00:00 PM 9.34 48.812 0.666 8.13 1.13 13.92
12/25/2021 3:15:00 PM 9.36 48.848 0.666 8.13 0.92 13.81
12/25/2021 3:30:00 PM 9.35 48.83 0.666 8.12 0.88 13.59
12/25/2021 3:45:00 PM 9.34 48.812 0.666 8.11 1.05 13.29
12/25/2021 4:00:00 PM 9.33 48.794 0.667 8.09 1.15 13.05
12/25/2021 4:15:00 PM 9.33 48.794 0.667 8.08 1.17 12.77
12/25/2021 4:30:00 PM 9.32 48.776 0.667 8.06 1.37 12.5
12/25/2021 4:45:00 PM 9.32 48.776 0.667 8.04 1.27 12.27
12/25/2021 5:00:00 PM 9.32 48.776 0.667 8.03 1.33 12.08
12/25/2021 5:15:00 PM 9.33 48.794 0.667 8.01 0.87 11.88
12/25/2021 5:30:00 PM 9.34 48.812 0.667 8 1.03 11.71
12/25/2021 5:45:00 PM 9.35 48.83 0.667 7.99 1.57 11.58
12/25/2021 6:00:00 PM 9.36 48.848 0.666 7.98 1.21 11.43
12/25/2021 6:15:00 PM 9.37 48.866 0.667 7.97 1.38 11.31
12/25/2021 6:30:00 PM 9.37 48.866 0.666 7.96 1.52 11.21
12/25/2021 6:45:00 PM 9.38 48.884 0.666 7.96 1.45 11.12
12/25/2021 7:00:00 PM 9.38 48.884 0.666 7.95 1.2 11.07
12/25/2021 7:15:00 PM 9.38 48.884 0.666 7.95 1.16 10.97
12/25/2021 7:30:00 PM 9.38 48.884 0.666 7.94 1.37 10.93
12/25/2021 7:45:00 PM 9.38 48.884 0.666 7.94 2.13 10.86
12/25/2021 8:00:00 PM 9.37 48.866 0.666 7.93 1.82 10.79
12/25/2021 8:15:00 PM 9.37 48.866 0.666 7.93 1.31 10.76
12/25/2021 8:30:00 PM 9.37 48.866 0.666 7.93 1.94 10.71
12/25/2021 8:45:00 PM 9.36 48.848 0.666 7.93 1.59 10.65
12/25/2021 9:00:00 PM 9.35 48.83 0.666 7.92 2.8 10.6
12/25/2021 9:15:00 PM 9.33 48.794 0.666 7.92 1.36 10.56
12/25/2021 9:30:00 PM 9.31 48.758 0.666 7.91 1.23 10.53
12/25/2021 9:45:00 PM 9.29 48.722 0.666 7.91 1.46 10.48
12/25/2021 10:00:00 PM 9.29 48.722 0.666 7.9 1.37 10.47
12/25/2021 10:15:00 PM 9.29 48.722 0.666 7.9 1.18 10.43
12/25/2021 10:30:00 PM 9.29 48.722 0.666 7.9 1.72 10.39
12/25/2021 10:45:00 PM 9.28 48.704 0.666 7.9 1.86 10.36
12/25/2021 11:00:00 PM 9.27 48.686 0.666 7.89 1.95 10.33
12/25/2021 11:15:00 PM 9.26 48.668 0.666 7.89 1.84 10.29
12/25/2021 11:30:00 PM 9.25 48.65 0.666 7.89 1.68 10.26
12/25/2021 11:45:00 PM 9.23 48.614 0.666 7.89 1.79 10.21
12/26/2021 12:00:00 AM 9.21 48.578 0.666 7.88 1.95 10.19
12/26/2021 12:15:00 AM 9.19 48.542 0.666 7.88 1.88 10.14
12/26/2021 12:30:00 AM 9.17 48.506 0.667 7.88 1.64 10.11
12/26/2021 12:45:00 AM 9.15 48.47 0.667 7.87 1.83 10.09
12/26/2021 1:00:00 AM 9.14 48.452 0.667 7.87 1.75 10.04
12/26/2021 1:15:00 AM 9.13 48.434 0.667 7.87 1.52 10.03
12/26/2021 1:30:00 AM 9.11 48.398 0.667 7.86 1.92 10.01
12/26/2021 1:45:00 AM 9.09 48.362 0.668 7.86 1.85 9.98
12/26/2021 2:00:00 AM 9.07 48.326 0.668 7.86 1.76 9.97
12/26/2021 2:15:00 AM 9.05 48.29 0.668 7.86 1.63 9.96
12/26/2021 2:30:00 AM 9.03 48.254 0.668 7.86 1.94 9.92
12/26/2021 2:45:00 AM 9.01 48.218 0.668 7.85 1.89 9.93
12/26/2021 3:00:00 AM 8.99 48.182 0.668 7.85 2.14 9.92
12/26/2021 3:15:00 AM 8.97 48.146 0.669 7.85 1.85 9.88
12/26/2021 3:30:00 AM 8.94 48.092 0.669 7.85 2.17 9.88
12/26/2021 3:45:00 AM 8.92 48.056 0.669 7.84 1.96 9.88
12/26/2021 4:00:00 AM 8.9 48.02 0.669 7.84 2.77 9.87
12/26/2021 4:15:00 AM 8.87 47.966 0.669 7.84 1.5 9.85
12/26/2021 4:30:00 AM 8.86 47.948 0.67 7.84 2.52 9.83
12/26/2021 4:45:00 AM 8.86 47.948 0.671 7.84 1.84 9.78
12/26/2021 5:00:00 AM 8.86 47.948 0.672 7.83 1.81 9.74
12/26/2021 5:15:00 AM 8.85 47.93 0.673 7.83 3.77 9.72
12/26/2021 5:30:00 AM 8.85 47.93 0.674 7.83 2.05 9.71
12/26/2021 5:45:00 AM 8.84 47.912 0.674 7.83 2 9.69
12/26/2021 6:00:00 AM 8.81 47.858 0.674 7.83 2.54 9.72
12/26/2021 6:15:00 AM 8.78 47.804 0.674 7.83 2.31 9.74
12/26/2021 6:30:00 AM 8.75 47.75 0.673 7.83 1.62 9.76
12/26/2021 6:45:00 AM 8.73 47.714 0.672 7.84 2.57 9.78
12/26/2021 7:00:00 AM 8.71 47.678 0.673 7.84 1.6 9.81
12/26/2021 7:15:00 AM 8.69 47.642 0.672 7.84 2.24 9.81
12/26/2021 7:30:00 AM 8.67 47.606 0.672 7.84 2.17 9.85
12/26/2021 7:45:00 AM 8.65 47.57 0.673 7.84 2.09 9.86
12/26/2021 8:00:00 AM 8.63 47.534 0.673 7.84 1.84 9.89
12/26/2021 8:15:00 AM 8.62 47.516 0.673 7.84 1.94 9.99
12/26/2021 8:30:00 AM 8.6 47.48 0.673 7.85 2.7 10.08
12/26/2021 8:45:00 AM 8.59 47.462 0.673 7.86 1.9 10.19
12/26/2021 9:00:00 AM 8.59 47.462 0.673 7.86 1.75 10.33
12/26/2021 9:15:00 AM 8.6 47.48 0.673 7.87 1.67 10.47
12/26/2021 9:30:00 AM 8.62 47.516 0.673 7.89 1.89 10.68
12/26/2021 9:45:00 AM 8.65 47.57 0.673 7.9 1.79 10.92
12/26/2021 10:00:00 AM 8.69 47.642 0.673 7.92 1.73 11.2
12/26/2021 10:15:00 AM 8.74 47.732 0.673 7.94 4.22 11.52
12/26/2021 10:30:00 AM 8.8 47.84 0.672 7.96 2.39 11.83
12/26/2021 10:45:00 AM 8.87 47.966 0.672 7.99 1.65 12.13
12/26/2021 11:00:00 AM 8.94 48.092 0.672 8 1.52 12.4
12/26/2021 11:15:00 AM 9.02 48.236 0.671 8.03 1.69 12.68
12/26/2021 11:30:00 AM 9.1 48.38 0.671 8.04 1.37 12.9
12/26/2021 11:45:00 AM 9.19 48.542 0.671 8.07 1.52 13.17
12/26/2021 12:00:00 PM 9.27 48.686 0.671 8.09 1.43 13.37
12/26/2021 12:15:00 PM 9.35 48.83 0.67 8.11 1.63 13.56
12/26/2021 12:30:00 PM 9.42 48.956 0.67 8.12 2.71 13.74
12/26/2021 12:45:00 PM 9.48 49.064 0.67 8.13 4.45 13.88
12/26/2021 1:00:00 PM 9.53 49.154 0.67 8.14 2.75 13.97
12/26/2021 1:15:00 PM 9.57 49.226 0.67 8.15 3.54 14.06
12/26/2021 1:30:00 PM 9.6 49.28 0.669 8.16 2.91 14.11
12/26/2021 1:45:00 PM 9.62 49.316 0.669 8.16 2.8 14.17
12/26/2021 2:00:00 PM 9.63 49.334 0.669 8.16 2.46 14.12
12/26/2021 2:15:00 PM 9.62 49.316 0.668 8.17 2.09 14.09
12/26/2021 2:30:00 PM 9.6 49.28 0.667 8.17 1.88 14.09
12/26/2021 2:45:00 PM 9.57 49.226 0.666 8.17 2.43 14.01
12/26/2021 3:00:00 PM 9.53 49.154 0.665 8.17 1.95 14
12/26/2021 3:15:00 PM 9.48 49.064 0.664 8.16 2.1 13.96
12/26/2021 3:30:00 PM 9.43 48.974 0.664 8.16 1.9 13.87
12/26/2021 3:45:00 PM 9.38 48.884 0.664 8.15 1.98 13.77
12/26/2021 4:00:00 PM 9.33 48.794 0.665 8.14 2.29 13.57
12/26/2021 4:15:00 PM 9.29 48.722 0.665 8.12 2.12 13.36
12/26/2021 4:30:00 PM 9.25 48.65 0.665 8.11 2.02 13.17
12/26/2021 4:45:00 PM 9.21 48.578 0.665 8.09 2.12 12.96
12/26/2021 5:00:00 PM 9.18 48.524 0.666 8.12 2.29 12.74
12/26/2021 5:15:00 PM 9.15 48.47 0.666 8.1 1.87 12.55
12/26/2021 5:30:00 PM 9.13 48.434 0.666 8.09 2.63 12.36
12/26/2021 5:45:00 PM 9.1 48.38 0.666 8.08 2.05 12.19
12/26/2021 6:00:00 PM 9.07 48.326 0.667 8.07 2.02 12.09
12/26/2021 6:15:00 PM 9.04 48.272 0.666 8.06 2.27 11.96
12/26/2021 6:30:00 PM 9.01 48.218 0.667 8.06 2.22 11.88
12/26/2021 6:45:00 PM 8.98 48.164 0.667 8.05 2.65 11.82
12/26/2021 7:00:00 PM 8.95 48.11 0.667 8.04 2.78 11.76
12/26/2021 7:15:00 PM 8.91 48.038 0.667 8.04 2.23 11.72
12/26/2021 7:30:00 PM 8.88 47.984 0.666 8.04 2.14 11.65
12/26/2021 7:45:00 PM 8.85 47.93 0.666 8.04 2.16 11.61
12/26/2021 8:00:00 PM 8.82 47.876 0.666 8.03 2.36 11.57
12/26/2021 8:15:00 PM 8.79 47.822 0.666 8.02 2.44 11.52
12/26/2021 8:30:00 PM 8.76 47.768 0.665 8.02 2.1 11.48
12/26/2021 8:45:00 PM 8.73 47.714 0.665 8.02 2.88 11.43
12/26/2021 9:00:00 PM 8.69 47.642 0.665 8.01 2 11.41
12/26/2021 9:15:00 PM 8.66 47.588 0.665 8.01 2.43 11.37
12/26/2021 9:30:00 PM 8.63 47.534 0.664 8.01 2.65 11.31
12/26/2021 9:45:00 PM 8.59 47.462 0.664 8 2.91 11.29
12/26/2021 10:00:00 PM 8.56 47.408 0.664 8 2.23 11.25
12/26/2021 10:15:00 PM 8.52 47.336 0.664 7.99 2.82 11.21
12/26/2021 10:30:00 PM 8.49 47.282 0.664 7.99 2.26 11.2
12/26/2021 10:45:00 PM 8.45 47.21 0.664 7.99 2.81 11.15
12/26/2021 11:00:00 PM 8.41 47.138 0.664 7.98 2.89 11.14
12/26/2021 11:15:00 PM 8.38 47.084 0.665 7.98 2.88 11.12
12/26/2021 11:30:00 PM 8.35 47.03 0.665 7.98 2.59 11.08
12/26/2021 11:45:00 PM 8.32 46.976 0.665 7.98 3.73 11.07
12/27/2021 12:00:00 AM 8.29 46.922 0.665 7.98 2.57 11.04
12/27/2021 12:15:00 AM 8.26 46.868 0.665 7.97 2.82 11.01
12/27/2021 12:30:00 AM 8.23 46.814 0.665 7.96 3.14 10.99
12/27/2021 12:45:00 AM 8.19 46.742 0.665 7.96 2.92 10.95
12/27/2021 1:00:00 AM 8.16 46.688 0.665 7.96 2.63 10.94
12/27/2021 1:15:00 AM 8.14 46.652 0.665 7.96 2.47 10.93
12/27/2021 1:30:00 AM 8.11 46.598 0.666 7.95 2.04 10.9
12/27/2021 1:45:00 AM 8.08 46.544 0.666 7.95 2.71 10.9
12/27/2021 2:00:00 AM 8.05 46.49 0.665 7.95 3.02 10.9
12/27/2021 2:15:00 AM 8.02 46.436 0.666 7.95 3.35 10.89
12/27/2021 2:30:00 AM 7.99 46.382 0.666 7.94 3.13 10.86
12/27/2021 2:45:00 AM 7.98 46.364 0.666 7.94 3.7 10.86
12/27/2021 3:00:00 AM 7.96 46.328 0.666 7.94 3.12 10.85
12/27/2021 3:15:00 AM 7.95 46.31 0.666 7.94 2.96 10.87
12/27/2021 3:30:00 AM 7.94 46.292 0.666 7.92 4.16 10.85
12/27/2021 3:45:00 AM 7.93 46.274 0.667 7.93 4.35 10.85
12/27/2021 4:00:00 AM 7.92 46.256 0.667 7.92 3.39 10.83
12/27/2021 4:15:00 AM 7.91 46.238 0.667 7.92 3 10.83
12/27/2021 4:30:00 AM 7.9 46.22 0.668 7.92 3.87 10.82
12/27/2021 4:45:00 AM 7.89 46.202 0.668 7.91 2.4 10.83
12/27/2021 5:00:00 AM 7.88 46.184 0.669 7.91 2.64 10.81
12/27/2021 5:15:00 AM 7.88 46.184 0.669 7.91 2.92 10.81
12/27/2021 5:30:00 AM 7.88 46.184 0.669 7.91 2.59 10.8
12/27/2021 5:45:00 AM 7.88 46.184 0.67 7.91 3.1 10.79
12/27/2021 6:00:00 AM 7.87 46.166 0.67 7.91 3.16 10.78
12/27/2021 6:15:00 AM 7.87 46.166 0.671 7.9 2.73 10.79
12/27/2021 6:30:00 AM 7.86 46.148 0.671 7.9 2.57 10.8
12/27/2021 6:45:00 AM 7.85 46.13 0.672 7.9 2.59 10.79
12/27/2021 7:00:00 AM 7.85 46.13 0.672 7.9 4.41 10.8
12/27/2021 7:15:00 AM 7.85 46.13 0.673 7.9 3.08 10.78
12/27/2021 7:30:00 AM 7.84 46.112 0.674 7.89 2.94 10.78
12/27/2021 7:45:00 AM 7.84 46.112 0.674 7.89 2.62 10.8
12/27/2021 8:00:00 AM 7.83 46.094 0.675 7.89 2.81 10.81
12/27/2021 8:15:00 AM 7.83 46.094 0.675 7.89 2.58 10.85
12/27/2021 8:30:00 AM 7.84 46.112 0.675 7.89 2.67 10.9
12/27/2021 8:45:00 AM 7.83 46.094 0.676 7.9 2.11 10.93
12/27/2021 9:00:00 AM 7.83 46.094 0.676 7.9 2.28 10.99
12/27/2021 9:15:00 AM 7.85 46.13 0.676 7.91 2.18 11.11
12/27/2021 9:30:00 AM 7.85 46.13 0.677 7.91 2.27 11.27
12/27/2021 9:45:00 AM 7.87 46.166 0.677 7.92 2.62 11.46
12/27/2021 10:00:00 AM 7.87 46.166 0.677 7.93 2.91 11.57
12/27/2021 10:15:00 AM 7.87 46.166 0.677 7.94 2.44 11.65
12/27/2021 10:30:00 AM 7.88 46.184 0.677 7.94 2.73 11.67
12/27/2021 10:45:00 AM 7.89 46.202 0.677 7.94 2.16 11.72
12/27/2021 11:00:00 AM 7.87 46.166 0.677 7.95 2.37 11.78
12/27/2021 11:15:00 AM 7.84 46.112 0.677 7.96 3.5 11.92
12/27/2021 11:30:00 AM 7.82 46.076 0.676 7.97 2.75 12.09
12/27/2021 11:45:00 AM 7.81 46.058 0.676 7.98 2.37 12.23
12/27/2021 12:00:00 PM 7.78 46.004 0.675 7.99 2.68 12.36
12/27/2021 12:15:00 PM 7.74 45.932 0.674 8 2.28 12.53
12/27/2021 12:30:00 PM 7.73 45.914 0.674 8.02 2.32 12.64
12/27/2021 12:45:00 PM 7.74 45.932 0.673 8.03 2.32 12.75
12/27/2021 1:00:00 PM 7.75 45.95 0.673 8.03 2.28 12.86
12/27/2021 1:15:00 PM 7.77 45.986 0.673 8.04 2.38 12.97
12/27/2021 1:30:00 PM 7.78 46.004 0.673 8.05 2.41 13.03
12/27/2021 1:45:00 PM 7.8 46.04 0.673 8.06 2.23 13.08
12/27/2021 2:00:00 PM 7.81 46.058 0.673 8.07 2.63 13.15
12/27/2021 2:15:00 PM 7.82 46.076 0.673 8.07 2.42 13.14
12/27/2021 2:30:00 PM 7.83 46.094 0.673 8.07 2.33 13.12
12/27/2021 2:45:00 PM 7.84 46.112 0.673 8.07 2.5 13.08
12/27/2021 3:00:00 PM 7.85 46.13 0.674 8.06 2.42 13.02
12/27/2021 3:15:00 PM 7.86 46.148 0.674 8.05 2.24 12.97
12/27/2021 3:30:00 PM 7.87 46.166 0.674 8.05 2.28 12.84
12/27/2021 3:45:00 PM 7.87 46.166 0.675 8.04 2.34 12.75
12/27/2021 4:00:00 PM 7.87 46.166 0.675 8.04 2.49 12.63
12/27/2021 4:15:00 PM 7.87 46.166 0.675 8.03 3.49 12.48
12/27/2021 4:30:00 PM 7.87 46.166 0.675 8.02 2.66 12.35
12/27/2021 4:45:00 PM 7.87 46.166 0.675 8.01 2.49 12.24
12/27/2021 5:00:00 PM 7.87 46.166 0.675 8 2.43 12.11
12/27/2021 5:15:00 PM 7.87 46.166 0.676 7.99 2.44 11.98
12/27/2021 5:30:00 PM 7.87 46.166 0.676 7.98 2.49 11.93
12/27/2021 5:45:00 PM 7.87 46.166 0.676 7.97 2.46 11.81
12/27/2021 6:00:00 PM 7.88 46.184 0.676 7.97 2.57 11.75
12/27/2021 6:15:00 PM 7.88 46.184 0.676 7.97 2.76 11.69
12/27/2021 6:30:00 PM 7.88 46.184 0.676 7.96 2.94 11.62
12/27/2021 6:45:00 PM 7.89 46.202 0.675 7.95 2.55 11.59
12/27/2021 7:00:00 PM 7.89 46.202 0.675 7.95 2.53 11.55
12/27/2021 7:15:00 PM 7.89 46.202 0.675 7.95 3.16 11.52
12/27/2021 7:30:00 PM 7.89 46.202 0.674 7.95 2.95 11.48
12/27/2021 7:45:00 PM 7.89 46.202 0.674 7.95 2.55 11.47
12/27/2021 8:00:00 PM 7.88 46.184 0.673 7.94 2.61 11.45
12/27/2021 8:15:00 PM 7.88 46.184 0.673 7.94 2.68 11.43
12/27/2021 8:30:00 PM 7.87 46.166 0.672 7.94 3.12 11.42
12/27/2021 8:45:00 PM 7.87 46.166 0.671 7.94 2.72 11.4
12/27/2021 9:00:00 PM 7.87 46.166 0.671 7.94 2.57 11.38
12/27/2021 9:15:00 PM 7.86 46.148 0.67 7.94 2.72 11.35
12/27/2021 9:30:00 PM 7.87 46.166 0.67 7.94 2.82 11.34
12/27/2021 9:45:00 PM 7.86 46.148 0.67 7.93 2.68 11.31
12/27/2021 10:00:00 PM 7.86 46.148 0.67 7.93 2.56 11.29
12/27/2021 10:15:00 PM 7.87 46.166 0.67 7.93 3.11 11.28
12/27/2021 10:30:00 PM 7.86 46.148 0.669 7.92 2.62 11.26
12/27/2021 10:45:00 PM 7.86 46.148 0.669 7.93 3.52 11.23
12/27/2021 11:00:00 PM 7.86 46.148 0.669 7.93 2.54 11.23
12/27/2021 11:15:00 PM 7.86 46.148 0.669 7.93 2.75 11.18
12/27/2021 11:30:00 PM 7.86 46.148 0.669 7.93 2.56 11.16
12/27/2021 11:45:00 PM 7.86 46.148 0.669 7.93 2.68 11.15
12/28/2021 12:00:00 AM 7.85 46.13 0.669 7.92 2.92 11.12
12/28/2021 12:15:00 AM 7.85 46.13 0.669 7.92 3.05 11.1
12/28/2021 12:30:00 AM 7.85 46.13 0.67 7.92 3.05 11.07
12/28/2021 12:45:00 AM 7.85 46.13 0.67 7.92 2.93 11.08
12/28/2021 1:00:00 AM 7.85 46.13 0.67 7.92 3.26 11.05
12/28/2021 1:15:00 AM 7.85 46.13 0.67 7.91 2.9 11.04
12/28/2021 1:30:00 AM 7.85 46.13 0.67 7.92 2.77 11.02
12/28/2021 1:45:00 AM 7.85 46.13 0.67 7.92 6.17 10.99
12/28/2021 2:00:00 AM 7.84 46.112 0.671 7.92 3.89 11.01
12/28/2021 2:15:00 AM 7.84 46.112 0.671 7.91 3.31 11
12/28/2021 2:30:00 AM 7.84 46.112 0.671 7.91 2.97 10.98
12/28/2021 2:45:00 AM 7.85 46.13 0.671 7.91 3.16 10.97
12/28/2021 3:00:00 AM 7.85 46.13 0.671 7.91 3.08 10.97
12/28/2021 3:15:00 AM 7.85 46.13 0.67 7.91 2.94 10.98
12/28/2021 3:30:00 AM 7.86 46.148 0.67 7.9 3.13 10.96
12/28/2021 3:45:00 AM 7.86 46.148 0.671 7.9 2.69 10.97
12/28/2021 4:00:00 AM 7.86 46.148 0.671 7.9 2.7 10.96
12/28/2021 4:15:00 AM 7.85 46.13 0.671 7.9 3.3 10.95
12/28/2021 4:30:00 AM 7.85 46.13 0.671 7.9 3.3 10.95
12/28/2021 4:45:00 AM 7.85 46.13 0.672 7.9 3.22 10.93
12/28/2021 5:00:00 AM 7.84 46.112 0.672 7.9 3.71 10.91
12/28/2021 5:15:00 AM 7.83 46.094 0.672 7.9 3.82 10.9
12/28/2021 5:30:00 AM 7.82 46.076 0.673 7.89 4.19 10.91
12/28/2021 5:45:00 AM 7.81 46.058 0.673 7.89 2.97 10.92
12/28/2021 6:00:00 AM 7.81 46.058 0.674 7.89 3.25 10.89
12/28/2021 6:15:00 AM 7.81 46.058 0.674 7.89 2.69 10.89
12/28/2021 6:30:00 AM 7.8 46.04 0.674 7.89 3.08 10.88
12/28/2021 6:45:00 AM 7.79 46.022 0.675 7.89 4.19 10.87
12/28/2021 7:00:00 AM 7.78 46.004 0.675 7.89 2.89 10.85
12/28/2021 7:15:00 AM 7.75 45.95 0.677 7.88 3.53 10.79
12/28/2021 7:30:00 AM 7.72 45.896 0.678 7.88 3.12 10.77
12/28/2021 7:45:00 AM 7.69 45.842 0.679 7.87 2.73 10.73
12/28/2021 8:00:00 AM 7.67 45.806 0.68 7.87 2.75 10.73
12/28/2021 8:15:00 AM 7.66 45.788 0.68 7.87 2.75 10.75
12/28/2021 8:30:00 AM 7.65 45.77 0.68 7.87 2.71 10.84
12/28/2021 8:45:00 AM 7.64 45.752 0.68 7.88 3.25 10.94
12/28/2021 9:00:00 AM 7.65 45.77 0.679 7.89 2.79 11.09
12/28/2021 9:15:00 AM 7.68 45.824 0.678 7.9 2.7 11.32
12/28/2021 9:30:00 AM 7.71 45.878 0.678 7.92 2.55 11.54
12/28/2021 9:45:00 AM 7.75 45.95 0.677 7.93 2.78 11.81
12/28/2021 10:00:00 AM 7.82 46.076 0.676 7.95 2.81 12.15
12/28/2021 10:15:00 AM 7.9 46.22 0.676 7.98 2.84 12.47
12/28/2021 10:30:00 AM 7.97 46.346 0.675 8 2.73 12.75
12/28/2021 10:45:00 AM 8.04 46.472 0.675 8.02 2.88 12.97
12/28/2021 11:00:00 AM 8.09 46.562 0.674 8.03 2.59 13.15
12/28/2021 11:15:00 AM 8.13 46.634 0.674 8.05 2.77 13.23
12/28/2021 11:30:00 AM 8.15 46.67 0.674 8.06 2.57 13.27
12/28/2021 11:45:00 AM 8.17 46.706 0.674 8.07 2.6 13.31
12/28/2021 12:00:00 PM 8.19 46.742 0.674 8.07 2.98 13.3
12/28/2021 12:15:00 PM 8.21 46.778 0.674 8.07 2.77 13.31
12/28/2021 12:30:00 PM 8.23 46.814 0.673 8.07 3.08 13.33
12/28/2021 12:45:00 PM 8.26 46.868 0.673 8.08 3.38 13.32
12/28/2021 1:00:00 PM 8.29 46.922 0.673 8.08 3.01 13.37
12/28/2021 1:15:00 PM 8.31 46.958 0.672 8.08 2.96 13.44
12/28/2021 1:30:00 PM 8.34 47.012 0.672 8.09 3.14 13.52
12/28/2021 1:45:00 PM 8.37 47.066 0.672 8.1 3.51 13.55
12/28/2021 2:00:00 PM 8.4 47.12 0.671 8.1 2.98 13.54
12/28/2021 2:15:00 PM 8.42 47.156 0.671 8.1 2.74 13.49
12/28/2021 2:30:00 PM 8.44 47.192 0.671 8.1 2.86 13.41
12/28/2021 2:45:00 PM 8.45 47.21 0.671 8.09 3.23 13.41
12/28/2021 3:00:00 PM 8.47 47.246 0.67 8.09 3.2 13.35
12/28/2021 3:15:00 PM 8.47 47.246 0.67 8.09 3.13 13.27
12/28/2021 3:30:00 PM 8.47 47.246 0.67 8.09 3.79 13.17
12/28/2021 3:45:00 PM 8.48 47.264 0.67 8.08 5.32 13.1
12/28/2021 4:00:00 PM 8.48 47.264 0.67 8.07 4.09 12.99
12/28/2021 4:15:00 PM 8.47 47.246 0.671 8.06 4.24 12.8
12/28/2021 4:30:00 PM 8.46 47.228 0.671 8.05 3.86 12.6
12/28/2021 4:45:00 PM 8.45 47.21 0.672 8.04 3.63 12.46
12/28/2021 5:00:00 PM 8.43 47.174 0.673 8.02 3.77 12.26
12/28/2021 5:15:00 PM 8.41 47.138 0.675 8.01 3.47 12.09
12/28/2021 5:30:00 PM 8.4 47.12 0.676 8 3.1 11.91
12/28/2021 5:45:00 PM 8.39 47.102 0.677 7.98 3.94 11.75
12/28/2021 6:00:00 PM 8.39 47.102 0.678 7.98 4.79 11.59
12/28/2021 6:15:00 PM 8.39 47.102 0.678 7.97 3.38 11.47
12/28/2021 6:30:00 PM 8.39 47.102 0.679 7.96 4.11 11.33
12/28/2021 6:45:00 PM 8.4 47.12 0.679 7.96 4.73 11.25
12/28/2021 7:00:00 PM 8.4 47.12 0.678 7.95 3.47 11.16
12/28/2021 7:15:00 PM 8.41 47.138 0.678 7.94 4.94 11.1
12/28/2021 7:30:00 PM 8.41 47.138 0.678 7.94 4.83 11.02
12/28/2021 7:45:00 PM 8.42 47.156 0.678 7.94 4.25 10.97
12/28/2021 8:00:00 PM 8.42 47.156 0.677 7.94 3.9 10.91
12/28/2021 8:15:00 PM 8.43 47.174 0.677 7.93 3.71 10.87
12/28/2021 8:30:00 PM 8.43 47.174 0.677 7.93 4.11 10.84
12/28/2021 8:45:00 PM 8.43 47.174 0.677 7.93 3.83 10.78
12/28/2021 9:00:00 PM 8.43 47.174 0.676 7.93 5.06 10.75
12/28/2021 9:15:00 PM 8.44 47.192 0.676 7.92 6.56 10.72
12/28/2021 9:30:00 PM 8.44 47.192 0.676 7.92 4.74 10.68
12/28/2021 9:45:00 PM 8.43 47.174 0.675 7.92 5.14 10.66
12/28/2021 10:00:00 PM 8.42 47.156 0.674 7.92 4.35 10.63
12/28/2021 10:15:00 PM 8.42 47.156 0.674 7.92 5.84 10.59
12/28/2021 10:30:00 PM 8.42 47.156 0.674 7.92 4.37 10.56
12/28/2021 10:45:00 PM 8.42 47.156 0.674 7.92 4.9 10.53
12/28/2021 11:00:00 PM 8.43 47.174 0.674 7.91 3.71 10.49
12/28/2021 11:15:00 PM 8.43 47.174 0.674 7.91 4.5 10.49
12/28/2021 11:30:00 PM 8.43 47.174 0.674 7.9 5.26 10.45
12/28/2021 11:45:00 PM 8.43 47.174 0.674 7.9 3.89 10.41
12/29/2021 12:00:00 AM 8.43 47.174 0.674 7.89 3.68 10.38
12/29/2021 12:15:00 AM 8.43 47.174 0.674 7.9 4.32 10.33
12/29/2021 12:30:00 AM 8.44 47.192 0.674 7.89 5.96 10.31
12/29/2021 12:45:00 AM 8.44 47.192 0.675 7.89 4.24 10.29
12/29/2021 1:00:00 AM 8.45 47.21 0.675 7.89 4.16 10.24
12/29/2021 1:15:00 AM 8.45 47.21 0.675 7.88 3.97 10.22
12/29/2021 1:30:00 AM 8.42 47.156 0.672 7.88 4.54 10.24
12/29/2021 1:45:00 AM 8.41 47.138 0.671 7.88 5.43 10.24
12/29/2021 2:00:00 AM 8.4 47.12 0.67 7.88 4.46 10.25
12/29/2021 2:15:00 AM 8.4 47.12 0.67 7.87 3.9 10.21
12/29/2021 2:30:00 AM 8.41 47.138 0.67 7.87 4.95 10.18
12/29/2021 2:45:00 AM 8.41 47.138 0.669 7.87 5.67 10.17
12/29/2021 3:00:00 AM 8.42 47.156 0.67 7.87 4.45 10.15
12/29/2021 3:15:00 AM 8.42 47.156 0.669 7.87 5.71 10.15
12/29/2021 3:30:00 AM 8.42 47.156 0.669 7.87 5.94 10.14
12/29/2021 3:45:00 AM 8.42 47.156 0.669 7.86 4.2 10.09
12/29/2021 4:00:00 AM 8.42 47.156 0.67 7.86 5.37 10.09
12/29/2021 4:15:00 AM 8.42 47.156 0.67 7.87 4.12 10.08
12/29/2021 4:30:00 AM 8.42 47.156 0.67 7.86 5.24 10.09
12/29/2021 4:45:00 AM 8.42 47.156 0.67 7.86 4.72 10.07
12/29/2021 5:00:00 AM 8.43 47.174 0.67 7.86 5.06 10.04
12/29/2021 5:15:00 AM 8.43 47.174 0.671 7.86 3.98 10.05
12/29/2021 5:30:00 AM 8.43 47.174 0.672 7.85 6.26 10.05
12/29/2021 5:45:00 AM 8.43 47.174 0.672 7.85 5.41 10.03
12/29/2021 6:00:00 AM 8.44 47.192 0.673 7.85 5.3 10
12/29/2021 6:15:00 AM 8.45 47.21 0.673 7.85 5.03 10.02
12/29/2021 6:30:00 AM 8.45 47.21 0.673 7.85 5.12 10
12/29/2021 6:45:00 AM 8.46 47.228 0.673 7.85 6.01 9.98
12/29/2021 7:00:00 AM 8.47 47.246 0.673 7.85 4.83 9.97
12/29/2021 7:15:00 AM 8.47 47.246 0.673 7.85 6.22 9.99
12/29/2021 7:30:00 AM 8.48 47.264 0.673 7.84 5.24 9.97
12/29/2021 7:45:00 AM 8.49 47.282 0.673 7.84 6.42 9.99
12/29/2021 8:00:00 AM 8.5 47.3 0.673 7.84 4.95 9.99
12/29/2021 8:15:00 AM 8.52 47.336 0.673 7.84 4.18 10.04
12/29/2021 8:30:00 AM 8.53 47.354 0.673 7.84 4.83 10.07
12/29/2021 8:45:00 AM 8.56 47.408 0.674 7.85 5.29 10.19
12/29/2021 9:00:00 AM 8.59 47.462 0.673 7.85 3.49 10.34
12/29/2021 9:15:00 AM 8.61 47.498 0.673 7.86 3.44 10.47
12/29/2021 9:30:00 AM 8.63 47.534 0.671 7.87 3.94 10.61
12/29/2021 9:45:00 AM 8.66 47.588 0.669 7.88 4.22 10.78
12/29/2021 10:00:00 AM 8.68 47.624 0.667 7.89 3.58 10.98
12/29/2021 10:15:00 AM 8.71 47.678 0.666 7.9 3.54 11.15
12/29/2021 10:30:00 AM 8.74 47.732 0.667 7.91 4.53 11.35
12/29/2021 10:45:00 AM 8.79 47.822 0.667 7.92 3.94 11.57
12/29/2021 11:00:00 AM 8.84 47.912 0.668 7.94 3.89 11.79
12/29/2021 11:15:00 AM 8.9 48.02 0.67 7.95 4.12 12.07
12/29/2021 11:30:00 AM 8.98 48.164 0.671 7.98 4.35 12.35
12/29/2021 11:45:00 AM 9.07 48.326 0.672 8 3.4 12.66
12/29/2021 12:00:00 PM 9.14 48.452 0.673 8.02 5.08 12.91
12/29/2021 12:15:00 PM 9.21 48.578 0.674 8.04 5.02 13.1
12/29/2021 12:30:00 PM 9.28 48.704 0.674 8.06 8.49 13.34
12/29/2021 12:45:00 PM 9.33 48.794 0.674 8.08 6.9 13.49
12/29/2021 1:00:00 PM 9.4 48.92 0.674 8.1 8.36 13.66
12/29/2021 1:15:00 PM 9.47 49.046 0.674 8.11 8.78 13.79
12/29/2021 1:30:00 PM 9.57 49.226 0.673 8.13 7.58 14.02
12/29/2021 1:45:00 PM 9.63 49.334 0.673 8.15 7.83 14.12
12/29/2021 2:00:00 PM 9.69 49.442 0.673 8.16 8.66 14.27
12/29/2021 2:15:00 PM 9.73 49.514 0.673 8.17 8.51 14.29
12/29/2021 2:30:00 PM 9.76 49.568 0.673 8.18 10.35 14.33
12/29/2021 2:45:00 PM 9.78 49.604 0.673 8.18 9.13 14.31
12/29/2021 3:00:00 PM 9.79 49.622 0.673 8.18 10.68 14.26
12/29/2021 3:15:00 PM 9.77 49.586 0.672 8.19 9.36 14.17
12/29/2021 3:30:00 PM 9.72 49.496 0.671 8.18 11.53 13.93
12/29/2021 3:45:00 PM 9.68 49.424 0.671 8.17 11.86 13.72
12/29/2021 4:00:00 PM 9.64 49.352 0.67 8.15 12.21 13.49
12/29/2021 4:15:00 PM 9.59 49.262 0.67 8.13 12.34 13.23
12/29/2021 4:30:00 PM 9.55 49.19 0.67 8.11 12.75 12.94
12/29/2021 4:45:00 PM 9.52 49.136 0.67 8.09 12.86 12.7
12/29/2021 5:00:00 PM 9.5 49.1 0.67 8.07 13.21 12.47
12/29/2021 5:15:00 PM 9.49 49.082 0.671 8.05 12.07 12.23
12/29/2021 5:30:00 PM 9.48 49.064 0.67 8.04 9.73 12
12/29/2021 5:45:00 PM 9.46 49.028 0.669 8.03 9.96 11.87
12/29/2021 6:00:00 PM 9.43 48.974 0.669 8.02 7.93 11.76
12/29/2021 6:15:00 PM 9.41 48.938 0.668 8 6.47 11.72
12/29/2021 6:30:00 PM 9.39 48.902 0.668 7.99 6.97 11.71
12/29/2021 6:45:00 PM 9.37 48.866 0.668 7.99 7.03 11.68
12/29/2021 7:00:00 PM 9.36 48.848 0.667 7.99 6.38 11.61
12/29/2021 7:15:00 PM 9.35 48.83 0.666 7.98 5.53 11.56
12/29/2021 7:30:00 PM 9.34 48.812 0.666 7.97 6.53 11.49
12/29/2021 7:45:00 PM 9.33 48.794 0.665 7.97 5.44 11.42
12/29/2021 8:00:00 PM 9.32 48.776 0.665 7.97 6.83 11.37
12/29/2021 8:15:00 PM 9.31 48.758 0.666 7.97 5.91 11.31
12/29/2021 8:30:00 PM 9.3 48.74 0.665 7.97 6.28 11.27
12/29/2021 8:45:00 PM 9.29 48.722 0.664 7.96 5.76 11.22
12/29/2021 9:00:00 PM 9.29 48.722 0.663 7.96 6.54 11.18
12/29/2021 9:15:00 PM 9.28 48.704 0.662 7.96 5.98 11.14
12/29/2021 9:30:00 PM 9.27 48.686 0.66 7.95 5.13 11.12
12/29/2021 9:45:00 PM 9.27 48.686 0.658 7.94 5.52 11.07
12/29/2021 10:00:00 PM 9.27 48.686 0.655 7.93 6.55 11.01
12/29/2021 10:15:00 PM 9.27 48.686 0.652 7.93 5.38 10.99
12/29/2021 10:30:00 PM 9.27 48.686 0.648 7.92 8.35 10.96
12/29/2021 10:45:00 PM 9.27 48.686 0.645 7.92 5.54 10.91
12/29/2021 11:00:00 PM 9.28 48.704 0.642 7.92 5.47 10.87
12/29/2021 11:15:00 PM 9.28 48.704 0.639 7.91 5.33 10.8
12/29/2021 11:30:00 PM 9.27 48.686 0.636 7.9 5.34 10.77
12/29/2021 11:45:00 PM 9.27 48.686 0.633 7.9 6.95 10.75
12/30/2021 12:00:00 AM 9.27 48.686 0.631 7.89 4.67 10.7
12/30/2021 12:15:00 AM 9.27 48.686 0.629 7.89 5.06 10.64
12/30/2021 12:30:00 AM 9.27 48.686 0.628 7.88 4.14 10.62
12/30/2021 12:45:00 AM 9.27 48.686 0.627 7.88 4.89 10.6
12/30/2021 1:00:00 AM 9.27 48.686 0.627 7.87 6.19 10.56
12/30/2021 1:15:00 AM 9.27 48.686 0.626 7.87 5.77 10.53
12/30/2021 1:30:00 AM 9.27 48.686 0.626 7.86 7.12 10.49
12/30/2021 1:45:00 AM 9.28 48.704 0.627 7.86 5.65 10.47
12/30/2021 2:00:00 AM 9.28 48.704 0.627 7.86 6.03 10.43
12/30/2021 2:15:00 AM 9.28 48.704 0.628 7.86 7.24 10.43
12/30/2021 2:30:00 AM 9.28 48.704 0.628 7.86 6.02 10.41
12/30/2021 2:45:00 AM 9.29 48.722 0.63 7.85 5.62 10.39
12/30/2021 3:00:00 AM 9.29 48.722 0.631 7.85 7.8 10.38
12/30/2021 3:15:00 AM 9.3 48.74 0.633 7.84 4.23 10.35
12/30/2021 3:30:00 AM 9.31 48.758 0.635 7.84 4 10.35
12/30/2021 3:45:00 AM 9.31 48.758 0.637 7.84 5.1 10.33
12/30/2021 4:00:00 AM 9.32 48.776 0.639 7.84 5.17 10.33
12/30/2021 4:15:00 AM 9.33 48.794 0.641 7.84 4.78 10.32
12/30/2021 4:30:00 AM 9.34 48.812 0.642 7.84 4.15 10.31
12/30/2021 4:45:00 AM 9.35 48.83 0.644 7.84 4.7 10.3
12/30/2021 5:00:00 AM 9.35 48.83 0.645 7.84 6.07 10.29
12/30/2021 5:15:00 AM 9.36 48.848 0.647 7.84 5.49 10.29
12/30/2021 5:30:00 AM 9.37 48.866 0.648 7.84 4.51 10.27
12/30/2021 5:45:00 AM 9.37 48.866 0.65 7.84 3.74 10.25
12/30/2021 6:00:00 AM 9.38 48.884 0.651 7.84 8.59 10.26
12/30/2021 6:15:00 AM 9.39 48.902 0.652 7.84 4.92 10.27
12/30/2021 6:30:00 AM 9.39 48.902 0.653 7.84 4.23 10.24
12/30/2021 6:45:00 AM 9.4 48.92 0.654 7.84 3.96 10.24
12/30/2021 7:00:00 AM 9.41 48.938 0.654 7.84 4.38 10.21
12/30/2021 7:15:00 AM 9.42 48.956 0.655 7.83 4.72 10.24
12/30/2021 7:30:00 AM 9.42 48.956 0.656 7.84 4.79 10.2
12/30/2021 7:45:00 AM 9.43 48.974 0.656 7.84 4.09 10.22
12/30/2021 8:00:00 AM 9.44 48.992 0.657 7.84 4.03 10.23
12/30/2021 8:15:00 AM 9.44 48.992 0.657 7.84 3.39 10.24
12/30/2021 8:30:00 AM 9.45 49.01 0.658 7.84 3.33 10.26
12/30/2021 8:45:00 AM 9.46 49.028 0.658 7.84 4.17 10.32
12/30/2021 9:00:00 AM 9.47 49.046 0.659 7.85 3.61 10.35
12/30/2021 9:15:00 AM 9.48 49.064 0.659 7.85 4.57 10.39
12/30/2021 9:30:00 AM 9.49 49.082 0.66 7.86 4.78 10.45
12/30/2021 9:45:00 AM 9.5 49.1 0.66 7.86 4.4 10.5
12/30/2021 10:00:00 AM 9.52 49.136 0.661 7.86 4.6 10.53
12/30/2021 10:15:00 AM 9.55 49.19 0.662 7.86 3.49 10.54
12/30/2021 10:30:00 AM 9.57 49.226 0.663 7.87 2.91 10.63
12/30/2021 10:45:00 AM 9.6 49.28 0.664 7.87 3.06 10.71
12/30/2021 11:00:00 AM 9.62 49.316 0.664 7.88 4.64 10.77
12/30/2021 11:15:00 AM 9.65 49.37 0.665 7.89 5.39 10.89
12/30/2021 11:30:00 AM 9.67 49.406 0.665 7.9 2.97 11.01
12/30/2021 11:45:00 AM 9.69 49.442 0.665 7.91 2.98 11.2
12/30/2021 12:00:00 PM 9.71 49.478 0.664 7.92 2.8 11.38
12/30/2021 12:15:00 PM 9.73 49.514 0.664 7.94 3.04 11.51
12/30/2021 12:30:00 PM 9.76 49.568 0.664 7.95 3.82 11.66
12/30/2021 12:45:00 PM 9.78 49.604 0.664 7.96 2.82 11.81
12/30/2021 1:00:00 PM 9.8 49.64 0.665 7.97 4.04 11.85
12/30/2021 1:15:00 PM 9.82 49.676 0.665 7.98 3.09 11.87
12/30/2021 1:30:00 PM 9.84 49.712 0.665 7.98 2.71 11.96
12/30/2021 1:45:00 PM 9.87 49.766 0.665 7.99 3.84 12.05
12/30/2021 2:00:00 PM 9.89 49.802 0.665 8 4.79 12.08
12/30/2021 2:15:00 PM 9.9 49.82 0.666 8 5.12 12.08
12/30/2021 2:30:00 PM 9.93 49.874 0.667 8.01 5.43 12.04
12/30/2021 2:45:00 PM 9.95 49.91 0.668 8.01 2.84 11.99
12/30/2021 3:00:00 PM 9.98 49.964 0.668 8 5.95 11.93
12/30/2021 3:15:00 PM 10 50 0.669 8 9.96 11.87
12/30/2021 3:30:00 PM 10.01 50.018 0.669 8 4.58 11.81
12/30/2021 3:45:00 PM 10.03 50.054 0.669 7.99 6.01 11.72
12/30/2021 4:00:00 PM 10.03 50.054 0.67 7.99 6.96 11.63
12/30/2021 4:15:00 PM 10.04 50.072 0.67 7.98 3.27 11.52
12/30/2021 4:30:00 PM 10.05 50.09 0.67 7.98 4.55 11.41
12/30/2021 4:45:00 PM 10.04 50.072 0.67 7.97 5.6 11.29
12/30/2021 5:00:00 PM 10.03 50.054 0.669 7.96 7.34 11.2
12/30/2021 5:15:00 PM 10.02 50.036 0.668 7.96 7.1 11.14
12/30/2021 5:30:00 PM 10.02 50.036 0.668 7.96 3.66 11.07
12/30/2021 5:45:00 PM 10.01 50.018 0.668 7.95 3.29 10.98
12/30/2021 6:00:00 PM 10.01 50.018 0.668 7.95 2.8 10.9
12/30/2021 6:15:00 PM 10.03 50.054 0.669 7.94 2.92 10.79
12/30/2021 6:30:00 PM 10.05 50.09 0.671 7.93 3.15 10.7
12/30/2021 6:45:00 PM 10.06 50.108 0.671 7.93 3.46 10.6
12/30/2021 7:00:00 PM 10.07 50.126 0.672 7.92 2.73 10.5
12/30/2021 7:15:00 PM 10.08 50.144 0.673 7.92 3.04 10.38
12/30/2021 7:30:00 PM 10.09 50.162 0.673 7.91 4.6 10.3
12/30/2021 7:45:00 PM 10.1 50.18 0.673 7.91 3.55 10.2
12/30/2021 8:00:00 PM 10.1 50.18 0.673 7.91 3.6 10.17
12/30/2021 8:15:00 PM 10.11 50.198 0.674 7.91 3.61 10.13
12/30/2021 8:30:00 PM 10.11 50.198 0.674 7.9 4.43 10.11
12/30/2021 8:45:00 PM 10.11 50.198 0.674 7.9 4.47 10.06
12/30/2021 9:00:00 PM 10.12 50.216 0.674 7.9 4.29 10.04
12/30/2021 9:15:00 PM 10.12 50.216 0.673 7.9 4.41 10.02
12/30/2021 9:30:00 PM 10.12 50.216 0.673 7.9 3.35 9.99
12/30/2021 9:45:00 PM 10.13 50.234 0.673 7.9 3.25 9.97
12/30/2021 10:00:00 PM 10.13 50.234 0.673 7.89 4.12 9.95
12/30/2021 10:15:00 PM 10.13 50.234 0.673 7.89 3.46 9.94
12/30/2021 10:30:00 PM 10.13 50.234 0.673 7.89 4.33 9.91
12/30/2021 10:45:00 PM 10.13 50.234 0.673 7.89 3.85 9.88
12/30/2021 11:00:00 PM 10.13 50.234 0.672 7.89 3.86 9.87
12/30/2021 11:15:00 PM 10.13 50.234 0.672 7.89 4.53 9.86
12/30/2021 11:30:00 PM 10.14 50.252 0.672 7.88 4.13 9.84
12/30/2021 11:45:00 PM 10.14 50.252 0.672 7.88 4.13 9.81
12/31/2021 12:00:00 AM 10.14 50.252 0.672 7.88 3.28 9.81
12/31/2021 12:15:00 AM 10.14 50.252 0.672 7.88 3.04 9.77
12/31/2021 12:30:00 AM 10.14 50.252 0.672 7.88 4.92 9.75
12/31/2021 12:45:00 AM 10.14 50.252 0.672 7.87 4.53 9.75
12/31/2021 1:00:00 AM 10.13 50.234 0.672 7.87 3.53 9.73
12/31/2021 1:15:00 AM 10.13 50.234 0.671 7.87 3.04 9.73
12/31/2021 1:30:00 AM 10.13 50.234 0.671 7.88 4.48 9.71
12/31/2021 1:45:00 AM 10.13 50.234 0.67 7.87 3.37 9.69
12/31/2021 2:00:00 AM 10.14 50.252 0.669 7.87 3.22 9.68
12/31/2021 2:15:00 AM 10.14 50.252 0.669 7.87 4.29 9.66
12/31/2021 2:30:00 AM 10.14 50.252 0.669 7.87 4.19 9.64
12/31/2021 2:45:00 AM 10.14 50.252 0.668 7.87 3.96 9.66
12/31/2021 3:00:00 AM 10.15 50.27 0.667 7.87 3.48 9.64
12/31/2021 3:15:00 AM 10.15 50.27 0.667 7.86 3.32 9.64
12/31/2021 3:30:00 AM 10.15 50.27 0.666 7.86 3.59 9.63
12/31/2021 3:45:00 AM 10.16 50.288 0.665 7.86 8.8 9.6
12/31/2021 4:00:00 AM 10.16 50.288 0.665 7.86 12.04 9.62
12/31/2021 4:15:00 AM 10.16 50.288 0.664 7.85 13.53 9.6
12/31/2021 4:30:00 AM 10.17 50.306 0.663 7.85 8.09 9.59
12/31/2021 4:45:00 AM 10.17 50.306 0.663 7.85 6.18 9.58
12/31/2021 5:00:00 AM 10.17 50.306 0.662 7.85 5.46 9.58
12/31/2021 5:15:00 AM 10.18 50.324 0.662 7.85 6.35 9.57
12/31/2021 5:30:00 AM 10.18 50.324 0.661 7.85 8.43 9.57
12/31/2021 5:45:00 AM 10.19 50.342 0.661 7.84 7.04 9.55
12/31/2021 6:00:00 AM 10.2 50.36 0.661 7.85 6.92 9.55
12/31/2021 6:15:00 AM 10.2 50.36 0.661 7.85 8.86 9.52
12/31/2021 6:30:00 AM 10.21 50.378 0.661 7.84 8.36 9.52
12/31/2021 6:45:00 AM 10.22 50.396 0.661 7.85 9.21 9.53
12/31/2021 7:00:00 AM 10.22 50.396 0.662 7.85 8.55 9.54
12/31/2021 7:15:00 AM 10.23 50.414 0.662 7.85 9.78 9.52
12/31/2021 7:30:00 AM 10.24 50.432 0.663 7.84 8.58 9.53
12/31/2021 7:45:00 AM 10.24 50.432 0.664 7.85 8.21 9.52
12/31/2021 8:00:00 AM 10.25 50.45 0.664 7.85 8.59 9.54
12/31/2021 8:15:00 AM 10.26 50.468 0.665 7.85 7.84 9.56
12/31/2021 8:30:00 AM 10.27 50.486 0.665 7.85 6.67 9.59
12/31/2021 8:45:00 AM 10.27 50.486 0.666 7.85 7.25 9.65
12/31/2021 9:00:00 AM 10.28 50.504 0.666 7.86 7.04 9.73
12/31/2021 9:15:00 AM 10.29 50.522 0.667 7.86 7.29 9.8
12/31/2021 9:30:00 AM 10.31 50.558 0.667 7.87 6.12 9.9
12/31/2021 9:45:00 AM 10.32 50.576 0.668 7.88 6.8 10.02
12/31/2021 10:00:00 AM 10.33 50.594 0.668 7.88 5.65 10.1
12/31/2021 10:15:00 AM 10.35 50.63 0.668 7.89 5.8 10.22
12/31/2021 10:30:00 AM 10.37 50.666 0.669 7.9 5.56 10.34
12/31/2021 10:45:00 AM 10.38 50.684 0.669 7.9 4.89 10.48
12/31/2021 11:00:00 AM 10.39 50.702 0.668 7.92 5.58 10.65
12/31/2021 11:15:00 AM 10.39 50.702 0.667 7.93 5.89 10.87
12/31/2021 11:30:00 AM 10.39 50.702 0.666 7.95 6.23 11.13
12/31/2021 11:45:00 AM 10.4 50.72 0.665 7.97 6.01 11.38
12/31/2021 12:00:00 PM 10.41 50.738 0.665 7.98 6.55 11.6
12/31/2021 12:15:00 PM 10.43 50.774 0.664 7.99 5.6 11.79
12/31/2021 12:30:00 PM 10.45 50.81 0.664 8 5.84 11.92
12/31/2021 12:45:00 PM 10.46 50.828 0.664 8.01 5.64 11.97
12/31/2021 1:00:00 PM 10.47 50.846 0.664 8.01 5.8 11.98
12/31/2021 1:15:00 PM 10.48 50.864 0.664 8.01 6.41 11.99
12/31/2021 1:30:00 PM 10.51 50.918 0.663 8.02 6.16 12.07
12/31/2021 1:45:00 PM 10.53 50.954 0.663 8.04 6.4 12.18
12/31/2021 2:00:00 PM 10.55 50.99 0.663 8.04 6.36 12.25
12/31/2021 2:15:00 PM 10.56 51.008 0.663 8.05 5.73 12.27
12/31/2021 2:30:00 PM 10.57 51.026 0.663 8.05 5.98 12.23
12/31/2021 2:45:00 PM 10.58 51.044 0.663 8.05 6.74 12.21
12/31/2021 3:00:00 PM 10.6 51.08 0.663 8.05 3.05 12.24
12/31/2021 3:15:00 PM 10.62 51.116 0.663 8.05 3.03 12.28
12/31/2021 3:30:00 PM 10.63 51.134 0.663 8.06 3.58 12.32
12/31/2021 3:45:00 PM 10.63 51.134 0.663 8.06 2.79 12.33
12/31/2021 4:00:00 PM 10.63 51.134 0.663 8.07 3.45 12.34
12/31/2021 4:15:00 PM 10.63 51.134 0.663 8.07 3.99 12.27
12/31/2021 4:30:00 PM 10.62 51.116 0.663 8.06 4.21 12.1
12/31/2021 4:45:00 PM 10.61 51.098 0.663 8.06 3.68 11.99
12/31/2021 5:00:00 PM 10.6 51.08 0.664 8.04 3.67 11.81
12/31/2021 5:15:00 PM 10.59 51.062 0.664 8.02 3.78 11.64
12/31/2021 5:30:00 PM 10.59 51.062 0.665 8.01 3.78 11.46
12/31/2021 5:45:00 PM 10.58 51.044 0.665 8 3.88 11.34
12/31/2021 6:00:00 PM 10.58 51.044 0.665 7.98 3.5 11.18
12/31/2021 6:15:00 PM 10.57 51.026 0.665 7.98 3.89 11.1
12/31/2021 6:30:00 PM 10.57 51.026 0.665 7.97 3.91 10.99
12/31/2021 6:45:00 PM 10.56 51.008 0.665 7.96 4.19 10.92
12/31/2021 7:00:00 PM 10.56 51.008 0.665 7.96 3.63 10.82
12/31/2021 7:15:00 PM 10.55 50.99 0.665 7.95 3.58 10.77
12/31/2021 7:30:00 PM 10.55 50.99 0.666 7.94 3.83 10.75
12/31/2021 7:45:00 PM 10.54 50.972 0.666 7.93 4.07 10.71
12/31/2021 8:00:00 PM 10.53 50.954 0.666 7.93 4.39 10.66
12/31/2021 8:15:00 PM 10.53 50.954 0.666 7.93 4.05 10.66
12/31/2021 8:30:00 PM 10.53 50.954 0.665 7.92 3.97 10.64
12/31/2021 8:45:00 PM 10.53 50.954 0.665 7.92 4.39 10.6
12/31/2021 9:00:00 PM 10.53 50.954 0.665 7.93 10.04 10.59
12/31/2021 9:15:00 PM 10.53 50.954 0.665 7.92 7.27 10.55
12/31/2021 9:30:00 PM 10.52 50.936 0.665 7.92 6.4 10.54
12/31/2021 9:45:00 PM 10.52 50.936 0.665 7.92 6.68 10.5
12/31/2021 10:00:00 PM 10.52 50.936 0.665 7.92 6.45 10.46
12/31/2021 10:15:00 PM 10.52 50.936 0.665 7.92 6.74 10.46
12/31/2021 10:30:00 PM 10.53 50.954 0.665 7.92 6.68 10.42
12/31/2021 10:45:00 PM 10.53 50.954 0.665 7.92 6.04 10.42
12/31/2021 11:00:00 PM 10.53 50.954 0.665 7.92 6.39 10.39
12/31/2021 11:15:00 PM 10.53 50.954 0.665 7.91 6.35 10.38
12/31/2021 11:30:00 PM 10.53 50.954 0.665 7.91 6.33 10.33
12/31/2021 11:45:00 PM 10.53 50.954 0.665 7.91 5.61 10.33
1/1/2022 12:00:00 AM 10.54 50.972 0.665 7.91 6.25 10.3
1/1/2022 12:15:00 AM 10.53 50.954 0.665 7.91 4.94 10.28
1/1/2022 12:30:00 AM 10.53 50.954 0.665 7.91 4.95 10.27
1/1/2022 12:45:00 AM 10.53 50.954 0.666 7.9 5.92 10.25
1/1/2022 1:00:00 AM 10.53 50.954 0.666 7.9 5.81 10.23
1/1/2022 1:15:00 AM 10.53 50.954 0.666 7.9 5.89 10.2
1/1/2022 1:30:00 AM 10.53 50.954 0.666 7.9 5.76 10.2
1/1/2022 1:45:00 AM 10.53 50.954 0.666 7.9 4.72 10.17
1/1/2022 2:00:00 AM 10.54 50.972 0.666 7.9 4.37 10.16
1/1/2022 2:15:00 AM 10.54 50.972 0.667 7.9 4.78 10.15
1/1/2022 2:30:00 AM 10.54 50.972 0.667 7.89 4.24 10.13
1/1/2022 2:45:00 AM 10.54 50.972 0.667 7.89 5.68 10.1
1/1/2022 3:00:00 AM 10.54 50.972 0.667 7.89 4.57 10.11
1/1/2022 3:15:00 AM 10.54 50.972 0.667 7.89 3.6 10.09
1/1/2022 3:30:00 AM 10.54 50.972 0.667 7.89 4.21 10.1
1/1/2022 3:45:00 AM 10.54 50.972 0.666 7.89 3.47 10.08
1/1/2022 4:00:00 AM 10.54 50.972 0.666 7.88 4.61 10.08
1/1/2022 4:15:00 AM 10.55 50.99 0.666 7.89 3.9 10.07
1/1/2022 4:30:00 AM 10.55 50.99 0.666 7.88 3.89 10.06
1/1/2022 4:45:00 AM 10.55 50.99 0.666 7.88 3.94 10.05
1/1/2022 5:00:00 AM 10.55 50.99 0.666 7.88 3.88 10.04
1/1/2022 5:15:00 AM 10.55 50.99 0.667 7.87 4.66 10.03
1/1/2022 5:30:00 AM 10.56 51.008 0.667 7.87 3.81 10.01
1/1/2022 5:45:00 AM 10.56 51.008 0.667 7.87 3.93 10
1/1/2022 6:00:00 AM 10.57 51.026 0.667 7.87 4 10.01
1/1/2022 6:15:00 AM 10.58 51.044 0.668 7.87 4.1 9.98
1/1/2022 6:30:00 AM 10.58 51.044 0.668 7.87 4.55 9.99
1/1/2022 6:45:00 AM 10.58 51.044 0.668 7.87 4.39 9.98
1/1/2022 7:00:00 AM 10.59 51.062 0.668 7.87 4.42 9.98
1/1/2022 7:15:00 AM 10.59 51.062 0.668 7.87 6.49 9.96
1/1/2022 7:30:00 AM 10.59 51.062 0.668 7.87 5.29 9.96
1/1/2022 7:45:00 AM 10.59 51.062 0.668 7.87 5.56 9.97
1/1/2022 8:00:00 AM 10.6 51.08 0.668 7.87 3.6 9.96
1/1/2022 8:15:00 AM 10.6 51.08 0.668 7.87 5.94 9.98
1/1/2022 8:30:00 AM 10.6 51.08 0.668 7.87 3.86 9.99
1/1/2022 8:45:00 AM 10.6 51.08 0.667 7.87 3.62 10.03
1/1/2022 9:00:00 AM 10.61 51.098 0.667 7.87 5.35 10.04
1/1/2022 9:15:00 AM 10.62 51.116 0.666 7.87 3.49 10.15
1/1/2022 9:30:00 AM 10.63 51.134 0.666 7.88 6.47 10.2
1/1/2022 9:45:00 AM 10.64 51.152 0.666 7.88 3.7 10.25
1/1/2022 10:00:00 AM 10.65 51.17 0.666 7.89 5.7 10.34
1/1/2022 10:15:00 AM 10.67 51.206 0.665 7.89 4.63 10.46
1/1/2022 10:30:00 AM 10.68 51.224 0.665 7.9 6.12 10.55
1/1/2022 10:45:00 AM 10.7 51.26 0.665 7.9 3.91 10.62
1/1/2022 11:00:00 AM 10.71 51.278 0.665 7.91 4.82 10.7
1/1/2022 11:15:00 AM 10.73 51.314 0.664 7.91 4.2 10.77
1/1/2022 11:30:00 AM 10.74 51.332 0.664 7.92 5.31 10.84
1/1/2022 11:45:00 AM 10.76 51.368 0.663 7.93 4.18 10.9
1/1/2022 12:00:00 PM 10.78 51.404 0.663 7.93 3.04 11
1/1/2022 12:15:00 PM 10.8 51.44 0.663 7.94 3.44 11.14
1/1/2022 12:30:00 PM 10.83 51.494 0.662 7.95 2.95 11.26
1/1/2022 12:45:00 PM 10.85 51.53 0.662 7.96 6.74 11.4
1/1/2022 1:00:00 PM 10.88 51.584 0.661 7.98 2.97 11.5
1/1/2022 1:15:00 PM 10.91 51.638 0.661 7.99 4.86 11.65
1/1/2022 1:30:00 PM 10.93 51.674 0.66 8 3.22 11.72
1/1/2022 1:45:00 PM 10.96 51.728 0.66 8.01 8.05 11.84
1/1/2022 2:00:00 PM 10.99 51.782 0.66 8.02 5.72 11.96
1/1/2022 2:15:00 PM 11.02 51.836 0.66 8.03 7.18 12.11
1/1/2022 2:30:00 PM 11.04 51.872 0.66 8.04 9.91 12.11
1/1/2022 2:45:00 PM 11.07 51.926 0.661 8.05 10.82 12.07
1/1/2022 3:00:00 PM 11.11 51.998 0.662 8.05 7.81 11.99
1/1/2022 3:15:00 PM 11.14 52.052 0.663 8.04 10.65 11.85
1/1/2022 3:30:00 PM 11.16 52.088 0.663 8.03 10.36 11.65
1/1/2022 3:45:00 PM 11.17 52.106 0.664 8.02 9.44 11.44
1/1/2022 4:00:00 PM 11.18 52.124 0.663 8.02 6.03 11.26
1/1/2022 4:15:00 PM 11.19 52.142 0.663 8 13.1 11.09
1/1/2022 4:30:00 PM 11.21 52.178 0.663 7.99 2.94 10.87
1/1/2022 4:45:00 PM 11.24 52.232 0.663 7.98 14.24 10.68
1/1/2022 5:00:00 PM 11.26 52.268 0.663 7.97 4.81 10.54
1/1/2022 5:15:00 PM 11.27 52.286 0.663 7.96 7.59 10.4
1/1/2022 5:30:00 PM 11.28 52.304 0.663 7.95 10.72 10.26
1/1/2022 5:45:00 PM 11.29 52.322 0.663 7.94 17.18 10.17
1/1/2022 6:00:00 PM 11.28 52.304 0.662 7.93 20.03 10.12
1/1/2022 6:15:00 PM 11.26 52.268 0.66 7.92 16.88 10.05
1/1/2022 6:30:00 PM 11.23 52.214 0.658 7.92 21.12 10.01
1/1/2022 6:45:00 PM 11.21 52.178 0.657 7.92 56.98 9.97
1/1/2022 7:00:00 PM 11.2 52.16 0.655 7.91 20.15 9.91
1/1/2022 7:15:00 PM 11.19 52.142 0.652 7.91 3480 9.9
1/1/2022 7:30:00 PM 11.18 52.124 0.648 7.91 18.36 9.89
1/1/2022 7:45:00 PM 11.18 52.124 0.645 7.91 1211 9.87
1/1/2022 8:00:00 PM 11.17 52.106 0.642 7.91 10.42 9.83
1/1/2022 8:15:00 PM 11.16 52.088 0.64 7.91 22.78 9.84
1/1/2022 8:30:00 PM 11.16 52.088 0.637 7.9 17.8 9.8
1/1/2022 8:45:00 PM 11.15 52.07 0.635 7.9 9.1 9.76
1/1/2022 9:00:00 PM 11.13 52.034 0.633 7.89 12.58 9.74
1/1/2022 9:15:00 PM 11.12 52.016 0.631 7.88 25.11 9.7
1/1/2022 9:30:00 PM 11.11 51.998 0.629 7.88 21.05 9.67
1/1/2022 9:45:00 PM 11.09 51.962 0.627 7.88 16.82 9.66
1/1/2022 10:00:00 PM 11.08 51.944 0.626 7.87 15.77 9.61
1/1/2022 10:15:00 PM 11.08 51.944 0.626 7.86 13.73 9.59
1/1/2022 10:30:00 PM 11.08 51.944 0.627 7.86 12.1 9.55
1/1/2022 10:45:00 PM 11.08 51.944 0.627 7.85 11.57 9.52
1/1/2022 11:00:00 PM 11.08 51.944 0.626 7.85 15.51 9.48
1/1/2022 11:15:00 PM 11.08 51.944 0.624 7.84 13.23 9.44
1/1/2022 11:30:00 PM 11.09 51.962 0.621 7.84 14.02 9.4
1/1/2022 11:45:00 PM 11.11 51.998 0.619 7.83 10.95 9.39
1/2/2022 12:00:00 AM 11.13 52.034 0.618 7.82 21.94 9.36
1/2/2022 12:15:00 AM 11.15 52.07 0.618 7.82 17.03 9.34
1/2/2022 12:30:00 AM 11.17 52.106 0.617 7.81 14.59 9.31
1/2/2022 12:45:00 AM 11.2 52.16 0.608 7.81 30.98 9.28
1/2/2022 1:00:00 AM 11.23 52.214 0.596 7.8 20.98 9.26
1/2/2022 1:15:00 AM 11.26 52.268 0.591 7.79 40.41 9.2
1/2/2022 1:30:00 AM 11.32 52.376 0.595 7.78 25.42 9.15
1/2/2022 1:45:00 AM 11.37 52.466 0.602 7.78 26.85 9.09
1/2/2022 2:00:00 AM 11.43 52.574 0.603 7.78 22.42 9.04
1/2/2022 2:15:00 AM 11.47 52.646 0.597 7.77 23.08 9.01
1/2/2022 2:30:00 AM 11.5 52.7 0.586 7.77 23.73 9.02
1/2/2022 2:45:00 AM 11.5 52.7 0.572 7.77 34.9 9
1/2/2022 3:00:00 AM 11.47 52.646 0.555 7.77 23.7 9.02
1/2/2022 3:15:00 AM 11.42 52.556 0.537 7.77 30.57 9.02
1/2/2022 3:30:00 AM 11.37 52.466 0.519 7.76 26.39 9.02
1/2/2022 4:00:00 AM 11.24 52.232 0.486 7.75 28.12 9.04
1/2/2022 4:15:00 AM 11.17 52.106 0.43 7.74 29.35 9.05
1/2/2022 4:30:00 AM 11.12 52.016 0.46 7.74 25.76 9.04
1/2/2022 4:45:00 AM 11.07 51.926 0.449 7.73 24.67 9.03
1/2/2022 5:00:00 AM 11.03 51.854 0.441 7.72 34.96 9.04
1/2/2022 5:15:00 AM 11 51.8 0.433 7.71 23.12 9.04
1/2/2022 5:30:00 AM 10.96 51.728 0.428 7.7 29.39 9.05
1/2/2022 5:45:00 AM 10.93 51.674 0.422 7.7 24.76 9.04
1/2/2022 6:00:00 AM 10.91 51.638 0.419 7.69 21.83 9.04
1/2/2022 6:15:00 AM 10.89 51.602 0.416 7.68 39.34 9.04
1/2/2022 6:30:00 AM 10.88 51.584 0.414 7.68 20.68 9.05
1/2/2022 6:45:00 AM 10.86 51.548 0.414 7.68 173.2 9.05
1/2/2022 7:00:00 AM 10.85 51.53 0.416 7.67 107.6 9.05
1/2/2022 7:15:00 AM 10.84 51.512 0.417 7.67 21.19 9.07
1/2/2022 7:30:00 AM 10.84 51.512 0.417 7.67 45.62 9.05
1/2/2022 7:45:00 AM 10.85 51.53 0.417 7.66 22.2 9.05
1/2/2022 8:00:00 AM 10.86 51.548 0.418 7.65 24.83 9.04
1/2/2022 8:15:00 AM 10.88 51.584 0.419 7.66 18.85 9.05
1/2/2022 8:30:00 AM 10.89 51.602 0.419 7.65 86.79 9.08
1/2/2022 8:45:00 AM 10.9 51.62 0.42 7.65 514.8 9.1
1/2/2022 9:00:00 AM 10.9 51.62 0.424 7.65 168.1 9.12
1/2/2022 9:15:00 AM 10.9 51.62 0.427 7.65 207.4 9.17
1/2/2022 9:30:00 AM 10.92 51.656 0.432 7.65 103.8 9.2
1/2/2022 9:45:00 AM 10.95 51.71 0.439 7.66 28.77 9.29
1/2/2022 10:00:00 AM 10.98 51.764 0.445 7.66 17.7 9.39
1/2/2022 10:15:00 AM 11.03 51.854 0.449 7.68 16.97 9.52
1/2/2022 10:30:00 AM 11.07 51.926 0.451 7.68 18 9.62
1/2/2022 10:45:00 AM 11.11 51.998 0.453 7.69 18.98 9.74
1/2/2022 11:00:00 AM 11.15 52.07 0.456 7.7 199.3 9.84
1/2/2022 11:15:00 AM 11.2 52.16 0.459 7.71 14.47 9.93
1/2/2022 11:30:00 AM 11.24 52.232 0.463 7.72 39.27 10.04
1/2/2022 11:45:00 AM 11.29 52.322 0.467 7.74 114.5 10.16
1/2/2022 12:00:00 PM 11.32 52.376 0.47 7.75 14.53 10.27
1/2/2022 12:15:00 PM 11.37 52.466 0.474 7.76 12.74 10.38
1/2/2022 12:30:00 PM 11.41 52.538 0.477 7.77 14.44 10.44
1/2/2022 12:45:00 PM 11.44 52.592 0.48 7.78 17.72 10.49
1/2/2022 1:00:00 PM 11.49 52.682 0.483 7.79 13.65 10.57
1/2/2022 1:15:00 PM 11.51 52.718 0.486 7.8 30.11 10.54
1/2/2022 1:30:00 PM 11.53 52.754 0.489 7.8 12.46 10.58
1/2/2022 1:45:00 PM 11.54 52.772 0.493 7.81 17.73 10.58
1/2/2022 2:00:00 PM 11.56 52.808 0.497 7.81 13.38 10.65
1/2/2022 2:15:00 PM 11.57 52.826 0.501 7.82 15.21 10.68
1/2/2022 2:30:00 PM 11.58 52.844 0.506 7.83 12.48 10.71
1/2/2022 2:45:00 PM 11.59 52.862 0.512 7.83 11.97 10.68
1/2/2022 3:00:00 PM 11.6 52.88 0.518 7.84 12.27 10.64
1/2/2022 3:15:00 PM 11.59 52.862 0.525 7.84 11.93 10.62
1/2/2022 3:30:00 PM 11.58 52.844 0.533 7.84 11.37 10.64
1/2/2022 3:45:00 PM 11.55 52.79 0.541 7.85 12.63 10.66
1/2/2022 4:00:00 PM 11.52 52.736 0.547 7.85 11.44 10.76
1/2/2022 4:15:00 PM 11.49 52.682 0.551 7.85 10.49 10.81
1/2/2022 4:30:00 PM 11.45 52.61 0.555 7.85 15.1 10.76
1/2/2022 4:45:00 PM 11.41 52.538 0.559 7.85 12.56 10.7
1/2/2022 5:00:00 PM 11.38 52.484 0.561 7.85 14.14 10.61
1/2/2022 5:15:00 PM 11.34 52.412 0.563 7.84 12.01 10.49
1/2/2022 5:30:00 PM 11.3 52.34 0.565 7.84 12.61 10.43
1/2/2022 5:45:00 PM 11.25 52.25 0.566 7.83 11.54 10.37
1/2/2022 6:00:00 PM 11.2 52.16 0.568 7.83 14.85 10.3
1/2/2022 6:15:00 PM 11.16 52.088 0.569 7.83 13.79 10.26
1/2/2022 6:30:00 PM 11.13 52.034 0.57 7.83 11.27 10.21
1/2/2022 6:45:00 PM 11.08 51.944 0.571 7.82 12.62 10.17
1/2/2022 7:00:00 PM 11.05 51.89 0.572 7.82 12.81 10.14
1/2/2022 7:15:00 PM 11 51.8 0.572 7.81 13.72 10.13
1/2/2022 7:30:00 PM 10.95 51.71 0.573 7.81 18.37 10.09
1/2/2022 7:45:00 PM 10.9 51.62 0.574 7.81 41.35 10.09
1/2/2022 8:00:00 PM 10.85 51.53 0.575 7.81 12.3 10.08
1/2/2022 8:15:00 PM 10.8 51.44 0.576 7.81 63.41 10.05
1/2/2022 8:30:00 PM 10.75 51.35 0.576 7.81 65.75 10.04
1/2/2022 8:45:00 PM 10.69 51.242 0.577 7.81 13.68 10.03
1/2/2022 9:00:00 PM 10.64 51.152 0.577 7.81 44.02 10.01
1/2/2022 9:15:00 PM 10.6 51.08 0.578 7.81 16.08 10.02
1/2/2022 9:30:00 PM 10.54 50.972 0.579 7.81 14.95 10.01
1/2/2022 9:45:00 PM 10.49 50.882 0.58 7.81 14.14 10.02
1/2/2022 10:00:00 PM 10.45 50.81 0.58 7.81 15.64 9.99
1/2/2022 10:15:00 PM 10.4 50.72 0.582 7.81 13.85 9.98
1/2/2022 10:30:00 PM 10.35 50.63 0.583 7.8 13.45 9.99
1/2/2022 10:45:00 PM 10.31 50.558 0.585 7.8 13.9 9.96
1/2/2022 11:00:00 PM 10.26 50.468 0.587 7.8 16.35 9.97
1/2/2022 11:15:00 PM 10.22 50.396 0.589 7.8 12.71 9.96
1/2/2022 11:30:00 PM 10.18 50.324 0.591 7.8 11.79 9.96
1/2/2022 11:45:00 PM 10.15 50.27 0.593 7.8 13.9 9.95
1/3/2022 12:00:00 AM 10.11 50.198 0.595 7.8 11.98 9.94
1/3/2022 12:15:00 AM 10.08 50.144 0.598 7.8 13.68 9.95
1/3/2022 12:30:00 AM 10.05 50.09 0.599 7.8 12 9.95
1/3/2022 12:45:00 AM 10.02 50.036 0.601 7.8 22.48 9.94
1/3/2022 1:00:00 AM 9.98 49.964 0.603 7.8 19.55 9.95
1/3/2022 1:15:00 AM 9.95 49.91 0.605 7.8 23.49 9.97
1/3/2022 1:30:00 AM 9.92 49.856 0.606 7.8 12.96 9.97
1/3/2022 1:45:00 AM 9.89 49.802 0.607 7.8 15.2 9.98
1/3/2022 2:00:00 AM 9.86 49.748 0.521 7.8 27.43 10
1/3/2022 2:15:00 AM 9.83 49.694 0.61 7.8 26.75 10
1/3/2022 2:30:00 AM 9.8 49.64 0.611 7.81 25.87 10.01
1/3/2022 2:45:00 AM 9.77 49.586 0.612 7.81 18.33 10.01
1/3/2022 3:00:00 AM 9.73 49.514 0.612 7.81 18.1 10.04
1/3/2022 3:15:00 AM 9.7 49.46 0.613 7.8 26.69 10.05
1/3/2022 3:30:00 AM 9.66 49.388 0.614 7.81 21.37 10.08
1/3/2022 3:45:00 AM 9.62 49.316 0.615 7.81 31.57 10.08
1/3/2022 4:00:00 AM 9.58 49.244 0.616 7.81 25.73 10.11
1/3/2022 4:15:00 AM 9.54 49.172 0.618 7.81 32.26 10.1
1/3/2022 4:30:00 AM 9.5 49.1 0.619 7.81 27.16 10.12
1/3/2022 4:45:00 AM 9.47 49.046 0.62 7.81 20.77 10.13
1/3/2022 5:00:00 AM 9.43 48.974 0.621 7.81 21.11 10.15
1/3/2022 5:15:00 AM 9.39 48.902 0.622 7.81 18.62 10.15
1/3/2022 5:30:00 AM 9.35 48.83 0.623 7.81 24.43 10.16
1/3/2022 5:45:00 AM 9.32 48.776 0.624 7.81 19.13 10.18
1/3/2022 6:00:00 AM 9.29 48.722 0.625 7.82 28.08 10.18
1/3/2022 6:15:00 AM 9.26 48.668 0.626 7.81 47.11 10.18
1/3/2022 6:30:00 AM 9.23 48.614 0.627 7.81 18.89 10.22
1/3/2022 6:45:00 AM 9.18 48.524 0.628 7.81 25.21 10.22
1/3/2022 7:00:00 AM 9.14 48.452 0.628 7.82 27.72 10.24
1/3/2022 7:15:00 AM 9.1 48.38 0.628 7.82 26.87 10.25
1/3/2022 7:30:00 AM 9.06 48.308 0.628 7.82 27.21 10.28
1/3/2022 7:45:00 AM 9.01 48.218 0.629 7.82 42.55 10.29
1/3/2022 8:00:00 AM 8.96 48.128 0.629 7.82 51.46 10.31
1/3/2022 8:15:00 AM 8.9 48.02 0.63 7.82 50.7 10.35
1/3/2022 8:30:00 AM 8.85 47.93 0.63 7.83 57.21 10.37
1/3/2022 8:45:00 AM 8.81 47.858 0.631 7.83 47.98 10.39
1/3/2022 9:00:00 AM 8.76 47.768 0.632 7.83 78.65 10.46
1/3/2022 9:15:00 AM 8.72 47.696 0.632 7.83 40.7 10.5
1/3/2022 9:30:00 AM 8.68 47.624 0.633 7.83 62.99 10.56
1/3/2022 9:45:00 AM 8.64 47.552 0.633 7.84 28.13 10.64
1/3/2022 10:00:00 AM 8.6 47.48 0.634 7.84 14.24 10.71
1/3/2022 10:15:00 AM 8.57 47.426 0.634 7.84 14.98 10.76
1/3/2022 10:30:00 AM 8.54 47.372 0.634 7.85 15.04 10.87
1/3/2022 10:45:00 AM 8.49 47.282 0.635 7.86 11.34 10.95
1/3/2022 11:00:00 AM 8.46 47.228 0.635 7.86 20.58 11.05
1/3/2022 11:15:00 AM 8.44 47.192 0.635 7.87 58.94 11.16
1/3/2022 11:30:00 AM 8.42 47.156 0.635 7.87 13.35 11.27
1/3/2022 11:45:00 AM 8.4 47.12 0.636 7.88 11.08 11.35
1/3/2022 12:00:00 PM 8.38 47.084 0.636 7.89 33.05 11.42
1/3/2022 12:15:00 PM 8.34 47.012 0.636 7.89 17.22 11.5
1/3/2022 12:30:00 PM 8.3 46.94 0.637 7.9 21.91 11.55
1/3/2022 12:45:00 PM 8.28 46.904 0.637 7.91 32.37 11.58
1/3/2022 1:00:00 PM 8.26 46.868 0.637 7.91 12.05 11.64
1/3/2022 1:15:00 PM 8.23 46.814 0.638 7.92 35.45 11.73
1/3/2022 1:30:00 PM 8.21 46.778 0.638 7.92 22.04 11.81
1/3/2022 1:45:00 PM 8.19 46.742 0.639 7.93 81.02 11.89
1/3/2022 2:00:00 PM 8.18 46.724 0.639 7.94 11.95 12.02
1/3/2022 2:15:00 PM 8.17 46.706 0.639 7.94 16.99 12.14
1/3/2022 2:30:00 PM 8.16 46.688 0.639 7.95 14.09 12.24
1/3/2022 2:45:00 PM 8.14 46.652 0.639 7.95 147.3 12.32
1/3/2022 3:00:00 PM 8.12 46.616 0.639 7.96 72.56 12.37
1/3/2022 3:15:00 PM 8.11 46.598 0.639 7.96 30.58 12.4
1/3/2022 3:30:00 PM 8.09 46.562 0.639 7.96 106.9 12.43
1/3/2022 3:45:00 PM 8.07 46.526 0.639 7.97 46.52 12.46
1/3/2022 4:00:00 PM 8.04 46.472 0.639 7.97 10.51 12.51
1/3/2022 4:15:00 PM 8 46.4 0.639 7.98 11.63 12.5
1/3/2022 4:30:00 PM 7.94 46.292 0.639 7.98 22.87 12.41
1/3/2022 4:45:00 PM 7.89 46.202 0.639 7.97 12.73 12.35
1/3/2022 5:00:00 PM 7.83 46.094 0.639 7.97 13.72 12.25
1/3/2022 5:15:00 PM 7.77 45.986 0.639 7.96 9.91 12.14
1/3/2022 5:30:00 PM 7.72 45.896 0.639 7.96 46.52 12.04
1/3/2022 5:45:00 PM 7.67 45.806 0.639 7.95 15.01 11.95
1/3/2022 6:00:00 PM 7.62 45.716 0.639 7.94 32.93 11.87
1/3/2022 6:15:00 PM 7.56 45.608 0.639 7.94 31.68 11.83
1/3/2022 6:30:00 PM 7.52 45.536 0.64 7.93 58.94 11.78
1/3/2022 6:45:00 PM 7.47 45.446 0.64 7.93 132.8 11.75
1/3/2022 7:00:00 PM 7.43 45.374 0.64 7.92 16.18 11.7
1/3/2022 7:15:00 PM 7.39 45.302 0.64 7.92 25.93 11.67
1/3/2022 7:30:00 PM 7.36 45.248 0.64 7.92 67.61 11.65
1/3/2022 7:45:00 PM 7.33 45.194 0.64 7.92 91.21 11.63
1/3/2022 8:00:00 PM 7.3 45.14 0.64 7.92 90.02 11.64
1/3/2022 8:15:00 PM 7.26 45.068 0.641 7.91 51.12 11.61
1/3/2022 8:30:00 PM 7.24 45.032 0.641 7.91 60.71 11.6
1/3/2022 8:45:00 PM 7.2 44.96 0.641 7.91 57.39 11.6
1/3/2022 9:00:00 PM 7.16 44.888 0.642 7.91 51.03 11.57
1/3/2022 9:15:00 PM 7.14 44.852 0.642 7.91 50.53 11.56
1/3/2022 9:30:00 PM 7.11 44.798 0.642 7.9 48.28 11.58
1/3/2022 9:45:00 PM 7.08 44.744 0.643 7.9 35.57 11.54
1/3/2022 10:00:00 PM 7.05 44.69 0.643 7.9 44.5 11.55
1/3/2022 10:15:00 PM 7.03 44.654 0.644 7.91 19 11.54
1/3/2022 10:30:00 PM 7.01 44.618 0.645 7.9 39.52 11.53
1/3/2022 10:45:00 PM 6.98 44.564 0.645 7.91 33.93 11.53
1/3/2022 11:00:00 PM 6.95 44.51 0.646 7.9 44.67 11.5
1/3/2022 11:15:00 PM 6.91 44.438 0.646 7.9 43.14 11.5
1/3/2022 11:30:00 PM 6.86 44.348 0.647 7.9 45.3 11.49
1/3/2022 11:45:00 PM 6.8 44.24 0.647 7.9 39.24 11.44
1/4/2022 12:00:00 AM 6.73 44.114 0.648 7.9 34.3 11.4
1/4/2022 12:15:00 AM 6.67 44.006 0.649 7.88 61.58 11.38
1/4/2022 12:30:00 AM 6.62 43.916 0.649 7.89 57.2 11.34
1/4/2022 12:45:00 AM 6.58 43.844 0.65 7.88 84.44 11.32
1/4/2022 1:00:00 AM 6.55 43.79 0.65 7.88 51.38 11.3
1/4/2022 1:15:00 AM 6.53 43.754 0.651 7.88 27.04 11.3
1/4/2022 1:30:00 AM 6.54 43.772 0.651 7.88 27.76 11.32
1/4/2022 1:45:00 AM 6.56 43.808 0.651 7.88 37.57 11.34
1/4/2022 2:00:00 AM 6.59 43.862 0.651 7.88 33.25 11.4
1/4/2022 2:15:00 AM 6.59 43.862 0.651 7.88 39.48 11.39
1/4/2022 2:30:00 AM 6.59 43.862 0.651 7.88 36.34 11.43
1/4/2022 2:45:00 AM 6.57 43.826 0.651 7.87 76.73 11.45
1/4/2022 3:00:00 AM 6.55 43.79 0.651 7.88 16.28 11.44
1/4/2022 3:15:00 AM 6.54 43.772 0.652 7.88 13.75 11.46
1/4/2022 3:30:00 AM 6.52 43.736 0.652 7.88 13.1 11.47
1/4/2022 3:45:00 AM 6.5 43.7 0.652 7.88 14.92 11.47
1/4/2022 4:00:00 AM 6.48 43.664 0.652 7.87 14.88 11.49
1/4/2022 4:15:00 AM 6.46 43.628 0.652 7.87 63.77 11.46
1/4/2022 4:30:00 AM 6.43 43.574 0.653 7.87 40.32 11.5
1/4/2022 4:45:00 AM 6.41 43.538 0.653 7.87 14.23 11.5
1/4/2022 5:00:00 AM 6.39 43.502 0.653 7.87 75.59 11.53
1/4/2022 5:15:00 AM 6.37 43.466 0.653 7.88 49.28 11.52
1/4/2022 5:30:00 AM 6.35 43.43 0.653 7.88 57.31 11.54
1/4/2022 5:45:00 AM 6.34 43.412 0.654 7.88 66.47 11.54
1/4/2022 6:00:00 AM 6.31 43.358 0.654 7.88 16.69 11.56
1/4/2022 6:15:00 AM 6.29 43.322 0.654 7.88 58.87 11.56
1/4/2022 6:30:00 AM 6.27 43.286 0.654 7.88 74.6 11.55
1/4/2022 6:45:00 AM 6.24 43.232 0.654 7.87 71.34 11.57
1/4/2022 7:00:00 AM 6.22 43.196 0.655 7.88 38.25 11.57
1/4/2022 7:15:00 AM 6.19 43.142 0.655 7.88 58.98 11.59
1/4/2022 7:30:00 AM 6.17 43.106 0.655 7.88 54.45 11.6
1/4/2022 7:45:00 AM 6.15 43.07 0.655 7.88 48.45 11.63
1/4/2022 8:00:00 AM 6.13 43.034 0.656 7.88 51.55 11.66
1/4/2022 8:15:00 AM 6.12 43.016 0.656 7.88 82.29 11.71
1/4/2022 8:30:00 AM 6.11 42.998 0.656 7.88 107.8 11.8
1/4/2022 8:45:00 AM 6.11 42.998 0.656 7.89 92.34 11.85
1/4/2022 9:00:00 AM 6.12 43.016 0.656 7.9 76.64 11.94
1/4/2022 9:15:00 AM 6.15 43.07 0.656 7.9 37.25 12.08
1/4/2022 9:30:00 AM 6.21 43.178 0.656 7.91 110.2 12.22
1/4/2022 9:45:00 AM 6.29 43.322 0.656 7.92 97.81 12.39
1/4/2022 10:00:00 AM 6.35 43.43